<?xml version="1.0" encoding="UTF-8" standalone="no" ?>
<gpx xmlns="http://www.topografix.com/GPX/1/1" xmlns:xsi="http://www.w3.org/2001/XMLSchema-instance" xsi:schemaLocation="http://www.topografix.com/GPX/1/1 http://www.topografix.com/GPX/1/1/gpx.xsd" version="1.1" creator="VisuGPX - https://www.visugpx.com">
  <metadata>
    <name>Payrin-Augmontel Randonnée 22 févr. 2022</name>
  </metadata>
  <trk>
    <name><![CDATA[Payrin-Augmontel Randonnée 22 févr. 2022]]></name>
    <trkseg>
      <trkpt lat="43.54583" lon="2.34981">
        <ele>326.99241742039</ele>
        <time>2022-02-22T12:41:46Z</time>
      </trkpt>
      <trkpt lat="43.54591" lon="2.34974">
        <ele>331.65153973711</ele>
        <time>2022-02-22T12:45:48Z</time>
      </trkpt>
      <trkpt lat="43.54598" lon="2.3497">
        <ele>331.5956999506</ele>
        <time>2022-02-22T12:45:54Z</time>
      </trkpt>
      <trkpt lat="43.54605" lon="2.34969">
        <ele>332.47399775489</ele>
        <time>2022-02-22T12:46:00Z</time>
      </trkpt>
      <trkpt lat="43.54616" lon="2.34973">
        <ele>333.33843224304</ele>
        <time>2022-02-22T12:46:05Z</time>
      </trkpt>
      <trkpt lat="43.54618" lon="2.34962">
        <ele>332.66398299793</ele>
        <time>2022-02-22T12:46:14Z</time>
      </trkpt>
      <trkpt lat="43.5462" lon="2.3495">
        <ele>331.38878404667</ele>
        <time>2022-02-22T12:46:21Z</time>
      </trkpt>
      <trkpt lat="43.54625" lon="2.34943">
        <ele>330.76816561814</ele>
        <time>2022-02-22T12:46:29Z</time>
      </trkpt>
      <trkpt lat="43.54633" lon="2.34938">
        <ele>331.04918277031</ele>
        <time>2022-02-22T12:46:35Z</time>
      </trkpt>
      <trkpt lat="43.54637" lon="2.34927">
        <ele>328.79101056181</ele>
        <time>2022-02-22T12:46:44Z</time>
      </trkpt>
      <trkpt lat="43.54645" lon="2.34926">
        <ele>329.59069085951</ele>
        <time>2022-02-22T12:46:52Z</time>
      </trkpt>
      <trkpt lat="43.54653" lon="2.34923">
        <ele>330.71929964227</ele>
        <time>2022-02-22T12:47:04Z</time>
      </trkpt>
      <trkpt lat="43.54662" lon="2.34922">
        <ele>330.42183204605</ele>
        <time>2022-02-22T12:47:11Z</time>
      </trkpt>
      <trkpt lat="43.5467" lon="2.34918">
        <ele>328.8791300868</ele>
        <time>2022-02-22T12:47:21Z</time>
      </trkpt>
      <trkpt lat="43.54678" lon="2.34918">
        <ele>328.47228928115</ele>
        <time>2022-02-22T12:47:37Z</time>
      </trkpt>
      <trkpt lat="43.54686" lon="2.34914">
        <ele>329.98867221922</ele>
        <time>2022-02-22T12:47:42Z</time>
      </trkpt>
      <trkpt lat="43.54693" lon="2.3491">
        <ele>330.61389652669</ele>
        <time>2022-02-22T12:47:51Z</time>
      </trkpt>
      <trkpt lat="43.54701" lon="2.34908">
        <ele>330.54083683421</ele>
        <time>2022-02-22T12:47:55Z</time>
      </trkpt>
      <trkpt lat="43.5471" lon="2.34909">
        <ele>330.63883949291</ele>
        <time>2022-02-22T12:47:59Z</time>
      </trkpt>
      <trkpt lat="43.54724" lon="2.34908">
        <ele>330.71278990489</ele>
        <time>2022-02-22T12:48:04Z</time>
      </trkpt>
      <trkpt lat="43.54732" lon="2.34908">
        <ele>330.79418299876</ele>
        <time>2022-02-22T12:48:08Z</time>
      </trkpt>
      <trkpt lat="43.54739" lon="2.34901">
        <ele>327.42862284601</ele>
        <time>2022-02-22T12:48:18Z</time>
      </trkpt>
      <trkpt lat="43.54747" lon="2.34898">
        <ele>324.83344689414</ele>
        <time>2022-02-22T12:48:36Z</time>
      </trkpt>
      <trkpt lat="43.54754" lon="2.34891">
        <ele>325.52792512703</ele>
        <time>2022-02-22T12:48:49Z</time>
      </trkpt>
      <trkpt lat="43.54761" lon="2.34884">
        <ele>326.25092680002</ele>
        <time>2022-02-22T12:48:56Z</time>
      </trkpt>
      <trkpt lat="43.54768" lon="2.34877">
        <ele>327.95272721885</ele>
        <time>2022-02-22T12:49:05Z</time>
      </trkpt>
      <trkpt lat="43.54772" lon="2.34867">
        <ele>326.59148507559</ele>
        <time>2022-02-22T12:49:14Z</time>
      </trkpt>
      <trkpt lat="43.54778" lon="2.34861">
        <ele>327.73288232471</ele>
        <time>2022-02-22T12:49:21Z</time>
      </trkpt>
      <trkpt lat="43.54786" lon="2.34856">
        <ele>328.96515400122</ele>
        <time>2022-02-22T12:49:29Z</time>
      </trkpt>
      <trkpt lat="43.54794" lon="2.3485">
        <ele>330.2795583998</ele>
        <time>2022-02-22T12:49:38Z</time>
      </trkpt>
      <trkpt lat="43.548" lon="2.34841">
        <ele>331.7768932192</ele>
        <time>2022-02-22T12:49:45Z</time>
      </trkpt>
      <trkpt lat="43.54805" lon="2.34831">
        <ele>332.11562562754</ele>
        <time>2022-02-22T12:49:51Z</time>
      </trkpt>
      <trkpt lat="43.54808" lon="2.3482">
        <ele>330.8235653227</ele>
        <time>2022-02-22T12:50:04Z</time>
      </trkpt>
      <trkpt lat="43.54814" lon="2.34812">
        <ele>332.34952501813</ele>
        <time>2022-02-22T12:50:12Z</time>
      </trkpt>
      <trkpt lat="43.54821" lon="2.34807">
        <ele>333.92677901346</ele>
        <time>2022-02-22T12:50:18Z</time>
      </trkpt>
      <trkpt lat="43.54826" lon="2.34798">
        <ele>335.47441118365</ele>
        <time>2022-02-22T12:50:25Z</time>
      </trkpt>
      <trkpt lat="43.54832" lon="2.34789">
        <ele>336.09027383192</ele>
        <time>2022-02-22T12:50:33Z</time>
      </trkpt>
      <trkpt lat="43.54837" lon="2.3478">
        <ele>335.70377515432</ele>
        <time>2022-02-22T12:50:40Z</time>
      </trkpt>
      <trkpt lat="43.54843" lon="2.34771">
        <ele>337.25223450282</ele>
        <time>2022-02-22T12:50:50Z</time>
      </trkpt>
      <trkpt lat="43.54849" lon="2.34761">
        <ele>338.42267078946</ele>
        <time>2022-02-22T12:51:00Z</time>
      </trkpt>
      <trkpt lat="43.54853" lon="2.34751">
        <ele>338.16775873387</ele>
        <time>2022-02-22T12:51:09Z</time>
      </trkpt>
      <trkpt lat="43.54855" lon="2.3474">
        <ele>339.07280273601</ele>
        <time>2022-02-22T12:51:16Z</time>
      </trkpt>
      <trkpt lat="43.54857" lon="2.34728">
        <ele>339.42795126744</ele>
        <time>2022-02-22T12:51:27Z</time>
      </trkpt>
      <trkpt lat="43.54863" lon="2.3472">
        <ele>339.627212829</ele>
        <time>2022-02-22T12:51:34Z</time>
      </trkpt>
      <trkpt lat="43.54868" lon="2.34712">
        <ele>342.8668258589</ele>
        <time>2022-02-22T12:51:42Z</time>
      </trkpt>
      <trkpt lat="43.54868" lon="2.34701">
        <ele>343.78951577108</ele>
        <time>2022-02-22T12:51:53Z</time>
      </trkpt>
      <trkpt lat="43.54869" lon="2.34689">
        <ele>343.22032215168</ele>
        <time>2022-02-22T12:52:01Z</time>
      </trkpt>
      <trkpt lat="43.54877" lon="2.34686">
        <ele>342.54715469934</ele>
        <time>2022-02-22T12:52:09Z</time>
      </trkpt>
      <trkpt lat="43.54891" lon="2.34685">
        <ele>342.99904045863</ele>
        <time>2022-02-22T12:52:14Z</time>
      </trkpt>
      <trkpt lat="43.5489" lon="2.34673">
        <ele>344.5774889403</ele>
        <time>2022-02-22T12:52:27Z</time>
      </trkpt>
      <trkpt lat="43.54888" lon="2.34663">
        <ele>344.00689788203</ele>
        <time>2022-02-22T12:52:37Z</time>
      </trkpt>
      <trkpt lat="43.5489" lon="2.34651">
        <ele>342.98001084347</ele>
        <time>2022-02-22T12:52:43Z</time>
      </trkpt>
      <trkpt lat="43.54891" lon="2.34641">
        <ele>345.01617415986</ele>
        <time>2022-02-22T12:52:59Z</time>
      </trkpt>
      <trkpt lat="43.54896" lon="2.34632">
        <ele>346.72788254612</ele>
        <time>2022-02-22T12:53:03Z</time>
      </trkpt>
      <trkpt lat="43.54901" lon="2.34622">
        <ele>347.89170783322</ele>
        <time>2022-02-22T12:53:10Z</time>
      </trkpt>
      <trkpt lat="43.54905" lon="2.34612">
        <ele>346.61623964321</ele>
        <time>2022-02-22T12:53:22Z</time>
      </trkpt>
      <trkpt lat="43.5491" lon="2.34602">
        <ele>343.97001808798</ele>
        <time>2022-02-22T12:53:31Z</time>
      </trkpt>
      <trkpt lat="43.54916" lon="2.34594">
        <ele>342.62100747223</ele>
        <time>2022-02-22T12:53:36Z</time>
      </trkpt>
      <trkpt lat="43.54922" lon="2.34587">
        <ele>338.99847894346</ele>
        <time>2022-02-22T12:53:42Z</time>
      </trkpt>
      <trkpt lat="43.54929" lon="2.34582">
        <ele>335.78730779561</ele>
        <time>2022-02-22T12:53:51Z</time>
      </trkpt>
      <trkpt lat="43.54937" lon="2.34581">
        <ele>331.70309991744</ele>
        <time>2022-02-22T12:54:03Z</time>
      </trkpt>
      <trkpt lat="43.54944" lon="2.34578">
        <ele>329.62709093742</ele>
        <time>2022-02-22T12:54:17Z</time>
      </trkpt>
      <trkpt lat="43.5495" lon="2.34571">
        <ele>330.51037867362</ele>
        <time>2022-02-22T12:54:22Z</time>
      </trkpt>
      <trkpt lat="43.54957" lon="2.34567">
        <ele>331.05016395332</ele>
        <time>2022-02-22T12:54:27Z</time>
      </trkpt>
      <trkpt lat="43.54966" lon="2.34563">
        <ele>330.69482750512</ele>
        <time>2022-02-22T12:54:32Z</time>
      </trkpt>
      <trkpt lat="43.54973" lon="2.34558">
        <ele>330.03755507725</ele>
        <time>2022-02-22T12:54:37Z</time>
      </trkpt>
      <trkpt lat="43.54981" lon="2.34553">
        <ele>328.62094746229</ele>
        <time>2022-02-22T12:54:47Z</time>
      </trkpt>
      <trkpt lat="43.5499" lon="2.34552">
        <ele>326.61897696059</ele>
        <time>2022-02-22T12:54:53Z</time>
      </trkpt>
      <trkpt lat="43.54997" lon="2.34548">
        <ele>326.910972046</ele>
        <time>2022-02-22T12:54:57Z</time>
      </trkpt>
      <trkpt lat="43.55004" lon="2.34542">
        <ele>326.75708290515</ele>
        <time>2022-02-22T12:55:03Z</time>
      </trkpt>
      <trkpt lat="43.55012" lon="2.34537">
        <ele>325.87610838468</ele>
        <time>2022-02-22T12:55:11Z</time>
      </trkpt>
      <trkpt lat="43.55019" lon="2.34533">
        <ele>323.97215126191</ele>
        <time>2022-02-22T12:55:24Z</time>
      </trkpt>
      <trkpt lat="43.55028" lon="2.3453">
        <ele>323.37432495041</ele>
        <time>2022-02-22T12:55:35Z</time>
      </trkpt>
      <trkpt lat="43.55035" lon="2.34526">
        <ele>322.63395452195</ele>
        <time>2022-02-22T12:55:47Z</time>
      </trkpt>
      <trkpt lat="43.55046" lon="2.34519">
        <ele>321.64175835557</ele>
        <time>2022-02-22T12:55:52Z</time>
      </trkpt>
      <trkpt lat="43.55054" lon="2.34515">
        <ele>321.07626223252</ele>
        <time>2022-02-22T12:55:57Z</time>
      </trkpt>
      <trkpt lat="43.55062" lon="2.34512">
        <ele>319.80218990911</ele>
        <time>2022-02-22T12:56:05Z</time>
      </trkpt>
      <trkpt lat="43.55071" lon="2.3451">
        <ele>318.41310298117</ele>
        <time>2022-02-22T12:56:15Z</time>
      </trkpt>
      <trkpt lat="43.55079" lon="2.34507">
        <ele>317.44159223341</ele>
        <time>2022-02-22T12:56:20Z</time>
      </trkpt>
      <trkpt lat="43.55087" lon="2.34506">
        <ele>317.10317801247</ele>
        <time>2022-02-22T12:56:24Z</time>
      </trkpt>
      <trkpt lat="43.55095" lon="2.34503">
        <ele>317.5142644561</ele>
        <time>2022-02-22T12:56:29Z</time>
      </trkpt>
      <trkpt lat="43.55103" lon="2.34501">
        <ele>318.79500891413</ele>
        <time>2022-02-22T12:56:35Z</time>
      </trkpt>
      <trkpt lat="43.5511" lon="2.34498">
        <ele>319.30123893233</ele>
        <time>2022-02-22T12:56:43Z</time>
      </trkpt>
      <trkpt lat="43.55117" lon="2.34492">
        <ele>318.99183583812</ele>
        <time>2022-02-22T12:56:49Z</time>
      </trkpt>
      <trkpt lat="43.55124" lon="2.34486">
        <ele>316.02768645059</ele>
        <time>2022-02-22T12:56:57Z</time>
      </trkpt>
      <trkpt lat="43.5513" lon="2.34478">
        <ele>314.38899935709</ele>
        <time>2022-02-22T12:57:06Z</time>
      </trkpt>
      <trkpt lat="43.55137" lon="2.34473">
        <ele>313.26273762535</ele>
        <time>2022-02-22T12:57:12Z</time>
      </trkpt>
      <trkpt lat="43.55144" lon="2.34468">
        <ele>312.51930762815</ele>
        <time>2022-02-22T12:57:17Z</time>
      </trkpt>
      <trkpt lat="43.55152" lon="2.34463">
        <ele>312.35865845887</ele>
        <time>2022-02-22T12:57:24Z</time>
      </trkpt>
      <trkpt lat="43.5516" lon="2.34461">
        <ele>311.6571200624</ele>
        <time>2022-02-22T12:57:31Z</time>
      </trkpt>
      <trkpt lat="43.55168" lon="2.34459">
        <ele>310.03766965152</ele>
        <time>2022-02-22T12:57:38Z</time>
      </trkpt>
      <trkpt lat="43.55176" lon="2.34456">
        <ele>308.62540337543</ele>
        <time>2022-02-22T12:57:45Z</time>
      </trkpt>
      <trkpt lat="43.55185" lon="2.34453">
        <ele>308.09580613876</ele>
        <time>2022-02-22T12:57:52Z</time>
      </trkpt>
      <trkpt lat="43.55193" lon="2.34452">
        <ele>306.81510915554</ele>
        <time>2022-02-22T12:57:58Z</time>
      </trkpt>
      <trkpt lat="43.55199" lon="2.34445">
        <ele>307.03910585488</ele>
        <time>2022-02-22T12:58:04Z</time>
      </trkpt>
      <trkpt lat="43.55205" lon="2.34436">
        <ele>307.71479843658</ele>
        <time>2022-02-22T12:58:11Z</time>
      </trkpt>
      <trkpt lat="43.55213" lon="2.34431">
        <ele>306.36321781977</ele>
        <time>2022-02-22T12:58:19Z</time>
      </trkpt>
      <trkpt lat="43.55221" lon="2.3443">
        <ele>306.18463448509</ele>
        <time>2022-02-22T12:58:26Z</time>
      </trkpt>
      <trkpt lat="43.55229" lon="2.3443">
        <ele>305.07773129281</ele>
        <time>2022-02-22T12:58:32Z</time>
      </trkpt>
      <trkpt lat="43.55237" lon="2.34427">
        <ele>304.66034264976</ele>
        <time>2022-02-22T12:58:39Z</time>
      </trkpt>
      <trkpt lat="43.55245" lon="2.34424">
        <ele>304.40292758469</ele>
        <time>2022-02-22T12:58:47Z</time>
      </trkpt>
      <trkpt lat="43.55254" lon="2.34423">
        <ele>304.89209234806</ele>
        <time>2022-02-22T12:58:53Z</time>
      </trkpt>
      <trkpt lat="43.55263" lon="2.3442">
        <ele>305.48764378465</ele>
        <time>2022-02-22T12:59:00Z</time>
      </trkpt>
      <trkpt lat="43.55271" lon="2.34416">
        <ele>305.74481339789</ele>
        <time>2022-02-22T12:59:06Z</time>
      </trkpt>
      <trkpt lat="43.55279" lon="2.34416">
        <ele>305.8818171208</ele>
        <time>2022-02-22T12:59:12Z</time>
      </trkpt>
      <trkpt lat="43.55286" lon="2.34412">
        <ele>305.11867863298</ele>
        <time>2022-02-22T12:59:19Z</time>
      </trkpt>
      <trkpt lat="43.55294" lon="2.3441">
        <ele>304.80047293381</ele>
        <time>2022-02-22T12:59:25Z</time>
      </trkpt>
      <trkpt lat="43.55302" lon="2.34407">
        <ele>304.24820463714</ele>
        <time>2022-02-22T12:59:33Z</time>
      </trkpt>
      <trkpt lat="43.5531" lon="2.34402">
        <ele>304.28884249449</ele>
        <time>2022-02-22T12:59:39Z</time>
      </trkpt>
      <trkpt lat="43.55318" lon="2.344">
        <ele>304.06766935969</ele>
        <time>2022-02-22T12:59:45Z</time>
      </trkpt>
      <trkpt lat="43.55325" lon="2.34393">
        <ele>304.8095918085</ele>
        <time>2022-02-22T12:59:56Z</time>
      </trkpt>
      <trkpt lat="43.55333" lon="2.34387">
        <ele>304.69893481378</ele>
        <time>2022-02-22T13:00:03Z</time>
      </trkpt>
      <trkpt lat="43.5534" lon="2.34382">
        <ele>304.18221819392</ele>
        <time>2022-02-22T13:00:08Z</time>
      </trkpt>
      <trkpt lat="43.55347" lon="2.34377">
        <ele>303.14073971723</ele>
        <time>2022-02-22T13:00:14Z</time>
      </trkpt>
      <trkpt lat="43.55355" lon="2.34373">
        <ele>303.33531265057</ele>
        <time>2022-02-22T13:00:20Z</time>
      </trkpt>
      <trkpt lat="43.55364" lon="2.3437">
        <ele>303.49720257415</ele>
        <time>2022-02-22T13:00:26Z</time>
      </trkpt>
      <trkpt lat="43.55372" lon="2.34368">
        <ele>304.11500952152</ele>
        <time>2022-02-22T13:00:33Z</time>
      </trkpt>
      <trkpt lat="43.55379" lon="2.34363">
        <ele>304.12269408961</ele>
        <time>2022-02-22T13:00:40Z</time>
      </trkpt>
      <trkpt lat="43.55386" lon="2.34358">
        <ele>304.33378192711</ele>
        <time>2022-02-22T13:00:47Z</time>
      </trkpt>
      <trkpt lat="43.55395" lon="2.34354">
        <ele>304.55836852322</ele>
        <time>2022-02-22T13:00:54Z</time>
      </trkpt>
      <trkpt lat="43.55402" lon="2.3435">
        <ele>304.41505570707</ele>
        <time>2022-02-22T13:01:00Z</time>
      </trkpt>
      <trkpt lat="43.5541" lon="2.34346">
        <ele>305.60877250711</ele>
        <time>2022-02-22T13:01:07Z</time>
      </trkpt>
      <trkpt lat="43.55418" lon="2.34343">
        <ele>306.84321116633</ele>
        <time>2022-02-22T13:01:15Z</time>
      </trkpt>
      <trkpt lat="43.55426" lon="2.34341">
        <ele>305.98807163775</ele>
        <time>2022-02-22T13:01:21Z</time>
      </trkpt>
      <trkpt lat="43.55434" lon="2.34336">
        <ele>305.53918684112</ele>
        <time>2022-02-22T13:01:28Z</time>
      </trkpt>
      <trkpt lat="43.55442" lon="2.34333">
        <ele>305.50916404703</ele>
        <time>2022-02-22T13:01:35Z</time>
      </trkpt>
      <trkpt lat="43.55449" lon="2.34328">
        <ele>306.59730243893</ele>
        <time>2022-02-22T13:01:42Z</time>
      </trkpt>
      <trkpt lat="43.55457" lon="2.34325">
        <ele>306.31476243302</ele>
        <time>2022-02-22T13:01:48Z</time>
      </trkpt>
      <trkpt lat="43.55464" lon="2.3432">
        <ele>306.02295099628</ele>
        <time>2022-02-22T13:01:54Z</time>
      </trkpt>
      <trkpt lat="43.55471" lon="2.34313">
        <ele>306.01109567324</ele>
        <time>2022-02-22T13:02:00Z</time>
      </trkpt>
      <trkpt lat="43.55478" lon="2.34307">
        <ele>305.18205216201</ele>
        <time>2022-02-22T13:02:07Z</time>
      </trkpt>
      <trkpt lat="43.55486" lon="2.34301">
        <ele>303.57414339938</ele>
        <time>2022-02-22T13:02:14Z</time>
      </trkpt>
      <trkpt lat="43.55493" lon="2.34295">
        <ele>302.19522683029</ele>
        <time>2022-02-22T13:02:27Z</time>
      </trkpt>
      <trkpt lat="43.555" lon="2.34291">
        <ele>302.22161939065</ele>
        <time>2022-02-22T13:02:32Z</time>
      </trkpt>
      <trkpt lat="43.55508" lon="2.34287">
        <ele>301.6480997506</ele>
        <time>2022-02-22T13:02:37Z</time>
      </trkpt>
      <trkpt lat="43.55516" lon="2.34285">
        <ele>300.30018013162</ele>
        <time>2022-02-22T13:02:42Z</time>
      </trkpt>
      <trkpt lat="43.55525" lon="2.34281">
        <ele>298.8639871285</ele>
        <time>2022-02-22T13:02:48Z</time>
      </trkpt>
      <trkpt lat="43.55533" lon="2.34277">
        <ele>298.3239762798</ele>
        <time>2022-02-22T13:02:55Z</time>
      </trkpt>
      <trkpt lat="43.5554" lon="2.34274">
        <ele>298.49134058422</ele>
        <time>2022-02-22T13:03:01Z</time>
      </trkpt>
      <trkpt lat="43.55549" lon="2.34274">
        <ele>299.26275247165</ele>
        <time>2022-02-22T13:03:09Z</time>
      </trkpt>
      <trkpt lat="43.55558" lon="2.34273">
        <ele>299.88066310382</ele>
        <time>2022-02-22T13:03:16Z</time>
      </trkpt>
      <trkpt lat="43.55565" lon="2.34274">
        <ele>298.98456411858</ele>
        <time>2022-02-22T13:03:23Z</time>
      </trkpt>
      <trkpt lat="43.55574" lon="2.34273">
        <ele>297.77107433182</ele>
        <time>2022-02-22T13:03:28Z</time>
      </trkpt>
      <trkpt lat="43.55582" lon="2.34274">
        <ele>297.31271525967</ele>
        <time>2022-02-22T13:03:33Z</time>
      </trkpt>
      <trkpt lat="43.5559" lon="2.34278">
        <ele>297.81615477152</ele>
        <time>2022-02-22T13:03:38Z</time>
      </trkpt>
      <trkpt lat="43.55598" lon="2.3428">
        <ele>299.26692863014</ele>
        <time>2022-02-22T13:03:43Z</time>
      </trkpt>
      <trkpt lat="43.55605" lon="2.34284">
        <ele>299.71124152326</ele>
        <time>2022-02-22T13:03:53Z</time>
      </trkpt>
      <trkpt lat="43.55614" lon="2.34285">
        <ele>299.13840204128</ele>
        <time>2022-02-22T13:03:59Z</time>
      </trkpt>
      <trkpt lat="43.55622" lon="2.34286">
        <ele>298.03841444407</ele>
        <time>2022-02-22T13:04:05Z</time>
      </trkpt>
      <trkpt lat="43.5563" lon="2.34286">
        <ele>295.64119513023</ele>
        <time>2022-02-22T13:04:11Z</time>
      </trkpt>
      <trkpt lat="43.55638" lon="2.34285">
        <ele>293.36736403318</ele>
        <time>2022-02-22T13:04:17Z</time>
      </trkpt>
      <trkpt lat="43.55647" lon="2.34284">
        <ele>289.23824375337</ele>
        <time>2022-02-22T13:04:26Z</time>
      </trkpt>
      <trkpt lat="43.55655" lon="2.34282">
        <ele>287.9935932232</ele>
        <time>2022-02-22T13:04:36Z</time>
      </trkpt>
      <trkpt lat="43.55663" lon="2.34281">
        <ele>285.98570135215</ele>
        <time>2022-02-22T13:04:40Z</time>
      </trkpt>
      <trkpt lat="43.55671" lon="2.3428">
        <ele>286.91322495344</ele>
        <time>2022-02-22T13:04:45Z</time>
      </trkpt>
      <trkpt lat="43.55679" lon="2.3428">
        <ele>286.62804710454</ele>
        <time>2022-02-22T13:04:51Z</time>
      </trkpt>
      <trkpt lat="43.55687" lon="2.3428">
        <ele>286.30459539964</ele>
        <time>2022-02-22T13:04:59Z</time>
      </trkpt>
      <trkpt lat="43.55695" lon="2.34282">
        <ele>285.09701930884</ele>
        <time>2022-02-22T13:05:07Z</time>
      </trkpt>
      <trkpt lat="43.55704" lon="2.34281">
        <ele>284.38139434176</ele>
        <time>2022-02-22T13:05:14Z</time>
      </trkpt>
      <trkpt lat="43.55712" lon="2.3428">
        <ele>284.57342635364</ele>
        <time>2022-02-22T13:05:22Z</time>
      </trkpt>
      <trkpt lat="43.5572" lon="2.34281">
        <ele>283.86047818111</ele>
        <time>2022-02-22T13:05:28Z</time>
      </trkpt>
      <trkpt lat="43.55728" lon="2.34281">
        <ele>281.66229761074</ele>
        <time>2022-02-22T13:05:34Z</time>
      </trkpt>
      <trkpt lat="43.55737" lon="2.3428">
        <ele>281.34015109604</ele>
        <time>2022-02-22T13:05:40Z</time>
      </trkpt>
      <trkpt lat="43.55745" lon="2.34283">
        <ele>280.6006963925</ele>
        <time>2022-02-22T13:05:48Z</time>
      </trkpt>
      <trkpt lat="43.55753" lon="2.34287">
        <ele>279.8045559391</ele>
        <time>2022-02-22T13:05:57Z</time>
      </trkpt>
      <trkpt lat="43.5576" lon="2.34292">
        <ele>280.18466585434</ele>
        <time>2022-02-22T13:06:03Z</time>
      </trkpt>
      <trkpt lat="43.55767" lon="2.343">
        <ele>281.20785897692</ele>
        <time>2022-02-22T13:06:10Z</time>
      </trkpt>
      <trkpt lat="43.55772" lon="2.34309">
        <ele>281.00353366133</ele>
        <time>2022-02-22T13:06:17Z</time>
      </trkpt>
      <trkpt lat="43.55778" lon="2.34317">
        <ele>279.4999807608</ele>
        <time>2022-02-22T13:06:25Z</time>
      </trkpt>
      <trkpt lat="43.55779" lon="2.34329">
        <ele>276.12927931017</ele>
        <time>2022-02-22T13:06:37Z</time>
      </trkpt>
      <trkpt lat="43.55782" lon="2.34341">
        <ele>272.22317073279</ele>
        <time>2022-02-22T13:06:48Z</time>
      </trkpt>
      <trkpt lat="43.55785" lon="2.34352">
        <ele>273.01216238252</ele>
        <time>2022-02-22T13:06:59Z</time>
      </trkpt>
      <trkpt lat="43.5579" lon="2.34362">
        <ele>273.4944272657</ele>
        <time>2022-02-22T13:07:08Z</time>
      </trkpt>
      <trkpt lat="43.55791" lon="2.34373">
        <ele>272.03387500996</ele>
        <time>2022-02-22T13:07:17Z</time>
      </trkpt>
      <trkpt lat="43.55797" lon="2.34382">
        <ele>268.44556280675</ele>
        <time>2022-02-22T13:07:25Z</time>
      </trkpt>
      <trkpt lat="43.55803" lon="2.3439">
        <ele>265.44598185242</ele>
        <time>2022-02-22T13:07:34Z</time>
      </trkpt>
      <trkpt lat="43.55809" lon="2.34399">
        <ele>265.22948998041</ele>
        <time>2022-02-22T13:07:44Z</time>
      </trkpt>
      <trkpt lat="43.55813" lon="2.34409">
        <ele>264.79521434323</ele>
        <time>2022-02-22T13:07:52Z</time>
      </trkpt>
      <trkpt lat="43.55816" lon="2.3442">
        <ele>263.73544104775</ele>
        <time>2022-02-22T13:08:01Z</time>
      </trkpt>
      <trkpt lat="43.55818" lon="2.34431">
        <ele>264.18149630761</ele>
        <time>2022-02-22T13:08:12Z</time>
      </trkpt>
      <trkpt lat="43.55822" lon="2.34442">
        <ele>260.67343666258</ele>
        <time>2022-02-22T13:08:23Z</time>
      </trkpt>
      <trkpt lat="43.55826" lon="2.34453">
        <ele>257.13601953448</ele>
        <time>2022-02-22T13:08:32Z</time>
      </trkpt>
      <trkpt lat="43.55827" lon="2.34464">
        <ele>254.7995741273</ele>
        <time>2022-02-22T13:08:40Z</time>
      </trkpt>
      <trkpt lat="43.5583" lon="2.34475">
        <ele>253.02972101766</ele>
        <time>2022-02-22T13:08:49Z</time>
      </trkpt>
      <trkpt lat="43.55834" lon="2.34485">
        <ele>248.07612315624</ele>
        <time>2022-02-22T13:09:03Z</time>
      </trkpt>
      <trkpt lat="43.55842" lon="2.34491">
        <ele>247.19329435324</ele>
        <time>2022-02-22T13:09:13Z</time>
      </trkpt>
      <trkpt lat="43.5585" lon="2.34496">
        <ele>248.11661514124</ele>
        <time>2022-02-22T13:09:19Z</time>
      </trkpt>
      <trkpt lat="43.55857" lon="2.34502">
        <ele>248.16342063958</ele>
        <time>2022-02-22T13:09:46Z</time>
      </trkpt>
      <trkpt lat="43.55853" lon="2.34513">
        <ele>244.04513161488</ele>
        <time>2022-02-22T13:10:43Z</time>
      </trkpt>
      <trkpt lat="43.5586" lon="2.34516">
        <ele>242.82816544893</ele>
        <time>2022-02-22T13:12:46Z</time>
      </trkpt>
      <trkpt lat="43.55866" lon="2.34525">
        <ele>244.34514363209</ele>
        <time>2022-02-22T13:12:51Z</time>
      </trkpt>
      <trkpt lat="43.55873" lon="2.3453">
        <ele>247.48282073192</ele>
        <time>2022-02-22T13:13:38Z</time>
      </trkpt>
      <trkpt lat="43.55879" lon="2.34522">
        <ele>247.21050786231</ele>
        <time>2022-02-22T13:13:46Z</time>
      </trkpt>
      <trkpt lat="43.55886" lon="2.34515">
        <ele>247.14755060895</ele>
        <time>2022-02-22T13:13:53Z</time>
      </trkpt>
      <trkpt lat="43.55893" lon="2.34508">
        <ele>247.46688439396</ele>
        <time>2022-02-22T13:13:59Z</time>
      </trkpt>
      <trkpt lat="43.559" lon="2.34503">
        <ele>246.83922711902</ele>
        <time>2022-02-22T13:14:06Z</time>
      </trkpt>
      <trkpt lat="43.55906" lon="2.34496">
        <ele>246.13620069137</ele>
        <time>2022-02-22T13:14:12Z</time>
      </trkpt>
      <trkpt lat="43.55914" lon="2.34489">
        <ele>244.9940870293</ele>
        <time>2022-02-22T13:14:20Z</time>
      </trkpt>
      <trkpt lat="43.5592" lon="2.3448">
        <ele>243.15455533279</ele>
        <time>2022-02-22T13:14:30Z</time>
      </trkpt>
      <trkpt lat="43.55925" lon="2.34472">
        <ele>243.76593212976</ele>
        <time>2022-02-22T13:14:37Z</time>
      </trkpt>
      <trkpt lat="43.5593" lon="2.34463">
        <ele>242.37765052307</ele>
        <time>2022-02-22T13:14:47Z</time>
      </trkpt>
      <trkpt lat="43.55935" lon="2.34454">
        <ele>241.50188343761</ele>
        <time>2022-02-22T13:14:58Z</time>
      </trkpt>
      <trkpt lat="43.55939" lon="2.34444">
        <ele>241.1022702779</ele>
        <time>2022-02-22T13:15:23Z</time>
      </trkpt>
      <trkpt lat="43.55944" lon="2.34434">
        <ele>239.83596519831</ele>
        <time>2022-02-22T13:15:46Z</time>
      </trkpt>
      <trkpt lat="43.55949" lon="2.34425">
        <ele>240.18737240275</ele>
        <time>2022-02-22T13:15:55Z</time>
      </trkpt>
      <trkpt lat="43.55956" lon="2.34418">
        <ele>238.26657404146</ele>
        <time>2022-02-22T13:16:02Z</time>
      </trkpt>
      <trkpt lat="43.55959" lon="2.34407">
        <ele>236.55293916036</ele>
        <time>2022-02-22T13:16:10Z</time>
      </trkpt>
      <trkpt lat="43.55963" lon="2.34396">
        <ele>236.13403780183</ele>
        <time>2022-02-22T13:16:19Z</time>
      </trkpt>
      <trkpt lat="43.55968" lon="2.34388">
        <ele>236.25890259049</ele>
        <time>2022-02-22T13:16:26Z</time>
      </trkpt>
      <trkpt lat="43.55975" lon="2.34379">
        <ele>236.83512319588</ele>
        <time>2022-02-22T13:16:35Z</time>
      </trkpt>
      <trkpt lat="43.55979" lon="2.34369">
        <ele>237.53457919803</ele>
        <time>2022-02-22T13:16:43Z</time>
      </trkpt>
      <trkpt lat="43.55983" lon="2.34358">
        <ele>237.6517067468</ele>
        <time>2022-02-22T13:16:51Z</time>
      </trkpt>
      <trkpt lat="43.55986" lon="2.34347">
        <ele>235.98410768822</ele>
        <time>2022-02-22T13:17:00Z</time>
      </trkpt>
      <trkpt lat="43.55994" lon="2.34351">
        <ele>233.03871609732</ele>
        <time>2022-02-22T13:17:11Z</time>
      </trkpt>
      <trkpt lat="43.56001" lon="2.34358">
        <ele>235.58277297725</ele>
        <time>2022-02-22T13:17:19Z</time>
      </trkpt>
      <trkpt lat="43.56008" lon="2.34363">
        <ele>239.16653807205</ele>
        <time>2022-02-22T13:18:01Z</time>
      </trkpt>
      <trkpt lat="43.56013" lon="2.34355">
        <ele>240.95038926914</ele>
        <time>2022-02-22T13:19:44Z</time>
      </trkpt>
      <trkpt lat="43.56016" lon="2.34344">
        <ele>239.53345698386</ele>
        <time>2022-02-22T13:19:51Z</time>
      </trkpt>
      <trkpt lat="43.56022" lon="2.34337">
        <ele>238.22358302415</ele>
        <time>2022-02-22T13:19:58Z</time>
      </trkpt>
      <trkpt lat="43.56029" lon="2.34333">
        <ele>236.94891260533</ele>
        <time>2022-02-22T13:20:09Z</time>
      </trkpt>
      <trkpt lat="43.56036" lon="2.34326">
        <ele>236.73466528988</ele>
        <time>2022-02-22T13:20:16Z</time>
      </trkpt>
      <trkpt lat="43.5604" lon="2.34317">
        <ele>235.65896931813</ele>
        <time>2022-02-22T13:20:24Z</time>
      </trkpt>
      <trkpt lat="43.56043" lon="2.34306">
        <ele>235.4914011402</ele>
        <time>2022-02-22T13:20:33Z</time>
      </trkpt>
      <trkpt lat="43.56046" lon="2.34294">
        <ele>236.46273010188</ele>
        <time>2022-02-22T13:20:41Z</time>
      </trkpt>
      <trkpt lat="43.56049" lon="2.34283">
        <ele>238.11645423817</ele>
        <time>2022-02-22T13:20:49Z</time>
      </trkpt>
      <trkpt lat="43.56052" lon="2.34272">
        <ele>239.2656009827</ele>
        <time>2022-02-22T13:20:54Z</time>
      </trkpt>
      <trkpt lat="43.56055" lon="2.34261">
        <ele>238.47669249711</ele>
        <time>2022-02-22T13:21:01Z</time>
      </trkpt>
      <trkpt lat="43.56059" lon="2.34251">
        <ele>237.28667169042</ele>
        <time>2022-02-22T13:21:11Z</time>
      </trkpt>
      <trkpt lat="43.56063" lon="2.3424">
        <ele>237.86815873865</ele>
        <time>2022-02-22T13:21:19Z</time>
      </trkpt>
      <trkpt lat="43.56066" lon="2.34229">
        <ele>238.68652049702</ele>
        <time>2022-02-22T13:21:28Z</time>
      </trkpt>
      <trkpt lat="43.56069" lon="2.34218">
        <ele>239.4247773693</ele>
        <time>2022-02-22T13:21:36Z</time>
      </trkpt>
      <trkpt lat="43.56074" lon="2.34208">
        <ele>237.51741151295</ele>
        <time>2022-02-22T13:21:46Z</time>
      </trkpt>
      <trkpt lat="43.56079" lon="2.34198">
        <ele>234.70308399995</ele>
        <time>2022-02-22T13:21:54Z</time>
      </trkpt>
      <trkpt lat="43.56085" lon="2.3419">
        <ele>233.04344777784</ele>
        <time>2022-02-22T13:22:02Z</time>
      </trkpt>
      <trkpt lat="43.5609" lon="2.34181">
        <ele>232.95676645153</ele>
        <time>2022-02-22T13:22:09Z</time>
      </trkpt>
      <trkpt lat="43.56096" lon="2.34173">
        <ele>233.05400488764</ele>
        <time>2022-02-22T13:22:17Z</time>
      </trkpt>
      <trkpt lat="43.56102" lon="2.34164">
        <ele>233.66743391412</ele>
        <time>2022-02-22T13:22:27Z</time>
      </trkpt>
      <trkpt lat="43.56103" lon="2.34152">
        <ele>233.19606263364</ele>
        <time>2022-02-22T13:22:37Z</time>
      </trkpt>
      <trkpt lat="43.56107" lon="2.34142">
        <ele>232.53296471701</ele>
        <time>2022-02-22T13:22:47Z</time>
      </trkpt>
      <trkpt lat="43.56113" lon="2.34134">
        <ele>233.5599569992</ele>
        <time>2022-02-22T13:22:55Z</time>
      </trkpt>
      <trkpt lat="43.56119" lon="2.34126">
        <ele>232.87367982065</ele>
        <time>2022-02-22T13:23:02Z</time>
      </trkpt>
      <trkpt lat="43.56123" lon="2.34117">
        <ele>233.99620142498</ele>
        <time>2022-02-22T13:23:08Z</time>
      </trkpt>
      <trkpt lat="43.56128" lon="2.34107">
        <ele>233.37959503308</ele>
        <time>2022-02-22T13:23:17Z</time>
      </trkpt>
      <trkpt lat="43.56132" lon="2.34097">
        <ele>232.04606755338</ele>
        <time>2022-02-22T13:23:24Z</time>
      </trkpt>
      <trkpt lat="43.56138" lon="2.34088">
        <ele>230.60007720812</ele>
        <time>2022-02-22T13:23:33Z</time>
      </trkpt>
      <trkpt lat="43.56144" lon="2.3408">
        <ele>231.83382145193</ele>
        <time>2022-02-22T13:23:42Z</time>
      </trkpt>
      <trkpt lat="43.56152" lon="2.34076">
        <ele>234.74876766231</ele>
        <time>2022-02-22T13:23:49Z</time>
      </trkpt>
      <trkpt lat="43.5616" lon="2.34073">
        <ele>235.32334390209</ele>
        <time>2022-02-22T13:23:57Z</time>
      </trkpt>
      <trkpt lat="43.56168" lon="2.34067">
        <ele>235.52425647444</ele>
        <time>2022-02-22T13:24:03Z</time>
      </trkpt>
      <trkpt lat="43.56176" lon="2.34065">
        <ele>236.25662474778</ele>
        <time>2022-02-22T13:24:09Z</time>
      </trkpt>
      <trkpt lat="43.56184" lon="2.34061">
        <ele>235.54241809053</ele>
        <time>2022-02-22T13:24:16Z</time>
      </trkpt>
      <trkpt lat="43.56192" lon="2.34058">
        <ele>234.58255838734</ele>
        <time>2022-02-22T13:24:24Z</time>
      </trkpt>
      <trkpt lat="43.56199" lon="2.34052">
        <ele>234.33494646927</ele>
        <time>2022-02-22T13:24:30Z</time>
      </trkpt>
      <trkpt lat="43.56206" lon="2.34044">
        <ele>235.20533852833</ele>
        <time>2022-02-22T13:24:37Z</time>
      </trkpt>
      <trkpt lat="43.56213" lon="2.34039">
        <ele>236.32335191241</ele>
        <time>2022-02-22T13:24:45Z</time>
      </trkpt>
      <trkpt lat="43.5622" lon="2.34035">
        <ele>237.94573371379</ele>
        <time>2022-02-22T13:24:56Z</time>
      </trkpt>
      <trkpt lat="43.56228" lon="2.34031">
        <ele>239.40674483172</ele>
        <time>2022-02-22T13:25:03Z</time>
      </trkpt>
      <trkpt lat="43.56236" lon="2.34027">
        <ele>239.51827931321</ele>
        <time>2022-02-22T13:25:13Z</time>
      </trkpt>
      <trkpt lat="43.56244" lon="2.34023">
        <ele>238.9228353335</ele>
        <time>2022-02-22T13:25:21Z</time>
      </trkpt>
      <trkpt lat="43.56252" lon="2.3402">
        <ele>239.13637570727</ele>
        <time>2022-02-22T13:25:26Z</time>
      </trkpt>
      <trkpt lat="43.5626" lon="2.34021">
        <ele>238.00201869965</ele>
        <time>2022-02-22T13:25:32Z</time>
      </trkpt>
      <trkpt lat="43.56268" lon="2.34022">
        <ele>236.45054957158</ele>
        <time>2022-02-22T13:25:39Z</time>
      </trkpt>
      <trkpt lat="43.56277" lon="2.34023">
        <ele>236.18847479785</ele>
        <time>2022-02-22T13:25:50Z</time>
      </trkpt>
      <trkpt lat="43.56285" lon="2.34021">
        <ele>235.89993114193</ele>
        <time>2022-02-22T13:25:57Z</time>
      </trkpt>
      <trkpt lat="43.56293" lon="2.3402">
        <ele>233.84231014462</ele>
        <time>2022-02-22T13:26:04Z</time>
      </trkpt>
      <trkpt lat="43.56301" lon="2.34018">
        <ele>233.15991559406</ele>
        <time>2022-02-22T13:26:12Z</time>
      </trkpt>
      <trkpt lat="43.56309" lon="2.34016">
        <ele>233.08969162088</ele>
        <time>2022-02-22T13:26:18Z</time>
      </trkpt>
      <trkpt lat="43.56318" lon="2.34016">
        <ele>233.70633246834</ele>
        <time>2022-02-22T13:26:27Z</time>
      </trkpt>
      <trkpt lat="43.56326" lon="2.34013">
        <ele>234.38452051782</ele>
        <time>2022-02-22T13:26:37Z</time>
      </trkpt>
      <trkpt lat="43.56335" lon="2.34014">
        <ele>232.68001261276</ele>
        <time>2022-02-22T13:26:45Z</time>
      </trkpt>
      <trkpt lat="43.56343" lon="2.34016">
        <ele>231.93039586172</ele>
        <time>2022-02-22T13:26:51Z</time>
      </trkpt>
      <trkpt lat="43.56351" lon="2.3402">
        <ele>233.71536675707</ele>
        <time>2022-02-22T13:27:12Z</time>
      </trkpt>
      <trkpt lat="43.5636" lon="2.3402">
        <ele>231.76086970468</ele>
        <time>2022-02-22T13:27:27Z</time>
      </trkpt>
      <trkpt lat="43.56368" lon="2.34017">
        <ele>230.62122265637</ele>
        <time>2022-02-22T13:27:37Z</time>
      </trkpt>
      <trkpt lat="43.56376" lon="2.34014">
        <ele>230.43141384495</ele>
        <time>2022-02-22T13:27:44Z</time>
      </trkpt>
      <trkpt lat="43.56384" lon="2.34009">
        <ele>229.56329134239</ele>
        <time>2022-02-22T13:27:53Z</time>
      </trkpt>
      <trkpt lat="43.56392" lon="2.34004">
        <ele>228.95733504695</ele>
        <time>2022-02-22T13:28:03Z</time>
      </trkpt>
      <trkpt lat="43.56401" lon="2.34005">
        <ele>229.51635346509</ele>
        <time>2022-02-22T13:28:13Z</time>
      </trkpt>
      <trkpt lat="43.56409" lon="2.34001">
        <ele>230.33087431074</ele>
        <time>2022-02-22T13:28:21Z</time>
      </trkpt>
      <trkpt lat="43.56417" lon="2.33998">
        <ele>230.38550610298</ele>
        <time>2022-02-22T13:28:29Z</time>
      </trkpt>
      <trkpt lat="43.56425" lon="2.33996">
        <ele>228.90955465836</ele>
        <time>2022-02-22T13:28:39Z</time>
      </trkpt>
      <trkpt lat="43.56433" lon="2.33994">
        <ele>228.96552024721</ele>
        <time>2022-02-22T13:28:48Z</time>
      </trkpt>
      <trkpt lat="43.56441" lon="2.33989">
        <ele>229.30155350736</ele>
        <time>2022-02-22T13:28:55Z</time>
      </trkpt>
      <trkpt lat="43.56449" lon="2.33984">
        <ele>229.04406649884</ele>
        <time>2022-02-22T13:29:05Z</time>
      </trkpt>
      <trkpt lat="43.56457" lon="2.33983">
        <ele>229.79750164499</ele>
        <time>2022-02-22T13:29:14Z</time>
      </trkpt>
      <trkpt lat="43.56465" lon="2.3398">
        <ele>230.09833892058</ele>
        <time>2022-02-22T13:29:21Z</time>
      </trkpt>
      <trkpt lat="43.56473" lon="2.33978">
        <ele>229.60378074631</ele>
        <time>2022-02-22T13:29:29Z</time>
      </trkpt>
      <trkpt lat="43.56481" lon="2.33974">
        <ele>229.45577946459</ele>
        <time>2022-02-22T13:29:37Z</time>
      </trkpt>
      <trkpt lat="43.56489" lon="2.33971">
        <ele>228.10393427896</ele>
        <time>2022-02-22T13:29:45Z</time>
      </trkpt>
      <trkpt lat="43.56497" lon="2.33968">
        <ele>228.48902088644</ele>
        <time>2022-02-22T13:29:53Z</time>
      </trkpt>
      <trkpt lat="43.56505" lon="2.33963">
        <ele>226.63519331457</ele>
        <time>2022-02-22T13:30:01Z</time>
      </trkpt>
      <trkpt lat="43.56513" lon="2.33958">
        <ele>225.51228306919</ele>
        <time>2022-02-22T13:30:10Z</time>
      </trkpt>
      <trkpt lat="43.5652" lon="2.33954">
        <ele>225.75031153333</ele>
        <time>2022-02-22T13:30:19Z</time>
      </trkpt>
      <trkpt lat="43.56528" lon="2.33951">
        <ele>226.84215881646</ele>
        <time>2022-02-22T13:30:26Z</time>
      </trkpt>
      <trkpt lat="43.56536" lon="2.33947">
        <ele>228.436630427</ele>
        <time>2022-02-22T13:30:33Z</time>
      </trkpt>
      <trkpt lat="43.56544" lon="2.33942">
        <ele>229.47807222045</ele>
        <time>2022-02-22T13:30:40Z</time>
      </trkpt>
      <trkpt lat="43.56551" lon="2.33937">
        <ele>229.52295846509</ele>
        <time>2022-02-22T13:30:50Z</time>
      </trkpt>
      <trkpt lat="43.5656" lon="2.33933">
        <ele>229.08481373771</ele>
        <time>2022-02-22T13:30:59Z</time>
      </trkpt>
      <trkpt lat="43.56568" lon="2.3393">
        <ele>228.15588878391</ele>
        <time>2022-02-22T13:31:07Z</time>
      </trkpt>
      <trkpt lat="43.56576" lon="2.33926">
        <ele>227.85887173336</ele>
        <time>2022-02-22T13:31:16Z</time>
      </trkpt>
      <trkpt lat="43.56584" lon="2.33922">
        <ele>228.23532103105</ele>
        <time>2022-02-22T13:31:23Z</time>
      </trkpt>
      <trkpt lat="43.56591" lon="2.3392">
        <ele>227.24501048688</ele>
        <time>2022-02-22T13:31:29Z</time>
      </trkpt>
      <trkpt lat="43.56599" lon="2.33914">
        <ele>226.01195924282</ele>
        <time>2022-02-22T13:31:36Z</time>
      </trkpt>
      <trkpt lat="43.56606" lon="2.33907">
        <ele>225.58111039707</ele>
        <time>2022-02-22T13:31:45Z</time>
      </trkpt>
      <trkpt lat="43.56612" lon="2.339">
        <ele>225.8541571026</ele>
        <time>2022-02-22T13:31:52Z</time>
      </trkpt>
      <trkpt lat="43.5662" lon="2.33895">
        <ele>226.16281140058</ele>
        <time>2022-02-22T13:32:00Z</time>
      </trkpt>
      <trkpt lat="43.56628" lon="2.33889">
        <ele>225.41784988328</ele>
        <time>2022-02-22T13:32:09Z</time>
      </trkpt>
      <trkpt lat="43.56635" lon="2.33883">
        <ele>227.14567230566</ele>
        <time>2022-02-22T13:32:17Z</time>
      </trkpt>
      <trkpt lat="43.56643" lon="2.33877">
        <ele>227.20698871855</ele>
        <time>2022-02-22T13:32:24Z</time>
      </trkpt>
      <trkpt lat="43.5665" lon="2.33872">
        <ele>225.75878374919</ele>
        <time>2022-02-22T13:32:32Z</time>
      </trkpt>
      <trkpt lat="43.56657" lon="2.33864">
        <ele>225.75418818082</ele>
        <time>2022-02-22T13:32:38Z</time>
      </trkpt>
      <trkpt lat="43.56664" lon="2.33859">
        <ele>223.26791418057</ele>
        <time>2022-02-22T13:32:48Z</time>
      </trkpt>
      <trkpt lat="43.56672" lon="2.33854">
        <ele>222.88572440622</ele>
        <time>2022-02-22T13:32:57Z</time>
      </trkpt>
      <trkpt lat="43.56678" lon="2.33846">
        <ele>221.97689582997</ele>
        <time>2022-02-22T13:33:04Z</time>
      </trkpt>
      <trkpt lat="43.56686" lon="2.33843">
        <ele>220.17173364244</ele>
        <time>2022-02-22T13:33:13Z</time>
      </trkpt>
      <trkpt lat="43.56694" lon="2.33839">
        <ele>223.43362159886</ele>
        <time>2022-02-22T13:33:20Z</time>
      </trkpt>
      <trkpt lat="43.56701" lon="2.33835">
        <ele>226.65700221778</ele>
        <time>2022-02-22T13:33:27Z</time>
      </trkpt>
      <trkpt lat="43.56709" lon="2.33831">
        <ele>228.94026748951</ele>
        <time>2022-02-22T13:33:38Z</time>
      </trkpt>
      <trkpt lat="43.56718" lon="2.33829">
        <ele>227.63448014732</ele>
        <time>2022-02-22T13:33:44Z</time>
      </trkpt>
      <trkpt lat="43.56726" lon="2.33825">
        <ele>225.94480283358</ele>
        <time>2022-02-22T13:33:51Z</time>
      </trkpt>
      <trkpt lat="43.56734" lon="2.33822">
        <ele>223.70634074033</ele>
        <time>2022-02-22T13:33:58Z</time>
      </trkpt>
      <trkpt lat="43.56742" lon="2.33824">
        <ele>222.03847241098</ele>
        <time>2022-02-22T13:34:07Z</time>
      </trkpt>
      <trkpt lat="43.56747" lon="2.33833">
        <ele>220.36533780232</ele>
        <time>2022-02-22T13:34:16Z</time>
      </trkpt>
      <trkpt lat="43.56752" lon="2.33842">
        <ele>219.36534489509</ele>
        <time>2022-02-22T13:34:24Z</time>
      </trkpt>
      <trkpt lat="43.56757" lon="2.3385">
        <ele>219.97668749333</ele>
        <time>2022-02-22T13:34:31Z</time>
      </trkpt>
      <trkpt lat="43.56763" lon="2.33858">
        <ele>219.88633316922</ele>
        <time>2022-02-22T13:34:38Z</time>
      </trkpt>
      <trkpt lat="43.56769" lon="2.33867">
        <ele>223.76234261271</ele>
        <time>2022-02-22T13:34:49Z</time>
      </trkpt>
      <trkpt lat="43.56776" lon="2.33872">
        <ele>225.65877740333</ele>
        <time>2022-02-22T13:35:42Z</time>
      </trkpt>
      <trkpt lat="43.56782" lon="2.33879">
        <ele>226.40742187675</ele>
        <time>2022-02-22T13:35:47Z</time>
      </trkpt>
      <trkpt lat="43.56787" lon="2.33887">
        <ele>227.98072851194</ele>
        <time>2022-02-22T13:35:54Z</time>
      </trkpt>
      <trkpt lat="43.56792" lon="2.33897">
        <ele>228.10729243873</ele>
        <time>2022-02-22T13:36:04Z</time>
      </trkpt>
      <trkpt lat="43.56796" lon="2.33908">
        <ele>226.69737849613</ele>
        <time>2022-02-22T13:36:11Z</time>
      </trkpt>
      <trkpt lat="43.56799" lon="2.33918">
        <ele>225.80267362131</ele>
        <time>2022-02-22T13:36:20Z</time>
      </trkpt>
      <trkpt lat="43.56804" lon="2.33927">
        <ele>226.67233458278</ele>
        <time>2022-02-22T13:36:26Z</time>
      </trkpt>
      <trkpt lat="43.56809" lon="2.33937">
        <ele>227.57947170423</ele>
        <time>2022-02-22T13:36:37Z</time>
      </trkpt>
      <trkpt lat="43.56807" lon="2.33949">
        <ele>228.35928268509</ele>
        <time>2022-02-22T13:36:45Z</time>
      </trkpt>
      <trkpt lat="43.56802" lon="2.33956">
        <ele>229.85970853427</ele>
        <time>2022-02-22T13:36:50Z</time>
      </trkpt>
      <trkpt lat="43.56797" lon="2.33964">
        <ele>230.73152229461</ele>
        <time>2022-02-22T13:37:01Z</time>
      </trkpt>
      <trkpt lat="43.56797" lon="2.33976">
        <ele>232.47112670551</ele>
        <time>2022-02-22T13:37:07Z</time>
      </trkpt>
      <trkpt lat="43.56795" lon="2.33988">
        <ele>232.42517840259</ele>
        <time>2022-02-22T13:37:18Z</time>
      </trkpt>
      <trkpt lat="43.56795" lon="2.34">
        <ele>235.65553570857</ele>
        <time>2022-02-22T13:37:27Z</time>
      </trkpt>
      <trkpt lat="43.568" lon="2.34009">
        <ele>240.11688790293</ele>
        <time>2022-02-22T13:37:40Z</time>
      </trkpt>
      <trkpt lat="43.56801" lon="2.34021">
        <ele>240.74671803746</ele>
        <time>2022-02-22T13:37:58Z</time>
      </trkpt>
      <trkpt lat="43.568" lon="2.34032">
        <ele>242.33394074325</ele>
        <time>2022-02-22T13:38:07Z</time>
      </trkpt>
      <trkpt lat="43.56801" lon="2.34044">
        <ele>241.87263436999</ele>
        <time>2022-02-22T13:38:17Z</time>
      </trkpt>
      <trkpt lat="43.56805" lon="2.34053">
        <ele>240.92198780975</ele>
        <time>2022-02-22T13:38:27Z</time>
      </trkpt>
      <trkpt lat="43.56809" lon="2.34064">
        <ele>240.24877052675</ele>
        <time>2022-02-22T13:38:34Z</time>
      </trkpt>
      <trkpt lat="43.56806" lon="2.34076">
        <ele>240.78069260402</ele>
        <time>2022-02-22T13:38:42Z</time>
      </trkpt>
      <trkpt lat="43.56806" lon="2.34087">
        <ele>239.44357837768</ele>
        <time>2022-02-22T13:38:52Z</time>
      </trkpt>
      <trkpt lat="43.56807" lon="2.34098">
        <ele>240.34167873473</ele>
        <time>2022-02-22T13:39:00Z</time>
      </trkpt>
      <trkpt lat="43.56809" lon="2.34109">
        <ele>242.09537375917</ele>
        <time>2022-02-22T13:39:08Z</time>
      </trkpt>
      <trkpt lat="43.5681" lon="2.3412">
        <ele>244.04389613147</ele>
        <time>2022-02-22T13:39:14Z</time>
      </trkpt>
      <trkpt lat="43.56811" lon="2.34132">
        <ele>243.81177175508</ele>
        <time>2022-02-22T13:39:22Z</time>
      </trkpt>
      <trkpt lat="43.56806" lon="2.34142">
        <ele>243.04471705954</ele>
        <time>2022-02-22T13:39:28Z</time>
      </trkpt>
      <trkpt lat="43.56805" lon="2.34152">
        <ele>240.80465476156</ele>
        <time>2022-02-22T13:39:34Z</time>
      </trkpt>
      <trkpt lat="43.56805" lon="2.34164">
        <ele>234.71394610809</ele>
        <time>2022-02-22T13:39:48Z</time>
      </trkpt>
      <trkpt lat="43.56807" lon="2.34175">
        <ele>234.03623885051</ele>
        <time>2022-02-22T13:39:57Z</time>
      </trkpt>
      <trkpt lat="43.56807" lon="2.34186">
        <ele>231.78486864731</ele>
        <time>2022-02-22T13:40:07Z</time>
      </trkpt>
      <trkpt lat="43.56806" lon="2.34198">
        <ele>232.94782644347</ele>
        <time>2022-02-22T13:40:18Z</time>
      </trkpt>
      <trkpt lat="43.56802" lon="2.34208">
        <ele>234.63303937829</ele>
        <time>2022-02-22T13:40:26Z</time>
      </trkpt>
      <trkpt lat="43.56803" lon="2.3422">
        <ele>231.69582951799</ele>
        <time>2022-02-22T13:40:42Z</time>
      </trkpt>
      <trkpt lat="43.568" lon="2.34231">
        <ele>230.34306383153</ele>
        <time>2022-02-22T13:41:00Z</time>
      </trkpt>
      <trkpt lat="43.56797" lon="2.34242">
        <ele>229.86579823013</ele>
        <time>2022-02-22T13:41:07Z</time>
      </trkpt>
      <trkpt lat="43.56798" lon="2.34253">
        <ele>231.48090182735</ele>
        <time>2022-02-22T13:41:20Z</time>
      </trkpt>
      <trkpt lat="43.56793" lon="2.34263">
        <ele>231.89296108401</ele>
        <time>2022-02-22T13:41:25Z</time>
      </trkpt>
      <trkpt lat="43.56793" lon="2.34274">
        <ele>232.47308364677</ele>
        <time>2022-02-22T13:41:31Z</time>
      </trkpt>
      <trkpt lat="43.56795" lon="2.34285">
        <ele>232.62769912987</ele>
        <time>2022-02-22T13:41:45Z</time>
      </trkpt>
      <trkpt lat="43.56804" lon="2.34288">
        <ele>231.75593906864</ele>
        <time>2022-02-22T13:41:54Z</time>
      </trkpt>
      <trkpt lat="43.5681" lon="2.34296">
        <ele>233.10144209893</ele>
        <time>2022-02-22T13:44:26Z</time>
      </trkpt>
      <trkpt lat="43.56814" lon="2.34307">
        <ele>232.22121686686</ele>
        <time>2022-02-22T13:44:35Z</time>
      </trkpt>
      <trkpt lat="43.56815" lon="2.34319">
        <ele>231.81081104206</ele>
        <time>2022-02-22T13:44:46Z</time>
      </trkpt>
      <trkpt lat="43.56816" lon="2.3433">
        <ele>231.28045421043</ele>
        <time>2022-02-22T13:44:55Z</time>
      </trkpt>
      <trkpt lat="43.56821" lon="2.34338">
        <ele>231.24477300352</ele>
        <time>2022-02-22T13:45:03Z</time>
      </trkpt>
      <trkpt lat="43.56827" lon="2.34347">
        <ele>233.63078526699</ele>
        <time>2022-02-22T13:45:11Z</time>
      </trkpt>
      <trkpt lat="43.56834" lon="2.34352">
        <ele>235.32090422465</ele>
        <time>2022-02-22T13:45:19Z</time>
      </trkpt>
      <trkpt lat="43.56842" lon="2.34359">
        <ele>235.01383709513</ele>
        <time>2022-02-22T13:45:28Z</time>
      </trkpt>
      <trkpt lat="43.56848" lon="2.34366">
        <ele>232.97864147011</ele>
        <time>2022-02-22T13:45:33Z</time>
      </trkpt>
      <trkpt lat="43.56854" lon="2.34373">
        <ele>230.30174439964</ele>
        <time>2022-02-22T13:45:42Z</time>
      </trkpt>
      <trkpt lat="43.56861" lon="2.34382">
        <ele>229.82682165246</ele>
        <time>2022-02-22T13:45:50Z</time>
      </trkpt>
      <trkpt lat="43.56868" lon="2.34388">
        <ele>229.95294573829</ele>
        <time>2022-02-22T13:45:57Z</time>
      </trkpt>
      <trkpt lat="43.56874" lon="2.34395">
        <ele>228.77340754135</ele>
        <time>2022-02-22T13:46:04Z</time>
      </trkpt>
      <trkpt lat="43.56881" lon="2.34401">
        <ele>224.85959510201</ele>
        <time>2022-02-22T13:46:12Z</time>
      </trkpt>
      <trkpt lat="43.56888" lon="2.34409">
        <ele>222.73962781419</ele>
        <time>2022-02-22T13:46:21Z</time>
      </trkpt>
      <trkpt lat="43.56893" lon="2.34417">
        <ele>220.04324701621</ele>
        <time>2022-02-22T13:46:31Z</time>
      </trkpt>
      <trkpt lat="43.56896" lon="2.34427">
        <ele>218.79213905649</ele>
        <time>2022-02-22T13:46:40Z</time>
      </trkpt>
      <trkpt lat="43.56902" lon="2.34437">
        <ele>217.42950681467</ele>
        <time>2022-02-22T13:46:48Z</time>
      </trkpt>
      <trkpt lat="43.56905" lon="2.34446">
        <ele>218.7552575738</ele>
        <time>2022-02-22T13:46:59Z</time>
      </trkpt>
      <trkpt lat="43.5691" lon="2.34456">
        <ele>218.5009728971</ele>
        <time>2022-02-22T13:47:06Z</time>
      </trkpt>
      <trkpt lat="43.56916" lon="2.34464">
        <ele>217.24817352587</ele>
        <time>2022-02-22T13:47:12Z</time>
      </trkpt>
      <trkpt lat="43.56923" lon="2.34471">
        <ele>216.63433619117</ele>
        <time>2022-02-22T13:47:19Z</time>
      </trkpt>
      <trkpt lat="43.56927" lon="2.34481">
        <ele>216.26632564557</ele>
        <time>2022-02-22T13:47:26Z</time>
      </trkpt>
      <trkpt lat="43.56933" lon="2.34491">
        <ele>214.89575918906</ele>
        <time>2022-02-22T13:47:36Z</time>
      </trkpt>
      <trkpt lat="43.56935" lon="2.34502">
        <ele>217.42945617571</ele>
        <time>2022-02-22T13:47:46Z</time>
      </trkpt>
      <trkpt lat="43.56939" lon="2.34513">
        <ele>220.67207852279</ele>
        <time>2022-02-22T13:47:53Z</time>
      </trkpt>
      <trkpt lat="43.56943" lon="2.34523">
        <ele>225.02282994164</ele>
        <time>2022-02-22T13:48:01Z</time>
      </trkpt>
      <trkpt lat="43.56948" lon="2.34533">
        <ele>225.88711310886</ele>
        <time>2022-02-22T13:48:10Z</time>
      </trkpt>
      <trkpt lat="43.56954" lon="2.34541">
        <ele>222.19351159571</ele>
        <time>2022-02-22T13:48:21Z</time>
      </trkpt>
      <trkpt lat="43.5696" lon="2.34547">
        <ele>219.13489704542</ele>
        <time>2022-02-22T13:48:29Z</time>
      </trkpt>
      <trkpt lat="43.56965" lon="2.34557">
        <ele>218.50032351178</ele>
        <time>2022-02-22T13:48:39Z</time>
      </trkpt>
      <trkpt lat="43.56969" lon="2.34567">
        <ele>220.47224566279</ele>
        <time>2022-02-22T13:48:46Z</time>
      </trkpt>
      <trkpt lat="43.56974" lon="2.34576">
        <ele>223.7960140121</ele>
        <time>2022-02-22T13:48:55Z</time>
      </trkpt>
      <trkpt lat="43.5698" lon="2.34584">
        <ele>226.3141489558</ele>
        <time>2022-02-22T13:49:02Z</time>
      </trkpt>
      <trkpt lat="43.56987" lon="2.34591">
        <ele>228.07526091426</ele>
        <time>2022-02-22T13:49:15Z</time>
      </trkpt>
      <trkpt lat="43.56993" lon="2.34601">
        <ele>228.96488812234</ele>
        <time>2022-02-22T13:49:23Z</time>
      </trkpt>
      <trkpt lat="43.56998" lon="2.34609">
        <ele>230.03278205015</ele>
        <time>2022-02-22T13:49:33Z</time>
      </trkpt>
      <trkpt lat="43.57003" lon="2.34618">
        <ele>229.89431798669</ele>
        <time>2022-02-22T13:49:49Z</time>
      </trkpt>
      <trkpt lat="43.57001" lon="2.34628">
        <ele>230.44462503068</ele>
        <time>2022-02-22T13:49:54Z</time>
      </trkpt>
      <trkpt lat="43.56997" lon="2.34642">
        <ele>231.35808663735</ele>
        <time>2022-02-22T13:49:59Z</time>
      </trkpt>
      <trkpt lat="43.56996" lon="2.34655">
        <ele>230.74773981804</ele>
        <time>2022-02-22T13:50:27Z</time>
      </trkpt>
      <trkpt lat="43.57" lon="2.34665">
        <ele>232.64573274516</ele>
        <time>2022-02-22T13:50:48Z</time>
      </trkpt>
      <trkpt lat="43.56999" lon="2.34676">
        <ele>238.55848741104</ele>
        <time>2022-02-22T13:51:00Z</time>
      </trkpt>
      <trkpt lat="43.56999" lon="2.34688">
        <ele>240.41864685255</ele>
        <time>2022-02-22T13:51:17Z</time>
      </trkpt>
      <trkpt lat="43.56996" lon="2.347">
        <ele>240.49902293284</ele>
        <time>2022-02-22T13:51:27Z</time>
      </trkpt>
      <trkpt lat="43.56997" lon="2.34712">
        <ele>244.3761730268</ele>
        <time>2022-02-22T13:51:39Z</time>
      </trkpt>
      <trkpt lat="43.56996" lon="2.34724">
        <ele>246.7634482806</ele>
        <time>2022-02-22T13:51:53Z</time>
      </trkpt>
      <trkpt lat="43.56995" lon="2.34735">
        <ele>243.8498537192</ele>
        <time>2022-02-22T13:51:59Z</time>
      </trkpt>
      <trkpt lat="43.5699" lon="2.34745">
        <ele>240.26504461948</ele>
        <time>2022-02-22T13:52:07Z</time>
      </trkpt>
      <trkpt lat="43.56988" lon="2.34756">
        <ele>241.65433741443</ele>
        <time>2022-02-22T13:52:16Z</time>
      </trkpt>
      <trkpt lat="43.56991" lon="2.34767">
        <ele>240.32043614047</ele>
        <time>2022-02-22T13:52:22Z</time>
      </trkpt>
      <trkpt lat="43.56989" lon="2.34779">
        <ele>242.62336878401</ele>
        <time>2022-02-22T13:52:30Z</time>
      </trkpt>
      <trkpt lat="43.56985" lon="2.34788">
        <ele>241.24979831518</ele>
        <time>2022-02-22T13:52:35Z</time>
      </trkpt>
      <trkpt lat="43.56984" lon="2.34799">
        <ele>236.84710428</ele>
        <time>2022-02-22T13:52:48Z</time>
      </trkpt>
      <trkpt lat="43.56986" lon="2.34811">
        <ele>235.59368456198</ele>
        <time>2022-02-22T13:52:56Z</time>
      </trkpt>
      <trkpt lat="43.56989" lon="2.34821">
        <ele>234.8058526134</ele>
        <time>2022-02-22T13:53:03Z</time>
      </trkpt>
      <trkpt lat="43.56991" lon="2.34832">
        <ele>234.54582708933</ele>
        <time>2022-02-22T13:53:11Z</time>
      </trkpt>
      <trkpt lat="43.56989" lon="2.34845">
        <ele>234.56882124298</ele>
        <time>2022-02-22T13:53:18Z</time>
      </trkpt>
      <trkpt lat="43.56987" lon="2.34856">
        <ele>232.82053445988</ele>
        <time>2022-02-22T13:53:24Z</time>
      </trkpt>
      <trkpt lat="43.56984" lon="2.34866">
        <ele>228.47911110164</ele>
        <time>2022-02-22T13:53:29Z</time>
      </trkpt>
      <trkpt lat="43.56978" lon="2.34876">
        <ele>228.13394932717</ele>
        <time>2022-02-22T13:53:35Z</time>
      </trkpt>
      <trkpt lat="43.56971" lon="2.34883">
        <ele>226.02687940007</ele>
        <time>2022-02-22T13:53:41Z</time>
      </trkpt>
      <trkpt lat="43.56965" lon="2.3489">
        <ele>227.3324190539</ele>
        <time>2022-02-22T13:53:47Z</time>
      </trkpt>
      <trkpt lat="43.5696" lon="2.34899">
        <ele>225.18126323033</ele>
        <time>2022-02-22T13:53:52Z</time>
      </trkpt>
      <trkpt lat="43.56958" lon="2.3491">
        <ele>228.53890518289</ele>
        <time>2022-02-22T13:54:01Z</time>
      </trkpt>
      <trkpt lat="43.56958" lon="2.34922">
        <ele>229.85213602772</ele>
        <time>2022-02-22T13:54:08Z</time>
      </trkpt>
      <trkpt lat="43.56955" lon="2.34932">
        <ele>230.50375059518</ele>
        <time>2022-02-22T13:54:17Z</time>
      </trkpt>
      <trkpt lat="43.5695" lon="2.34942">
        <ele>230.03220587921</ele>
        <time>2022-02-22T13:54:24Z</time>
      </trkpt>
      <trkpt lat="43.56945" lon="2.34951">
        <ele>232.30294582364</ele>
        <time>2022-02-22T13:54:30Z</time>
      </trkpt>
      <trkpt lat="43.56942" lon="2.34959">
        <ele>234.40593674148</ele>
        <time>2022-02-22T13:54:34Z</time>
      </trkpt>
      <trkpt lat="43.56939" lon="2.34969">
        <ele>235.19835987307</ele>
        <time>2022-02-22T13:54:38Z</time>
      </trkpt>
      <trkpt lat="43.56938" lon="2.34981">
        <ele>237.07776000696</ele>
        <time>2022-02-22T13:54:47Z</time>
      </trkpt>
      <trkpt lat="43.56935" lon="2.34992">
        <ele>237.18294107662</ele>
        <time>2022-02-22T13:54:56Z</time>
      </trkpt>
      <trkpt lat="43.56934" lon="2.35004">
        <ele>239.78015326661</ele>
        <time>2022-02-22T13:55:05Z</time>
      </trkpt>
      <trkpt lat="43.56932" lon="2.35015">
        <ele>241.3674878849</ele>
        <time>2022-02-22T13:55:14Z</time>
      </trkpt>
      <trkpt lat="43.56927" lon="2.35024">
        <ele>240.45024590288</ele>
        <time>2022-02-22T13:55:22Z</time>
      </trkpt>
      <trkpt lat="43.56925" lon="2.35036">
        <ele>242.77977778453</ele>
        <time>2022-02-22T13:55:33Z</time>
      </trkpt>
      <trkpt lat="43.56929" lon="2.35045">
        <ele>242.29099227713</ele>
        <time>2022-02-22T13:55:43Z</time>
      </trkpt>
      <trkpt lat="43.56934" lon="2.35053">
        <ele>242.7745751997</ele>
        <time>2022-02-22T13:55:49Z</time>
      </trkpt>
      <trkpt lat="43.56939" lon="2.35061">
        <ele>242.21895477965</ele>
        <time>2022-02-22T13:55:54Z</time>
      </trkpt>
      <trkpt lat="43.56942" lon="2.35071">
        <ele>240.96054422599</ele>
        <time>2022-02-22T13:56:00Z</time>
      </trkpt>
      <trkpt lat="43.56943" lon="2.35082">
        <ele>239.33189827723</ele>
        <time>2022-02-22T13:56:07Z</time>
      </trkpt>
      <trkpt lat="43.56945" lon="2.35094">
        <ele>237.51473411686</ele>
        <time>2022-02-22T13:56:14Z</time>
      </trkpt>
      <trkpt lat="43.5695" lon="2.35104">
        <ele>235.12434707106</ele>
        <time>2022-02-22T13:56:20Z</time>
      </trkpt>
      <trkpt lat="43.56953" lon="2.35115">
        <ele>234.50460080867</ele>
        <time>2022-02-22T13:56:26Z</time>
      </trkpt>
      <trkpt lat="43.56952" lon="2.35126">
        <ele>238.70571243133</ele>
        <time>2022-02-22T13:56:34Z</time>
      </trkpt>
      <trkpt lat="43.56948" lon="2.35136">
        <ele>235.27530694105</ele>
        <time>2022-02-22T13:56:39Z</time>
      </trkpt>
      <trkpt lat="43.56946" lon="2.35146">
        <ele>232.97544579581</ele>
        <time>2022-02-22T13:56:45Z</time>
      </trkpt>
      <trkpt lat="43.56945" lon="2.35158">
        <ele>232.60753684217</ele>
        <time>2022-02-22T13:56:52Z</time>
      </trkpt>
      <trkpt lat="43.56946" lon="2.35169">
        <ele>226.15019282806</ele>
        <time>2022-02-22T13:57:00Z</time>
      </trkpt>
      <trkpt lat="43.56947" lon="2.35181">
        <ele>226.05807291383</ele>
        <time>2022-02-22T13:57:07Z</time>
      </trkpt>
      <trkpt lat="43.56949" lon="2.35191">
        <ele>223.8650722362</ele>
        <time>2022-02-22T13:57:13Z</time>
      </trkpt>
      <trkpt lat="43.56949" lon="2.35203">
        <ele>225.60399064315</ele>
        <time>2022-02-22T13:57:20Z</time>
      </trkpt>
      <trkpt lat="43.56949" lon="2.35215">
        <ele>224.01776852266</ele>
        <time>2022-02-22T13:57:28Z</time>
      </trkpt>
      <trkpt lat="43.5695" lon="2.35227">
        <ele>224.05505826165</ele>
        <time>2022-02-22T13:57:35Z</time>
      </trkpt>
      <trkpt lat="43.56948" lon="2.35238">
        <ele>222.71426751533</ele>
        <time>2022-02-22T13:57:42Z</time>
      </trkpt>
      <trkpt lat="43.56946" lon="2.3525">
        <ele>220.52865395629</ele>
        <time>2022-02-22T13:57:49Z</time>
      </trkpt>
      <trkpt lat="43.56943" lon="2.35261">
        <ele>219.34598857129</ele>
        <time>2022-02-22T13:57:55Z</time>
      </trkpt>
      <trkpt lat="43.56942" lon="2.35273">
        <ele>220.49509053947</ele>
        <time>2022-02-22T13:58:04Z</time>
      </trkpt>
      <trkpt lat="43.56943" lon="2.35285">
        <ele>217.79095041849</ele>
        <time>2022-02-22T13:58:12Z</time>
      </trkpt>
      <trkpt lat="43.56946" lon="2.35295">
        <ele>220.06932491671</ele>
        <time>2022-02-22T13:58:18Z</time>
      </trkpt>
      <trkpt lat="43.5695" lon="2.35305">
        <ele>221.51542157162</ele>
        <time>2022-02-22T13:58:24Z</time>
      </trkpt>
      <trkpt lat="43.56955" lon="2.35315">
        <ele>224.17226058906</ele>
        <time>2022-02-22T13:58:32Z</time>
      </trkpt>
      <trkpt lat="43.56958" lon="2.35326">
        <ele>224.12069811436</ele>
        <time>2022-02-22T13:58:38Z</time>
      </trkpt>
      <trkpt lat="43.56961" lon="2.35336">
        <ele>225.28134364786</ele>
        <time>2022-02-22T13:58:45Z</time>
      </trkpt>
      <trkpt lat="43.56965" lon="2.35346">
        <ele>227.86217221107</ele>
        <time>2022-02-22T13:58:52Z</time>
      </trkpt>
      <trkpt lat="43.56969" lon="2.35357">
        <ele>228.15263754934</ele>
        <time>2022-02-22T13:59:00Z</time>
      </trkpt>
      <trkpt lat="43.56971" lon="2.35368">
        <ele>226.73700313773</ele>
        <time>2022-02-22T13:59:06Z</time>
      </trkpt>
      <trkpt lat="43.56971" lon="2.3538">
        <ele>225.56282482163</ele>
        <time>2022-02-22T13:59:14Z</time>
      </trkpt>
      <trkpt lat="43.56971" lon="2.35391">
        <ele>226.04065231813</ele>
        <time>2022-02-22T13:59:21Z</time>
      </trkpt>
      <trkpt lat="43.56974" lon="2.35402">
        <ele>226.15827655699</ele>
        <time>2022-02-22T13:59:28Z</time>
      </trkpt>
      <trkpt lat="43.56977" lon="2.35412">
        <ele>227.14791670119</ele>
        <time>2022-02-22T13:59:35Z</time>
      </trkpt>
      <trkpt lat="43.56979" lon="2.35424">
        <ele>227.08124218074</ele>
        <time>2022-02-22T13:59:44Z</time>
      </trkpt>
      <trkpt lat="43.56984" lon="2.35433">
        <ele>228.45971671673</ele>
        <time>2022-02-22T13:59:54Z</time>
      </trkpt>
      <trkpt lat="43.56989" lon="2.35443">
        <ele>229.8776496275</ele>
        <time>2022-02-22T14:00:01Z</time>
      </trkpt>
      <trkpt lat="43.56993" lon="2.35452">
        <ele>231.48415580319</ele>
        <time>2022-02-22T14:00:07Z</time>
      </trkpt>
      <trkpt lat="43.56997" lon="2.35461">
        <ele>231.68355659328</ele>
        <time>2022-02-22T14:00:13Z</time>
      </trkpt>
      <trkpt lat="43.57003" lon="2.35467">
        <ele>231.20529102932</ele>
        <time>2022-02-22T14:00:18Z</time>
      </trkpt>
      <trkpt lat="43.57008" lon="2.35476">
        <ele>229.9949586179</ele>
        <time>2022-02-22T14:00:24Z</time>
      </trkpt>
      <trkpt lat="43.57009" lon="2.35487">
        <ele>228.15496569406</ele>
        <time>2022-02-22T14:00:31Z</time>
      </trkpt>
      <trkpt lat="43.57012" lon="2.35497">
        <ele>228.97484649782</ele>
        <time>2022-02-22T14:00:38Z</time>
      </trkpt>
      <trkpt lat="43.57015" lon="2.35509">
        <ele>229.22772724703</ele>
        <time>2022-02-22T14:00:47Z</time>
      </trkpt>
      <trkpt lat="43.57017" lon="2.35521">
        <ele>227.43996907805</ele>
        <time>2022-02-22T14:00:56Z</time>
      </trkpt>
      <trkpt lat="43.57022" lon="2.3553">
        <ele>229.89250383742</ele>
        <time>2022-02-22T14:01:03Z</time>
      </trkpt>
      <trkpt lat="43.57026" lon="2.3554">
        <ele>231.14675680047</ele>
        <time>2022-02-22T14:01:11Z</time>
      </trkpt>
      <trkpt lat="43.57031" lon="2.35549">
        <ele>232.28894483325</ele>
        <time>2022-02-22T14:01:18Z</time>
      </trkpt>
      <trkpt lat="43.57035" lon="2.35559">
        <ele>231.36480961774</ele>
        <time>2022-02-22T14:01:26Z</time>
      </trkpt>
      <trkpt lat="43.57041" lon="2.35566">
        <ele>229.23866104814</ele>
        <time>2022-02-22T14:01:33Z</time>
      </trkpt>
      <trkpt lat="43.57046" lon="2.35577">
        <ele>229.49995577873</ele>
        <time>2022-02-22T14:01:41Z</time>
      </trkpt>
      <trkpt lat="43.57042" lon="2.35587">
        <ele>228.23447600719</ele>
        <time>2022-02-22T14:01:48Z</time>
      </trkpt>
      <trkpt lat="43.57039" lon="2.35599">
        <ele>230.73142669617</ele>
        <time>2022-02-22T14:01:56Z</time>
      </trkpt>
      <trkpt lat="43.57035" lon="2.35608">
        <ele>235.16877764823</ele>
        <time>2022-02-22T14:02:04Z</time>
      </trkpt>
      <trkpt lat="43.57032" lon="2.3562">
        <ele>239.08530973098</ele>
        <time>2022-02-22T14:02:13Z</time>
      </trkpt>
      <trkpt lat="43.57029" lon="2.35631">
        <ele>237.2996295207</ele>
        <time>2022-02-22T14:02:29Z</time>
      </trkpt>
      <trkpt lat="43.5702" lon="2.35638">
        <ele>235.56496571761</ele>
        <time>2022-02-22T14:02:33Z</time>
      </trkpt>
      <trkpt lat="43.57014" lon="2.35647">
        <ele>233.96773766383</ele>
        <time>2022-02-22T14:02:41Z</time>
      </trkpt>
      <trkpt lat="43.57009" lon="2.35657">
        <ele>235.7857446146</ele>
        <time>2022-02-22T14:02:47Z</time>
      </trkpt>
      <trkpt lat="43.57004" lon="2.35666">
        <ele>237.89859447946</ele>
        <time>2022-02-22T14:02:57Z</time>
      </trkpt>
      <trkpt lat="43.56996" lon="2.35676">
        <ele>235.7483878576</ele>
        <time>2022-02-22T14:03:02Z</time>
      </trkpt>
      <trkpt lat="43.56992" lon="2.35685">
        <ele>233.17134061298</ele>
        <time>2022-02-22T14:03:11Z</time>
      </trkpt>
      <trkpt lat="43.56989" lon="2.35694">
        <ele>227.81055024485</ele>
        <time>2022-02-22T14:03:21Z</time>
      </trkpt>
      <trkpt lat="43.56986" lon="2.35705">
        <ele>226.21676123297</ele>
        <time>2022-02-22T14:03:31Z</time>
      </trkpt>
      <trkpt lat="43.56981" lon="2.35712">
        <ele>225.91669965943</ele>
        <time>2022-02-22T14:03:36Z</time>
      </trkpt>
      <trkpt lat="43.56975" lon="2.35721">
        <ele>226.60036569435</ele>
        <time>2022-02-22T14:03:41Z</time>
      </trkpt>
      <trkpt lat="43.5697" lon="2.35732">
        <ele>228.29241931522</ele>
        <time>2022-02-22T14:03:52Z</time>
      </trkpt>
      <trkpt lat="43.56957" lon="2.3574">
        <ele>226.84614105082</ele>
        <time>2022-02-22T14:03:56Z</time>
      </trkpt>
      <trkpt lat="43.56948" lon="2.35747">
        <ele>226.06768536182</ele>
        <time>2022-02-22T14:04:00Z</time>
      </trkpt>
      <trkpt lat="43.5695" lon="2.35758">
        <ele>227.58657742836</ele>
        <time>2022-02-22T14:04:15Z</time>
      </trkpt>
      <trkpt lat="43.56944" lon="2.35766">
        <ele>227.25819404789</ele>
        <time>2022-02-22T14:04:22Z</time>
      </trkpt>
      <trkpt lat="43.56943" lon="2.35776">
        <ele>232.62888028345</ele>
        <time>2022-02-22T14:04:32Z</time>
      </trkpt>
      <trkpt lat="43.56943" lon="2.35787">
        <ele>234.30515029921</ele>
        <time>2022-02-22T14:04:42Z</time>
      </trkpt>
      <trkpt lat="43.56937" lon="2.35794">
        <ele>232.68223687143</ele>
        <time>2022-02-22T14:04:46Z</time>
      </trkpt>
      <trkpt lat="43.56935" lon="2.35805">
        <ele>232.93223253271</ele>
        <time>2022-02-22T14:04:57Z</time>
      </trkpt>
      <trkpt lat="43.56931" lon="2.35814">
        <ele>234.25664757736</ele>
        <time>2022-02-22T14:05:03Z</time>
      </trkpt>
      <trkpt lat="43.56923" lon="2.35824">
        <ele>233.27891886476</ele>
        <time>2022-02-22T14:05:08Z</time>
      </trkpt>
      <trkpt lat="43.56918" lon="2.35834">
        <ele>231.65886265974</ele>
        <time>2022-02-22T14:05:16Z</time>
      </trkpt>
      <trkpt lat="43.56915" lon="2.35844">
        <ele>235.82387589559</ele>
        <time>2022-02-22T14:05:27Z</time>
      </trkpt>
      <trkpt lat="43.56911" lon="2.35854">
        <ele>234.66681934527</ele>
        <time>2022-02-22T14:05:34Z</time>
      </trkpt>
      <trkpt lat="43.56912" lon="2.35866">
        <ele>237.08022899405</ele>
        <time>2022-02-22T14:05:43Z</time>
      </trkpt>
      <trkpt lat="43.56907" lon="2.35875">
        <ele>238.9707448829</ele>
        <time>2022-02-22T14:05:49Z</time>
      </trkpt>
      <trkpt lat="43.56905" lon="2.35886">
        <ele>241.98912883793</ele>
        <time>2022-02-22T14:06:00Z</time>
      </trkpt>
      <trkpt lat="43.56894" lon="2.3589">
        <ele>241.89406888012</ele>
        <time>2022-02-22T14:06:05Z</time>
      </trkpt>
      <trkpt lat="43.56892" lon="2.35901">
        <ele>242.6389670923</ele>
        <time>2022-02-22T14:06:13Z</time>
      </trkpt>
      <trkpt lat="43.56884" lon="2.35907">
        <ele>245.56357058498</ele>
        <time>2022-02-22T14:06:19Z</time>
      </trkpt>
      <trkpt lat="43.56882" lon="2.35918">
        <ele>248.70492071563</ele>
        <time>2022-02-22T14:06:27Z</time>
      </trkpt>
      <trkpt lat="43.56875" lon="2.35924">
        <ele>247.86645507521</ele>
        <time>2022-02-22T14:06:35Z</time>
      </trkpt>
      <trkpt lat="43.56867" lon="2.35921">
        <ele>245.26763515575</ele>
        <time>2022-02-22T14:06:45Z</time>
      </trkpt>
      <trkpt lat="43.56859" lon="2.35923">
        <ele>244.06064598233</ele>
        <time>2022-02-22T14:06:51Z</time>
      </trkpt>
      <trkpt lat="43.56852" lon="2.3592">
        <ele>244.59657413815</ele>
        <time>2022-02-22T14:07:06Z</time>
      </trkpt>
      <trkpt lat="43.56845" lon="2.35918">
        <ele>244.30229249661</ele>
        <time>2022-02-22T14:07:11Z</time>
      </trkpt>
      <trkpt lat="43.56838" lon="2.35913">
        <ele>244.03714679459</ele>
        <time>2022-02-22T14:07:17Z</time>
      </trkpt>
      <trkpt lat="43.56831" lon="2.35905">
        <ele>244.06999303813</ele>
        <time>2022-02-22T14:07:24Z</time>
      </trkpt>
      <trkpt lat="43.56823" lon="2.35901">
        <ele>244.25036960044</ele>
        <time>2022-02-22T14:07:30Z</time>
      </trkpt>
      <trkpt lat="43.56815" lon="2.35897">
        <ele>246.5766549394</ele>
        <time>2022-02-22T14:07:53Z</time>
      </trkpt>
      <trkpt lat="43.56808" lon="2.35889">
        <ele>250.08930498764</ele>
        <time>2022-02-22T14:08:27Z</time>
      </trkpt>
      <trkpt lat="43.56816" lon="2.35886">
        <ele>251.02758216377</ele>
        <time>2022-02-22T14:08:52Z</time>
      </trkpt>
      <trkpt lat="43.56814" lon="2.35896">
        <ele>253.14899666178</ele>
        <time>2022-02-22T14:09:21Z</time>
      </trkpt>
      <trkpt lat="43.56806" lon="2.359">
        <ele>249.63598927713</ele>
        <time>2022-02-22T14:10:12Z</time>
      </trkpt>
      <trkpt lat="43.56814" lon="2.35899">
        <ele>255.30997775896</ele>
        <time>2022-02-22T14:11:16Z</time>
      </trkpt>
      <trkpt lat="43.56809" lon="2.35894">
        <ele>254.36998670736</ele>
        <time>2022-02-22T14:11:26Z</time>
      </trkpt>
      <trkpt lat="43.56795" lon="2.3589">
        <ele>251.98343385675</ele>
        <time>2022-02-22T14:11:31Z</time>
      </trkpt>
      <trkpt lat="43.56792" lon="2.35879">
        <ele>252.51141029009</ele>
        <time>2022-02-22T14:11:48Z</time>
      </trkpt>
      <trkpt lat="43.5679" lon="2.35868">
        <ele>254.61902251149</ele>
        <time>2022-02-22T14:12:01Z</time>
      </trkpt>
      <trkpt lat="43.56782" lon="2.35864">
        <ele>254.94222388024</ele>
        <time>2022-02-22T14:12:08Z</time>
      </trkpt>
      <trkpt lat="43.56772" lon="2.35861">
        <ele>255.3476934653</ele>
        <time>2022-02-22T14:12:13Z</time>
      </trkpt>
      <trkpt lat="43.5677" lon="2.3585">
        <ele>257.20737038399</ele>
        <time>2022-02-22T14:12:27Z</time>
      </trkpt>
      <trkpt lat="43.56763" lon="2.35844">
        <ele>258.43897921738</ele>
        <time>2022-02-22T14:12:39Z</time>
      </trkpt>
      <trkpt lat="43.56754" lon="2.3584">
        <ele>259.38364414775</ele>
        <time>2022-02-22T14:12:44Z</time>
      </trkpt>
      <trkpt lat="43.56747" lon="2.35836">
        <ele>260.5785765328</ele>
        <time>2022-02-22T14:12:55Z</time>
      </trkpt>
      <trkpt lat="43.56739" lon="2.35836">
        <ele>260.20951363775</ele>
        <time>2022-02-22T14:13:03Z</time>
      </trkpt>
      <trkpt lat="43.5673" lon="2.35836">
        <ele>260.57724632343</ele>
        <time>2022-02-22T14:13:15Z</time>
      </trkpt>
      <trkpt lat="43.5672" lon="2.35839">
        <ele>261.39445491676</ele>
        <time>2022-02-22T14:13:19Z</time>
      </trkpt>
      <trkpt lat="43.56712" lon="2.3584">
        <ele>260.01495499254</ele>
        <time>2022-02-22T14:13:30Z</time>
      </trkpt>
      <trkpt lat="43.56707" lon="2.35831">
        <ele>259.41241653994</ele>
        <time>2022-02-22T14:13:44Z</time>
      </trkpt>
      <trkpt lat="43.56702" lon="2.35822">
        <ele>259.31715595503</ele>
        <time>2022-02-22T14:13:50Z</time>
      </trkpt>
      <trkpt lat="43.56696" lon="2.35814">
        <ele>259.95932604251</ele>
        <time>2022-02-22T14:13:57Z</time>
      </trkpt>
      <trkpt lat="43.5669" lon="2.35805">
        <ele>260.0443219171</ele>
        <time>2022-02-22T14:14:06Z</time>
      </trkpt>
      <trkpt lat="43.56683" lon="2.358">
        <ele>259.71311197519</ele>
        <time>2022-02-22T14:14:18Z</time>
      </trkpt>
      <trkpt lat="43.5667" lon="2.35798">
        <ele>259.55082866023</ele>
        <time>2022-02-22T14:14:23Z</time>
      </trkpt>
      <trkpt lat="43.56662" lon="2.35794">
        <ele>260.7535500922</ele>
        <time>2022-02-22T14:14:29Z</time>
      </trkpt>
      <trkpt lat="43.56654" lon="2.35792">
        <ele>260.83535336435</ele>
        <time>2022-02-22T14:14:37Z</time>
      </trkpt>
      <trkpt lat="43.56646" lon="2.3579">
        <ele>261.17020131371</ele>
        <time>2022-02-22T14:14:43Z</time>
      </trkpt>
      <trkpt lat="43.56638" lon="2.35786">
        <ele>262.07174260649</ele>
        <time>2022-02-22T14:14:50Z</time>
      </trkpt>
      <trkpt lat="43.56632" lon="2.35777">
        <ele>264.6643091026</ele>
        <time>2022-02-22T14:14:59Z</time>
      </trkpt>
      <trkpt lat="43.56624" lon="2.35773">
        <ele>268.93949739805</ele>
        <time>2022-02-22T14:15:11Z</time>
      </trkpt>
      <trkpt lat="43.56621" lon="2.35761">
        <ele>269.59526420181</ele>
        <time>2022-02-22T14:15:56Z</time>
      </trkpt>
      <trkpt lat="43.56615" lon="2.35754">
        <ele>265.8168310301</ele>
        <time>2022-02-22T14:16:04Z</time>
      </trkpt>
      <trkpt lat="43.56612" lon="2.35743">
        <ele>265.0541579726</ele>
        <time>2022-02-22T14:17:01Z</time>
      </trkpt>
      <trkpt lat="43.56604" lon="2.35738">
        <ele>267.68727511945</ele>
        <time>2022-02-22T14:17:14Z</time>
      </trkpt>
      <trkpt lat="43.56596" lon="2.3574">
        <ele>267.55071120229</ele>
        <time>2022-02-22T14:17:22Z</time>
      </trkpt>
      <trkpt lat="43.56589" lon="2.35736">
        <ele>270.17755324958</ele>
        <time>2022-02-22T14:17:30Z</time>
      </trkpt>
      <trkpt lat="43.56588" lon="2.35724">
        <ele>276.59047691003</ele>
        <time>2022-02-22T14:17:45Z</time>
      </trkpt>
      <trkpt lat="43.5658" lon="2.35722">
        <ele>277.33238509106</ele>
        <time>2022-02-22T14:17:50Z</time>
      </trkpt>
      <trkpt lat="43.56572" lon="2.35715">
        <ele>276.75537828939</ele>
        <time>2022-02-22T14:17:54Z</time>
      </trkpt>
      <trkpt lat="43.56564" lon="2.35711">
        <ele>276.41917124493</ele>
        <time>2022-02-22T14:18:07Z</time>
      </trkpt>
      <trkpt lat="43.56554" lon="2.3571">
        <ele>275.75411505457</ele>
        <time>2022-02-22T14:18:12Z</time>
      </trkpt>
      <trkpt lat="43.56549" lon="2.35702">
        <ele>274.21190713977</ele>
        <time>2022-02-22T14:18:32Z</time>
      </trkpt>
      <trkpt lat="43.56542" lon="2.35696">
        <ele>270.35440014583</ele>
        <time>2022-02-22T14:18:44Z</time>
      </trkpt>
      <trkpt lat="43.56535" lon="2.3569">
        <ele>271.88820831403</ele>
        <time>2022-02-22T14:18:57Z</time>
      </trkpt>
      <trkpt lat="43.56528" lon="2.35684">
        <ele>273.03738116946</ele>
        <time>2022-02-22T14:19:05Z</time>
      </trkpt>
      <trkpt lat="43.5652" lon="2.35681">
        <ele>274.6756892014</ele>
        <time>2022-02-22T14:19:13Z</time>
      </trkpt>
      <trkpt lat="43.56511" lon="2.3568">
        <ele>274.91182969361</ele>
        <time>2022-02-22T14:19:22Z</time>
      </trkpt>
      <trkpt lat="43.56502" lon="2.3568">
        <ele>275.02444044474</ele>
        <time>2022-02-22T14:19:26Z</time>
      </trkpt>
      <trkpt lat="43.56494" lon="2.35678">
        <ele>274.61490259254</ele>
        <time>2022-02-22T14:19:35Z</time>
      </trkpt>
      <trkpt lat="43.56485" lon="2.35674">
        <ele>276.01686046918</ele>
        <time>2022-02-22T14:19:52Z</time>
      </trkpt>
      <trkpt lat="43.56475" lon="2.35673">
        <ele>277.84153485822</ele>
        <time>2022-02-22T14:19:57Z</time>
      </trkpt>
      <trkpt lat="43.56468" lon="2.35671">
        <ele>280.02822854179</ele>
        <time>2022-02-22T14:20:12Z</time>
      </trkpt>
      <trkpt lat="43.56463" lon="2.35676">
        <ele>280.20171760362</ele>
        <time>2022-02-22T14:20:20Z</time>
      </trkpt>
      <trkpt lat="43.56455" lon="2.35679">
        <ele>280.98721445471</ele>
        <time>2022-02-22T14:20:33Z</time>
      </trkpt>
      <trkpt lat="43.56447" lon="2.35683">
        <ele>280.37231086507</ele>
        <time>2022-02-22T14:20:41Z</time>
      </trkpt>
      <trkpt lat="43.56438" lon="2.35686">
        <ele>282.44780346398</ele>
        <time>2022-02-22T14:20:52Z</time>
      </trkpt>
      <trkpt lat="43.56431" lon="2.35686">
        <ele>282.97924508598</ele>
        <time>2022-02-22T14:20:58Z</time>
      </trkpt>
      <trkpt lat="43.56424" lon="2.35678">
        <ele>282.00870488886</ele>
        <time>2022-02-22T14:21:26Z</time>
      </trkpt>
      <trkpt lat="43.56417" lon="2.35672">
        <ele>278.90683916693</ele>
        <time>2022-02-22T14:21:38Z</time>
      </trkpt>
      <trkpt lat="43.56411" lon="2.35674">
        <ele>279.89372923724</ele>
        <time>2022-02-22T14:21:44Z</time>
      </trkpt>
      <trkpt lat="43.56399" lon="2.35677">
        <ele>281.2909504859</ele>
        <time>2022-02-22T14:21:49Z</time>
      </trkpt>
      <trkpt lat="43.5639" lon="2.35679">
        <ele>283.31929359699</ele>
        <time>2022-02-22T14:21:54Z</time>
      </trkpt>
      <trkpt lat="43.56382" lon="2.35678">
        <ele>284.82134597134</ele>
        <time>2022-02-22T14:22:01Z</time>
      </trkpt>
      <trkpt lat="43.56373" lon="2.35678">
        <ele>287.70966726508</ele>
        <time>2022-02-22T14:22:11Z</time>
      </trkpt>
      <trkpt lat="43.56367" lon="2.35675">
        <ele>283.58344208057</ele>
        <time>2022-02-22T14:22:29Z</time>
      </trkpt>
      <trkpt lat="43.56359" lon="2.35676">
        <ele>283.403987769</ele>
        <time>2022-02-22T14:22:33Z</time>
      </trkpt>
      <trkpt lat="43.56352" lon="2.35669">
        <ele>282.68447223829</ele>
        <time>2022-02-22T14:22:48Z</time>
      </trkpt>
      <trkpt lat="43.56345" lon="2.35666">
        <ele>281.82342539822</ele>
        <time>2022-02-22T14:23:04Z</time>
      </trkpt>
      <trkpt lat="43.56337" lon="2.35663">
        <ele>282.22725115947</ele>
        <time>2022-02-22T14:23:25Z</time>
      </trkpt>
      <trkpt lat="43.5633" lon="2.35661">
        <ele>282.37520081836</ele>
        <time>2022-02-22T14:23:33Z</time>
      </trkpt>
      <trkpt lat="43.56322" lon="2.35663">
        <ele>286.31272739957</ele>
        <time>2022-02-22T14:23:41Z</time>
      </trkpt>
      <trkpt lat="43.56314" lon="2.35665">
        <ele>289.29098395049</ele>
        <time>2022-02-22T14:23:47Z</time>
      </trkpt>
      <trkpt lat="43.56306" lon="2.35666">
        <ele>291.57798608117</ele>
        <time>2022-02-22T14:23:52Z</time>
      </trkpt>
      <trkpt lat="43.56299" lon="2.35667">
        <ele>291.99172038992</ele>
        <time>2022-02-22T14:23:57Z</time>
      </trkpt>
      <trkpt lat="43.56291" lon="2.35671">
        <ele>294.58589126376</ele>
        <time>2022-02-22T14:24:05Z</time>
      </trkpt>
      <trkpt lat="43.56284" lon="2.35665">
        <ele>294.52545987951</ele>
        <time>2022-02-22T14:24:15Z</time>
      </trkpt>
      <trkpt lat="43.56276" lon="2.35665">
        <ele>295.90069165731</ele>
        <time>2022-02-22T14:24:24Z</time>
      </trkpt>
      <trkpt lat="43.56266" lon="2.35666">
        <ele>296.15555622504</ele>
        <time>2022-02-22T14:24:29Z</time>
      </trkpt>
      <trkpt lat="43.56259" lon="2.35661">
        <ele>295.47216954828</ele>
        <time>2022-02-22T14:24:51Z</time>
      </trkpt>
      <trkpt lat="43.56248" lon="2.35662">
        <ele>294.26294635832</ele>
        <time>2022-02-22T14:24:56Z</time>
      </trkpt>
      <trkpt lat="43.5624" lon="2.35657">
        <ele>293.53062966679</ele>
        <time>2022-02-22T14:25:08Z</time>
      </trkpt>
      <trkpt lat="43.56232" lon="2.35658">
        <ele>294.1783473589</ele>
        <time>2022-02-22T14:25:13Z</time>
      </trkpt>
      <trkpt lat="43.56223" lon="2.35661">
        <ele>295.30510180411</ele>
        <time>2022-02-22T14:25:21Z</time>
      </trkpt>
      <trkpt lat="43.56216" lon="2.35655">
        <ele>299.94200511251</ele>
        <time>2022-02-22T14:26:17Z</time>
      </trkpt>
      <trkpt lat="43.56207" lon="2.3565">
        <ele>300.77173510684</ele>
        <time>2022-02-22T14:26:22Z</time>
      </trkpt>
      <trkpt lat="43.56199" lon="2.35647">
        <ele>304.89165698078</ele>
        <time>2022-02-22T14:26:44Z</time>
      </trkpt>
      <trkpt lat="43.56192" lon="2.35648">
        <ele>303.29511974755</ele>
        <time>2022-02-22T14:26:57Z</time>
      </trkpt>
      <trkpt lat="43.56183" lon="2.35652">
        <ele>304.78381771254</ele>
        <time>2022-02-22T14:27:15Z</time>
      </trkpt>
      <trkpt lat="43.56181" lon="2.35641">
        <ele>303.48549847336</ele>
        <time>2022-02-22T14:27:35Z</time>
      </trkpt>
      <trkpt lat="43.56173" lon="2.35639">
        <ele>304.71323596988</ele>
        <time>2022-02-22T14:27:54Z</time>
      </trkpt>
      <trkpt lat="43.56166" lon="2.35638">
        <ele>305.05669115247</ele>
        <time>2022-02-22T14:27:59Z</time>
      </trkpt>
      <trkpt lat="43.5616" lon="2.35629">
        <ele>307.06816642193</ele>
        <time>2022-02-22T14:28:18Z</time>
      </trkpt>
      <trkpt lat="43.56156" lon="2.35618">
        <ele>307.73866744265</ele>
        <time>2022-02-22T14:28:26Z</time>
      </trkpt>
      <trkpt lat="43.56152" lon="2.35608">
        <ele>307.75708151727</ele>
        <time>2022-02-22T14:28:35Z</time>
      </trkpt>
      <trkpt lat="43.56147" lon="2.35599">
        <ele>308.62100657896</ele>
        <time>2022-02-22T14:28:48Z</time>
      </trkpt>
      <trkpt lat="43.56139" lon="2.35594">
        <ele>309.90917455732</ele>
        <time>2022-02-22T14:28:56Z</time>
      </trkpt>
      <trkpt lat="43.56131" lon="2.35591">
        <ele>312.07972091524</ele>
        <time>2022-02-22T14:29:05Z</time>
      </trkpt>
      <trkpt lat="43.56125" lon="2.35584">
        <ele>313.15370245548</ele>
        <time>2022-02-22T14:29:13Z</time>
      </trkpt>
      <trkpt lat="43.56114" lon="2.35578">
        <ele>313.78707532699</ele>
        <time>2022-02-22T14:29:18Z</time>
      </trkpt>
      <trkpt lat="43.56117" lon="2.35566">
        <ele>309.52253280341</ele>
        <time>2022-02-22T14:29:30Z</time>
      </trkpt>
      <trkpt lat="43.56122" lon="2.35559">
        <ele>308.53716039294</ele>
        <time>2022-02-22T14:29:37Z</time>
      </trkpt>
      <trkpt lat="43.56123" lon="2.35547">
        <ele>310.00789450035</ele>
        <time>2022-02-22T14:29:47Z</time>
      </trkpt>
      <trkpt lat="43.5612" lon="2.35537">
        <ele>313.27019670956</ele>
        <time>2022-02-22T14:30:00Z</time>
      </trkpt>
      <trkpt lat="43.56113" lon="2.35531">
        <ele>314.98537968301</ele>
        <time>2022-02-22T14:30:05Z</time>
      </trkpt>
      <trkpt lat="43.56106" lon="2.35522">
        <ele>318.10367687615</ele>
        <time>2022-02-22T14:30:15Z</time>
      </trkpt>
      <trkpt lat="43.56103" lon="2.35511">
        <ele>321.42894709261</ele>
        <time>2022-02-22T14:30:22Z</time>
      </trkpt>
      <trkpt lat="43.56098" lon="2.35501">
        <ele>322.75981036576</ele>
        <time>2022-02-22T14:30:29Z</time>
      </trkpt>
      <trkpt lat="43.56097" lon="2.35489">
        <ele>321.45586325068</ele>
        <time>2022-02-22T14:30:40Z</time>
      </trkpt>
      <trkpt lat="43.56093" lon="2.3548">
        <ele>319.96415173027</ele>
        <time>2022-02-22T14:30:51Z</time>
      </trkpt>
      <trkpt lat="43.56089" lon="2.35469">
        <ele>321.31633319249</ele>
        <time>2022-02-22T14:30:57Z</time>
      </trkpt>
      <trkpt lat="43.56083" lon="2.35463">
        <ele>320.53240869817</ele>
        <time>2022-02-22T14:31:03Z</time>
      </trkpt>
      <trkpt lat="43.56075" lon="2.3546">
        <ele>322.40612354951</ele>
        <time>2022-02-22T14:31:13Z</time>
      </trkpt>
      <trkpt lat="43.56068" lon="2.35467">
        <ele>325.16597523039</ele>
        <time>2022-02-22T14:31:28Z</time>
      </trkpt>
      <trkpt lat="43.56066" lon="2.35478">
        <ele>326.65105498315</ele>
        <time>2022-02-22T14:31:55Z</time>
      </trkpt>
      <trkpt lat="43.5607" lon="2.35466">
        <ele>324.72505043828</ele>
        <time>2022-02-22T14:33:52Z</time>
      </trkpt>
      <trkpt lat="43.56063" lon="2.35471">
        <ele>324.5171067787</ele>
        <time>2022-02-22T14:34:48Z</time>
      </trkpt>
      <trkpt lat="43.56059" lon="2.35481">
        <ele>324.56451342372</ele>
        <time>2022-02-22T14:34:56Z</time>
      </trkpt>
      <trkpt lat="43.56055" lon="2.3549">
        <ele>323.65879592668</ele>
        <time>2022-02-22T14:35:00Z</time>
      </trkpt>
      <trkpt lat="43.56051" lon="2.35501">
        <ele>321.77389444056</ele>
        <time>2022-02-22T14:35:10Z</time>
      </trkpt>
      <trkpt lat="43.56045" lon="2.3551">
        <ele>321.25414917154</ele>
        <time>2022-02-22T14:35:25Z</time>
      </trkpt>
      <trkpt lat="43.5604" lon="2.35519">
        <ele>322.81183387879</ele>
        <time>2022-02-22T14:35:35Z</time>
      </trkpt>
      <trkpt lat="43.56034" lon="2.35527">
        <ele>323.60269710662</ele>
        <time>2022-02-22T14:35:44Z</time>
      </trkpt>
      <trkpt lat="43.56026" lon="2.3553">
        <ele>324.05410004416</ele>
        <time>2022-02-22T14:35:59Z</time>
      </trkpt>
      <trkpt lat="43.56016" lon="2.35532">
        <ele>324.776691701</ele>
        <time>2022-02-22T14:36:04Z</time>
      </trkpt>
      <trkpt lat="43.56008" lon="2.35529">
        <ele>324.93648489722</ele>
        <time>2022-02-22T14:36:10Z</time>
      </trkpt>
      <trkpt lat="43.56" lon="2.3553">
        <ele>327.18543142128</ele>
        <time>2022-02-22T14:36:18Z</time>
      </trkpt>
      <trkpt lat="43.55993" lon="2.35535">
        <ele>327.23821907277</ele>
        <time>2022-02-22T14:36:33Z</time>
      </trkpt>
      <trkpt lat="43.55985" lon="2.3554">
        <ele>326.53501354887</ele>
        <time>2022-02-22T14:36:45Z</time>
      </trkpt>
      <trkpt lat="43.55979" lon="2.35545">
        <ele>325.86213048656</ele>
        <time>2022-02-22T14:36:55Z</time>
      </trkpt>
      <trkpt lat="43.55972" lon="2.35553">
        <ele>327.02726924434</ele>
        <time>2022-02-22T14:37:01Z</time>
      </trkpt>
      <trkpt lat="43.55966" lon="2.35562">
        <ele>328.88173833537</ele>
        <time>2022-02-22T14:37:09Z</time>
      </trkpt>
      <trkpt lat="43.5596" lon="2.3557">
        <ele>330.22270974018</ele>
        <time>2022-02-22T14:37:15Z</time>
      </trkpt>
      <trkpt lat="43.55956" lon="2.35581">
        <ele>331.23153743915</ele>
        <time>2022-02-22T14:37:25Z</time>
      </trkpt>
      <trkpt lat="43.55954" lon="2.35593">
        <ele>331.62755215439</ele>
        <time>2022-02-22T14:37:35Z</time>
      </trkpt>
      <trkpt lat="43.55951" lon="2.35602">
        <ele>332.12248533335</ele>
        <time>2022-02-22T14:37:44Z</time>
      </trkpt>
      <trkpt lat="43.55947" lon="2.3561">
        <ele>332.79645373248</ele>
        <time>2022-02-22T14:37:49Z</time>
      </trkpt>
      <trkpt lat="43.55941" lon="2.35619">
        <ele>333.8075514754</ele>
        <time>2022-02-22T14:37:54Z</time>
      </trkpt>
      <trkpt lat="43.55939" lon="2.35631">
        <ele>334.14892365751</ele>
        <time>2022-02-22T14:38:00Z</time>
      </trkpt>
      <trkpt lat="43.55939" lon="2.35643">
        <ele>333.14120835658</ele>
        <time>2022-02-22T14:38:12Z</time>
      </trkpt>
      <trkpt lat="43.55935" lon="2.35653">
        <ele>332.88045942516</ele>
        <time>2022-02-22T14:38:23Z</time>
      </trkpt>
      <trkpt lat="43.55931" lon="2.35661">
        <ele>332.71414762298</ele>
        <time>2022-02-22T14:38:30Z</time>
      </trkpt>
      <trkpt lat="43.5593" lon="2.35674">
        <ele>331.22750346784</ele>
        <time>2022-02-22T14:38:39Z</time>
      </trkpt>
      <trkpt lat="43.55929" lon="2.35685">
        <ele>330.42353872016</ele>
        <time>2022-02-22T14:38:47Z</time>
      </trkpt>
      <trkpt lat="43.55925" lon="2.35696">
        <ele>330.5276398089</ele>
        <time>2022-02-22T14:38:54Z</time>
      </trkpt>
      <trkpt lat="43.5592" lon="2.35705">
        <ele>332.13121204433</ele>
        <time>2022-02-22T14:39:00Z</time>
      </trkpt>
      <trkpt lat="43.55913" lon="2.35713">
        <ele>333.50225774792</ele>
        <time>2022-02-22T14:39:05Z</time>
      </trkpt>
      <trkpt lat="43.55917" lon="2.35723">
        <ele>334.1948671101</ele>
        <time>2022-02-22T14:39:13Z</time>
      </trkpt>
      <trkpt lat="43.55916" lon="2.35733">
        <ele>336.39049802786</ele>
        <time>2022-02-22T14:39:20Z</time>
      </trkpt>
      <trkpt lat="43.55915" lon="2.35744">
        <ele>337.46819153554</ele>
        <time>2022-02-22T14:39:27Z</time>
      </trkpt>
      <trkpt lat="43.55915" lon="2.35756">
        <ele>338.49667721011</ele>
        <time>2022-02-22T14:39:34Z</time>
      </trkpt>
      <trkpt lat="43.55914" lon="2.35768">
        <ele>339.11201372085</ele>
        <time>2022-02-22T14:39:42Z</time>
      </trkpt>
      <trkpt lat="43.5591" lon="2.35777">
        <ele>339.66952124523</ele>
        <time>2022-02-22T14:39:51Z</time>
      </trkpt>
      <trkpt lat="43.55909" lon="2.35787">
        <ele>340.29799859169</ele>
        <time>2022-02-22T14:39:59Z</time>
      </trkpt>
      <trkpt lat="43.55913" lon="2.35798">
        <ele>340.39529657934</ele>
        <time>2022-02-22T14:40:04Z</time>
      </trkpt>
      <trkpt lat="43.55919" lon="2.35807">
        <ele>340.16984411786</ele>
        <time>2022-02-22T14:40:10Z</time>
      </trkpt>
      <trkpt lat="43.55922" lon="2.35817">
        <ele>340.21517423553</ele>
        <time>2022-02-22T14:40:18Z</time>
      </trkpt>
      <trkpt lat="43.5592" lon="2.35829">
        <ele>341.46254475695</ele>
        <time>2022-02-22T14:40:26Z</time>
      </trkpt>
      <trkpt lat="43.55926" lon="2.35836">
        <ele>342.97552688558</ele>
        <time>2022-02-22T14:40:32Z</time>
      </trkpt>
      <trkpt lat="43.55928" lon="2.35848">
        <ele>341.21245464716</ele>
        <time>2022-02-22T14:40:43Z</time>
      </trkpt>
      <trkpt lat="43.55925" lon="2.35858">
        <ele>340.70074745747</ele>
        <time>2022-02-22T14:40:50Z</time>
      </trkpt>
      <trkpt lat="43.55921" lon="2.35867">
        <ele>340.96323897863</ele>
        <time>2022-02-22T14:40:56Z</time>
      </trkpt>
      <trkpt lat="43.5592" lon="2.35877">
        <ele>340.44539936352</ele>
        <time>2022-02-22T14:41:03Z</time>
      </trkpt>
      <trkpt lat="43.5592" lon="2.35889">
        <ele>339.86220136066</ele>
        <time>2022-02-22T14:41:09Z</time>
      </trkpt>
      <trkpt lat="43.55915" lon="2.35899">
        <ele>339.04767425635</ele>
        <time>2022-02-22T14:41:14Z</time>
      </trkpt>
      <trkpt lat="43.55916" lon="2.3591">
        <ele>338.36731207323</ele>
        <time>2022-02-22T14:41:21Z</time>
      </trkpt>
      <trkpt lat="43.55916" lon="2.35922">
        <ele>340.28859510012</ele>
        <time>2022-02-22T14:41:27Z</time>
      </trkpt>
      <trkpt lat="43.55921" lon="2.35932">
        <ele>341.93507749485</ele>
        <time>2022-02-22T14:41:32Z</time>
      </trkpt>
      <trkpt lat="43.55922" lon="2.35944">
        <ele>344.1665313183</ele>
        <time>2022-02-22T14:41:39Z</time>
      </trkpt>
      <trkpt lat="43.5593" lon="2.35949">
        <ele>343.2520584828</ele>
        <time>2022-02-22T14:41:44Z</time>
      </trkpt>
      <trkpt lat="43.55925" lon="2.35958">
        <ele>343.19506796793</ele>
        <time>2022-02-22T14:41:54Z</time>
      </trkpt>
      <trkpt lat="43.5592" lon="2.35968">
        <ele>341.9971914961</ele>
        <time>2022-02-22T14:42:05Z</time>
      </trkpt>
      <trkpt lat="43.55914" lon="2.35976">
        <ele>340.75375277298</ele>
        <time>2022-02-22T14:42:12Z</time>
      </trkpt>
      <trkpt lat="43.55911" lon="2.35983">
        <ele>339.86979550526</ele>
        <time>2022-02-22T14:42:23Z</time>
      </trkpt>
      <trkpt lat="43.55905" lon="2.35993">
        <ele>339.09930827916</ele>
        <time>2022-02-22T14:42:27Z</time>
      </trkpt>
      <trkpt lat="43.55901" lon="2.36003">
        <ele>338.04490269563</ele>
        <time>2022-02-22T14:42:35Z</time>
      </trkpt>
      <trkpt lat="43.55897" lon="2.36013">
        <ele>337.90384827139</ele>
        <time>2022-02-22T14:42:41Z</time>
      </trkpt>
      <trkpt lat="43.55894" lon="2.36023">
        <ele>338.44432242506</ele>
        <time>2022-02-22T14:42:45Z</time>
      </trkpt>
      <trkpt lat="43.55889" lon="2.36034">
        <ele>339.15738175635</ele>
        <time>2022-02-22T14:42:50Z</time>
      </trkpt>
      <trkpt lat="43.55883" lon="2.36044">
        <ele>338.90684830291</ele>
        <time>2022-02-22T14:42:55Z</time>
      </trkpt>
      <trkpt lat="43.55876" lon="2.36054">
        <ele>340.04433003953</ele>
        <time>2022-02-22T14:43:00Z</time>
      </trkpt>
      <trkpt lat="43.55871" lon="2.36063">
        <ele>341.72501812164</ele>
        <time>2022-02-22T14:43:05Z</time>
      </trkpt>
      <trkpt lat="43.55868" lon="2.36073">
        <ele>340.58657602425</ele>
        <time>2022-02-22T14:43:16Z</time>
      </trkpt>
      <trkpt lat="43.55861" lon="2.3608">
        <ele>338.63095244971</ele>
        <time>2022-02-22T14:43:30Z</time>
      </trkpt>
      <trkpt lat="43.55857" lon="2.36089">
        <ele>336.91983309766</ele>
        <time>2022-02-22T14:43:37Z</time>
      </trkpt>
      <trkpt lat="43.55851" lon="2.36098">
        <ele>337.54267587112</ele>
        <time>2022-02-22T14:43:45Z</time>
      </trkpt>
      <trkpt lat="43.55845" lon="2.36107">
        <ele>338.48047984414</ele>
        <time>2022-02-22T14:43:49Z</time>
      </trkpt>
      <trkpt lat="43.5584" lon="2.36114">
        <ele>338.57948882893</ele>
        <time>2022-02-22T14:44:06Z</time>
      </trkpt>
      <trkpt lat="43.55832" lon="2.36116">
        <ele>337.38350994405</ele>
        <time>2022-02-22T14:44:12Z</time>
      </trkpt>
      <trkpt lat="43.55822" lon="2.36121">
        <ele>335.79435699065</ele>
        <time>2022-02-22T14:44:17Z</time>
      </trkpt>
      <trkpt lat="43.55815" lon="2.36126">
        <ele>335.76824397513</ele>
        <time>2022-02-22T14:44:23Z</time>
      </trkpt>
      <trkpt lat="43.55809" lon="2.36132">
        <ele>337.66423412443</ele>
        <time>2022-02-22T14:44:28Z</time>
      </trkpt>
      <trkpt lat="43.55801" lon="2.36136">
        <ele>337.86551033592</ele>
        <time>2022-02-22T14:44:47Z</time>
      </trkpt>
      <trkpt lat="43.55794" lon="2.36138">
        <ele>337.79615888635</ele>
        <time>2022-02-22T14:44:51Z</time>
      </trkpt>
      <trkpt lat="43.55785" lon="2.36142">
        <ele>338.7046869417</ele>
        <time>2022-02-22T14:44:56Z</time>
      </trkpt>
      <trkpt lat="43.55777" lon="2.36144">
        <ele>339.75322722202</ele>
        <time>2022-02-22T14:45:07Z</time>
      </trkpt>
      <trkpt lat="43.55769" lon="2.3615">
        <ele>341.43530909834</ele>
        <time>2022-02-22T14:45:26Z</time>
      </trkpt>
      <trkpt lat="43.55761" lon="2.36153">
        <ele>340.94851121252</ele>
        <time>2022-02-22T14:45:32Z</time>
      </trkpt>
      <trkpt lat="43.55758" lon="2.36165">
        <ele>341.92363827344</ele>
        <time>2022-02-22T14:45:53Z</time>
      </trkpt>
      <trkpt lat="43.55752" lon="2.36174">
        <ele>344.70298103424</ele>
        <time>2022-02-22T14:46:05Z</time>
      </trkpt>
      <trkpt lat="43.55747" lon="2.36182">
        <ele>345.68221055839</ele>
        <time>2022-02-22T14:46:11Z</time>
      </trkpt>
      <trkpt lat="43.55739" lon="2.36186">
        <ele>347.96576137798</ele>
        <time>2022-02-22T14:46:30Z</time>
      </trkpt>
      <trkpt lat="43.55731" lon="2.36188">
        <ele>348.5751550021</ele>
        <time>2022-02-22T14:46:35Z</time>
      </trkpt>
      <trkpt lat="43.55725" lon="2.36197">
        <ele>349.65268267069</ele>
        <time>2022-02-22T14:46:44Z</time>
      </trkpt>
      <trkpt lat="43.55721" lon="2.36207">
        <ele>349.33154628302</ele>
        <time>2022-02-22T14:46:56Z</time>
      </trkpt>
      <trkpt lat="43.55723" lon="2.3622">
        <ele>351.15890599373</ele>
        <time>2022-02-22T14:47:08Z</time>
      </trkpt>
      <trkpt lat="43.55717" lon="2.36228">
        <ele>353.31500202717</ele>
        <time>2022-02-22T14:47:18Z</time>
      </trkpt>
      <trkpt lat="43.55716" lon="2.3624">
        <ele>355.7241407187</ele>
        <time>2022-02-22T14:47:25Z</time>
      </trkpt>
      <trkpt lat="43.55714" lon="2.36251">
        <ele>356.82247896167</ele>
        <time>2022-02-22T14:47:39Z</time>
      </trkpt>
      <trkpt lat="43.55712" lon="2.36263">
        <ele>359.40663504187</ele>
        <time>2022-02-22T14:47:53Z</time>
      </trkpt>
      <trkpt lat="43.55706" lon="2.3627">
        <ele>361.61021012061</ele>
        <time>2022-02-22T14:48:04Z</time>
      </trkpt>
      <trkpt lat="43.55704" lon="2.36282">
        <ele>362.994231014</ele>
        <time>2022-02-22T14:48:23Z</time>
      </trkpt>
      <trkpt lat="43.55709" lon="2.36291">
        <ele>362.31974068623</ele>
        <time>2022-02-22T14:48:31Z</time>
      </trkpt>
      <trkpt lat="43.55712" lon="2.36301">
        <ele>364.82108049271</ele>
        <time>2022-02-22T14:48:43Z</time>
      </trkpt>
      <trkpt lat="43.55713" lon="2.36313">
        <ele>366.83056474815</ele>
        <time>2022-02-22T14:48:56Z</time>
      </trkpt>
      <trkpt lat="43.55709" lon="2.36324">
        <ele>366.02340889188</ele>
        <time>2022-02-22T14:49:11Z</time>
      </trkpt>
      <trkpt lat="43.55705" lon="2.36334">
        <ele>366.26183506849</ele>
        <time>2022-02-22T14:49:22Z</time>
      </trkpt>
      <trkpt lat="43.55711" lon="2.36343">
        <ele>366.20786515932</ele>
        <time>2022-02-22T14:49:30Z</time>
      </trkpt>
      <trkpt lat="43.55711" lon="2.36356">
        <ele>368.63555482632</ele>
        <time>2022-02-22T14:49:46Z</time>
      </trkpt>
      <trkpt lat="43.55704" lon="2.36363">
        <ele>371.77162682989</ele>
        <time>2022-02-22T14:49:56Z</time>
      </trkpt>
      <trkpt lat="43.557" lon="2.36372">
        <ele>371.25560210886</ele>
        <time>2022-02-22T14:50:08Z</time>
      </trkpt>
      <trkpt lat="43.55701" lon="2.36384">
        <ele>373.07074886354</ele>
        <time>2022-02-22T14:50:17Z</time>
      </trkpt>
      <trkpt lat="43.55696" lon="2.36392">
        <ele>374.37647534588</ele>
        <time>2022-02-22T14:50:25Z</time>
      </trkpt>
      <trkpt lat="43.55695" lon="2.36403">
        <ele>377.29075628395</ele>
        <time>2022-02-22T14:50:44Z</time>
      </trkpt>
      <trkpt lat="43.55699" lon="2.36412">
        <ele>378.48920913183</ele>
        <time>2022-02-22T14:50:52Z</time>
      </trkpt>
      <trkpt lat="43.55699" lon="2.36425">
        <ele>378.83936850464</ele>
        <time>2022-02-22T14:50:59Z</time>
      </trkpt>
      <trkpt lat="43.55695" lon="2.36434">
        <ele>380.83056793647</ele>
        <time>2022-02-22T14:51:08Z</time>
      </trkpt>
      <trkpt lat="43.55693" lon="2.36446">
        <ele>384.42911868858</ele>
        <time>2022-02-22T14:51:18Z</time>
      </trkpt>
      <trkpt lat="43.55691" lon="2.36457">
        <ele>387.21188492486</ele>
        <time>2022-02-22T14:51:28Z</time>
      </trkpt>
      <trkpt lat="43.55687" lon="2.36468">
        <ele>389.82062091031</ele>
        <time>2022-02-22T14:51:38Z</time>
      </trkpt>
      <trkpt lat="43.55692" lon="2.36477">
        <ele>393.5734588004</ele>
        <time>2022-02-22T14:51:45Z</time>
      </trkpt>
      <trkpt lat="43.5569" lon="2.36489">
        <ele>397.72999732386</ele>
        <time>2022-02-22T14:51:56Z</time>
      </trkpt>
      <trkpt lat="43.55689" lon="2.365">
        <ele>396.54017765392</ele>
        <time>2022-02-22T14:52:04Z</time>
      </trkpt>
      <trkpt lat="43.55685" lon="2.3651">
        <ele>395.9980679301</ele>
        <time>2022-02-22T14:52:20Z</time>
      </trkpt>
      <trkpt lat="43.55691" lon="2.36518">
        <ele>395.27716353351</ele>
        <time>2022-02-22T14:54:14Z</time>
      </trkpt>
      <trkpt lat="43.55684" lon="2.36511">
        <ele>398.45656852099</ele>
        <time>2022-02-22T14:54:22Z</time>
      </trkpt>
      <trkpt lat="43.55677" lon="2.36505">
        <ele>403.16443688202</ele>
        <time>2022-02-22T14:54:39Z</time>
      </trkpt>
      <trkpt lat="43.55683" lon="2.36505">
        <ele>404.89689326378</ele>
        <time>2022-02-22T14:54:47Z</time>
      </trkpt>
      <trkpt lat="43.55696" lon="2.36518">
        <ele>405.18709782459</ele>
        <time>2022-02-22T14:54:52Z</time>
      </trkpt>
      <trkpt lat="43.557" lon="2.36527">
        <ele>405.53844667939</ele>
        <time>2022-02-22T14:54:58Z</time>
      </trkpt>
      <trkpt lat="43.55698" lon="2.36518">
        <ele>399.39512792486</ele>
        <time>2022-02-22T14:55:20Z</time>
      </trkpt>
      <trkpt lat="43.55693" lon="2.36509">
        <ele>393.52969849405</ele>
        <time>2022-02-22T14:55:35Z</time>
      </trkpt>
      <trkpt lat="43.55684" lon="2.36512">
        <ele>396.79618775735</ele>
        <time>2022-02-22T14:55:48Z</time>
      </trkpt>
      <trkpt lat="43.55677" lon="2.36509">
        <ele>397.53759521858</ele>
        <time>2022-02-22T14:55:58Z</time>
      </trkpt>
      <trkpt lat="43.55673" lon="2.36519">
        <ele>397.82117445519</ele>
        <time>2022-02-22T14:56:09Z</time>
      </trkpt>
      <trkpt lat="43.55665" lon="2.36521">
        <ele>399.43564523676</ele>
        <time>2022-02-22T14:56:14Z</time>
      </trkpt>
      <trkpt lat="43.55663" lon="2.36533">
        <ele>396.0359856653</ele>
        <time>2022-02-22T14:56:26Z</time>
      </trkpt>
      <trkpt lat="43.55663" lon="2.36544">
        <ele>395.32720793539</ele>
        <time>2022-02-22T14:56:35Z</time>
      </trkpt>
      <trkpt lat="43.55661" lon="2.36556">
        <ele>392.26110104296</ele>
        <time>2022-02-22T14:56:44Z</time>
      </trkpt>
      <trkpt lat="43.55658" lon="2.36567">
        <ele>391.24547287378</ele>
        <time>2022-02-22T14:56:51Z</time>
      </trkpt>
      <trkpt lat="43.55655" lon="2.36578">
        <ele>390.35397325011</ele>
        <time>2022-02-22T14:57:01Z</time>
      </trkpt>
      <trkpt lat="43.55648" lon="2.36584">
        <ele>391.73078456321</ele>
        <time>2022-02-22T14:57:08Z</time>
      </trkpt>
      <trkpt lat="43.55641" lon="2.36589">
        <ele>392.17308172246</ele>
        <time>2022-02-22T14:57:15Z</time>
      </trkpt>
      <trkpt lat="43.55635" lon="2.36597">
        <ele>392.32480504639</ele>
        <time>2022-02-22T14:57:23Z</time>
      </trkpt>
      <trkpt lat="43.55629" lon="2.36604">
        <ele>390.5970917883</ele>
        <time>2022-02-22T14:57:33Z</time>
      </trkpt>
      <trkpt lat="43.55625" lon="2.36616">
        <ele>390.32531117042</ele>
        <time>2022-02-22T14:57:45Z</time>
      </trkpt>
      <trkpt lat="43.55619" lon="2.36624">
        <ele>392.35756186152</ele>
        <time>2022-02-22T14:57:59Z</time>
      </trkpt>
      <trkpt lat="43.55614" lon="2.36631">
        <ele>390.55279213075</ele>
        <time>2022-02-22T14:58:08Z</time>
      </trkpt>
      <trkpt lat="43.55611" lon="2.36641">
        <ele>388.87261265428</ele>
        <time>2022-02-22T14:58:16Z</time>
      </trkpt>
      <trkpt lat="43.55605" lon="2.3665">
        <ele>388.08707521306</ele>
        <time>2022-02-22T14:58:21Z</time>
      </trkpt>
      <trkpt lat="43.55603" lon="2.36662">
        <ele>387.6761548926</ele>
        <time>2022-02-22T14:58:32Z</time>
      </trkpt>
      <trkpt lat="43.55599" lon="2.36671">
        <ele>386.69472011824</ele>
        <time>2022-02-22T14:58:41Z</time>
      </trkpt>
      <trkpt lat="43.55594" lon="2.3668">
        <ele>386.41259471955</ele>
        <time>2022-02-22T14:58:56Z</time>
      </trkpt>
      <trkpt lat="43.55591" lon="2.36691">
        <ele>385.42043209328</ele>
        <time>2022-02-22T14:59:09Z</time>
      </trkpt>
      <trkpt lat="43.55585" lon="2.367">
        <ele>387.36210716962</ele>
        <time>2022-02-22T14:59:15Z</time>
      </trkpt>
      <trkpt lat="43.55582" lon="2.3671">
        <ele>387.95797642913</ele>
        <time>2022-02-22T14:59:25Z</time>
      </trkpt>
      <trkpt lat="43.55577" lon="2.36719">
        <ele>389.25824525556</ele>
        <time>2022-02-22T14:59:30Z</time>
      </trkpt>
      <trkpt lat="43.55574" lon="2.3673">
        <ele>391.07799124852</ele>
        <time>2022-02-22T14:59:38Z</time>
      </trkpt>
      <trkpt lat="43.55568" lon="2.36743">
        <ele>394.13551545755</ele>
        <time>2022-02-22T14:59:43Z</time>
      </trkpt>
      <trkpt lat="43.55566" lon="2.36755">
        <ele>394.81473406725</ele>
        <time>2022-02-22T14:59:59Z</time>
      </trkpt>
      <trkpt lat="43.5556" lon="2.36763">
        <ele>395.12309375102</ele>
        <time>2022-02-22T15:00:05Z</time>
      </trkpt>
      <trkpt lat="43.55558" lon="2.36774">
        <ele>395.92442244661</ele>
        <time>2022-02-22T15:00:18Z</time>
      </trkpt>
      <trkpt lat="43.55554" lon="2.36782">
        <ele>396.00440393364</ele>
        <time>2022-02-22T15:00:24Z</time>
      </trkpt>
      <trkpt lat="43.55547" lon="2.3679">
        <ele>396.28045955128</ele>
        <time>2022-02-22T15:00:30Z</time>
      </trkpt>
      <trkpt lat="43.55547" lon="2.36801">
        <ele>396.74329110066</ele>
        <time>2022-02-22T15:00:39Z</time>
      </trkpt>
      <trkpt lat="43.55545" lon="2.36812">
        <ele>396.09515718417</ele>
        <time>2022-02-22T15:00:48Z</time>
      </trkpt>
      <trkpt lat="43.55543" lon="2.36824">
        <ele>397.15652934292</ele>
        <time>2022-02-22T15:00:59Z</time>
      </trkpt>
      <trkpt lat="43.55537" lon="2.36833">
        <ele>397.34085158824</ele>
        <time>2022-02-22T15:01:06Z</time>
      </trkpt>
      <trkpt lat="43.55535" lon="2.36844">
        <ele>397.88207296657</ele>
        <time>2022-02-22T15:01:15Z</time>
      </trkpt>
      <trkpt lat="43.5553" lon="2.36854">
        <ele>399.55693069009</ele>
        <time>2022-02-22T15:01:24Z</time>
      </trkpt>
      <trkpt lat="43.55523" lon="2.36861">
        <ele>401.12313635883</ele>
        <time>2022-02-22T15:01:28Z</time>
      </trkpt>
      <trkpt lat="43.5552" lon="2.36872">
        <ele>400.82882715821</ele>
        <time>2022-02-22T15:01:40Z</time>
      </trkpt>
      <trkpt lat="43.5552" lon="2.36884">
        <ele>400.12835980672</ele>
        <time>2022-02-22T15:01:52Z</time>
      </trkpt>
      <trkpt lat="43.55522" lon="2.36895">
        <ele>399.59617439362</ele>
        <time>2022-02-22T15:02:08Z</time>
      </trkpt>
      <trkpt lat="43.55519" lon="2.36905">
        <ele>400.01767781758</ele>
        <time>2022-02-22T15:02:13Z</time>
      </trkpt>
      <trkpt lat="43.55511" lon="2.36915">
        <ele>399.70430571024</ele>
        <time>2022-02-22T15:02:17Z</time>
      </trkpt>
      <trkpt lat="43.55507" lon="2.36925">
        <ele>398.57497945767</ele>
        <time>2022-02-22T15:02:23Z</time>
      </trkpt>
      <trkpt lat="43.55503" lon="2.36936">
        <ele>398.06777574373</ele>
        <time>2022-02-22T15:02:35Z</time>
      </trkpt>
      <trkpt lat="43.55502" lon="2.36948">
        <ele>399.09132565463</ele>
        <time>2022-02-22T15:02:46Z</time>
      </trkpt>
      <trkpt lat="43.55494" lon="2.36953">
        <ele>399.6761875703</ele>
        <time>2022-02-22T15:02:57Z</time>
      </trkpt>
      <trkpt lat="43.55489" lon="2.36962">
        <ele>399.34659114891</ele>
        <time>2022-02-22T15:03:03Z</time>
      </trkpt>
      <trkpt lat="43.55486" lon="2.36973">
        <ele>399.75105292476</ele>
        <time>2022-02-22T15:03:12Z</time>
      </trkpt>
      <trkpt lat="43.55486" lon="2.36985">
        <ele>401.73496467517</ele>
        <time>2022-02-22T15:03:31Z</time>
      </trkpt>
      <trkpt lat="43.55479" lon="2.3699">
        <ele>402.5347784116</ele>
        <time>2022-02-22T15:03:36Z</time>
      </trkpt>
      <trkpt lat="43.55472" lon="2.36996">
        <ele>402.08946566574</ele>
        <time>2022-02-22T15:03:45Z</time>
      </trkpt>
      <trkpt lat="43.55466" lon="2.37004">
        <ele>402.24348543353</ele>
        <time>2022-02-22T15:03:54Z</time>
      </trkpt>
      <trkpt lat="43.5546" lon="2.37011">
        <ele>402.90995856525</ele>
        <time>2022-02-22T15:04:05Z</time>
      </trkpt>
      <trkpt lat="43.55461" lon="2.37023">
        <ele>402.10565276756</ele>
        <time>2022-02-22T15:04:23Z</time>
      </trkpt>
      <trkpt lat="43.55455" lon="2.37032">
        <ele>401.28161015903</ele>
        <time>2022-02-22T15:04:40Z</time>
      </trkpt>
      <trkpt lat="43.55456" lon="2.37043">
        <ele>400.03066452908</ele>
        <time>2022-02-22T15:04:45Z</time>
      </trkpt>
      <trkpt lat="43.55452" lon="2.37054">
        <ele>399.34824176928</ele>
        <time>2022-02-22T15:04:57Z</time>
      </trkpt>
      <trkpt lat="43.5545" lon="2.37065">
        <ele>397.70980016369</ele>
        <time>2022-02-22T15:05:12Z</time>
      </trkpt>
      <trkpt lat="43.5545" lon="2.37076">
        <ele>396.85302882994</ele>
        <time>2022-02-22T15:05:19Z</time>
      </trkpt>
      <trkpt lat="43.55447" lon="2.37088">
        <ele>396.60961230402</ele>
        <time>2022-02-22T15:05:28Z</time>
      </trkpt>
      <trkpt lat="43.55442" lon="2.37098">
        <ele>397.19576523606</ele>
        <time>2022-02-22T15:05:33Z</time>
      </trkpt>
      <trkpt lat="43.55436" lon="2.37104">
        <ele>398.76368268792</ele>
        <time>2022-02-22T15:05:51Z</time>
      </trkpt>
      <trkpt lat="43.55431" lon="2.37114">
        <ele>401.45384799679</ele>
        <time>2022-02-22T15:06:05Z</time>
      </trkpt>
      <trkpt lat="43.55424" lon="2.37121">
        <ele>399.43260262449</ele>
        <time>2022-02-22T15:06:25Z</time>
      </trkpt>
      <trkpt lat="43.55425" lon="2.37132">
        <ele>398.07070352607</ele>
        <time>2022-02-22T15:06:33Z</time>
      </trkpt>
      <trkpt lat="43.55418" lon="2.3714">
        <ele>398.96283146507</ele>
        <time>2022-02-22T15:06:52Z</time>
      </trkpt>
      <trkpt lat="43.55413" lon="2.3715">
        <ele>399.18420881566</ele>
        <time>2022-02-22T15:06:59Z</time>
      </trkpt>
      <trkpt lat="43.55407" lon="2.37159">
        <ele>398.92126168782</ele>
        <time>2022-02-22T15:07:07Z</time>
      </trkpt>
      <trkpt lat="43.55405" lon="2.3717">
        <ele>397.82031235618</ele>
        <time>2022-02-22T15:07:15Z</time>
      </trkpt>
      <trkpt lat="43.55401" lon="2.3718">
        <ele>397.82347192607</ele>
        <time>2022-02-22T15:07:24Z</time>
      </trkpt>
      <trkpt lat="43.55394" lon="2.37187">
        <ele>399.21528743312</ele>
        <time>2022-02-22T15:07:34Z</time>
      </trkpt>
      <trkpt lat="43.5539" lon="2.37196">
        <ele>398.90447669677</ele>
        <time>2022-02-22T15:07:45Z</time>
      </trkpt>
      <trkpt lat="43.55384" lon="2.37204">
        <ele>397.53169180237</ele>
        <time>2022-02-22T15:07:51Z</time>
      </trkpt>
      <trkpt lat="43.55378" lon="2.37213">
        <ele>396.79449541074</ele>
        <time>2022-02-22T15:07:58Z</time>
      </trkpt>
      <trkpt lat="43.55372" lon="2.37221">
        <ele>395.14503029035</ele>
        <time>2022-02-22T15:08:07Z</time>
      </trkpt>
      <trkpt lat="43.55364" lon="2.37225">
        <ele>395.92771479743</ele>
        <time>2022-02-22T15:08:15Z</time>
      </trkpt>
      <trkpt lat="43.55357" lon="2.37231">
        <ele>398.15481105308</ele>
        <time>2022-02-22T15:08:22Z</time>
      </trkpt>
      <trkpt lat="43.55351" lon="2.37239">
        <ele>398.74506187501</ele>
        <time>2022-02-22T15:08:33Z</time>
      </trkpt>
      <trkpt lat="43.55344" lon="2.37247">
        <ele>399.24363345718</ele>
        <time>2022-02-22T15:08:42Z</time>
      </trkpt>
      <trkpt lat="43.55337" lon="2.37253">
        <ele>400.55066388442</ele>
        <time>2022-02-22T15:08:51Z</time>
      </trkpt>
      <trkpt lat="43.55332" lon="2.37262">
        <ele>399.70114702385</ele>
        <time>2022-02-22T15:09:01Z</time>
      </trkpt>
      <trkpt lat="43.55328" lon="2.37272">
        <ele>400.14035918031</ele>
        <time>2022-02-22T15:09:10Z</time>
      </trkpt>
      <trkpt lat="43.55323" lon="2.37282">
        <ele>399.61272829357</ele>
        <time>2022-02-22T15:09:19Z</time>
      </trkpt>
      <trkpt lat="43.55317" lon="2.3729">
        <ele>400.62148980051</ele>
        <time>2022-02-22T15:09:31Z</time>
      </trkpt>
      <trkpt lat="43.55313" lon="2.37301">
        <ele>401.12779526783</ele>
        <time>2022-02-22T15:09:38Z</time>
      </trkpt>
      <trkpt lat="43.55309" lon="2.37311">
        <ele>400.04988702624</ele>
        <time>2022-02-22T15:09:45Z</time>
      </trkpt>
      <trkpt lat="43.55302" lon="2.37319">
        <ele>403.26669167756</ele>
        <time>2022-02-22T15:09:52Z</time>
      </trkpt>
      <trkpt lat="43.55296" lon="2.37327">
        <ele>404.85634058193</ele>
        <time>2022-02-22T15:09:59Z</time>
      </trkpt>
      <trkpt lat="43.55292" lon="2.37336">
        <ele>404.04183056598</ele>
        <time>2022-02-22T15:10:08Z</time>
      </trkpt>
      <trkpt lat="43.55287" lon="2.37345">
        <ele>403.16999895379</ele>
        <time>2022-02-22T15:10:14Z</time>
      </trkpt>
      <trkpt lat="43.55282" lon="2.37355">
        <ele>404.83985092423</ele>
        <time>2022-02-22T15:10:24Z</time>
      </trkpt>
      <trkpt lat="43.55277" lon="2.37364">
        <ele>406.65681894527</ele>
        <time>2022-02-22T15:10:32Z</time>
      </trkpt>
      <trkpt lat="43.55271" lon="2.37371">
        <ele>408.07509830001</ele>
        <time>2022-02-22T15:10:41Z</time>
      </trkpt>
      <trkpt lat="43.55264" lon="2.37379">
        <ele>408.66179959109</ele>
        <time>2022-02-22T15:10:48Z</time>
      </trkpt>
      <trkpt lat="43.55261" lon="2.3739">
        <ele>408.03303102875</ele>
        <time>2022-02-22T15:10:54Z</time>
      </trkpt>
      <trkpt lat="43.55256" lon="2.37398">
        <ele>408.01485866433</ele>
        <time>2022-02-22T15:11:05Z</time>
      </trkpt>
      <trkpt lat="43.55254" lon="2.3741">
        <ele>408.40551194879</ele>
        <time>2022-02-22T15:11:10Z</time>
      </trkpt>
      <trkpt lat="43.55252" lon="2.37422">
        <ele>409.45413228175</ele>
        <time>2022-02-22T15:11:17Z</time>
      </trkpt>
      <trkpt lat="43.55246" lon="2.3743">
        <ele>411.54852036368</ele>
        <time>2022-02-22T15:11:34Z</time>
      </trkpt>
      <trkpt lat="43.55241" lon="2.37438">
        <ele>411.62819796561</ele>
        <time>2022-02-22T15:11:39Z</time>
      </trkpt>
      <trkpt lat="43.55239" lon="2.37449">
        <ele>412.64083252221</ele>
        <time>2022-02-22T15:11:51Z</time>
      </trkpt>
      <trkpt lat="43.55232" lon="2.37455">
        <ele>412.53224032039</ele>
        <time>2022-02-22T15:11:57Z</time>
      </trkpt>
      <trkpt lat="43.55224" lon="2.3746">
        <ele>411.736434555</ele>
        <time>2022-02-22T15:12:05Z</time>
      </trkpt>
      <trkpt lat="43.55216" lon="2.37466">
        <ele>411.33070908263</ele>
        <time>2022-02-22T15:12:10Z</time>
      </trkpt>
      <trkpt lat="43.55211" lon="2.37474">
        <ele>411.34664121996</ele>
        <time>2022-02-22T15:12:18Z</time>
      </trkpt>
      <trkpt lat="43.55208" lon="2.37485">
        <ele>413.42371505204</ele>
        <time>2022-02-22T15:12:26Z</time>
      </trkpt>
      <trkpt lat="43.55204" lon="2.37493">
        <ele>414.61256662128</ele>
        <time>2022-02-22T15:12:46Z</time>
      </trkpt>
      <trkpt lat="43.55196" lon="2.37499">
        <ele>415.98077640226</ele>
        <time>2022-02-22T15:12:50Z</time>
      </trkpt>
      <trkpt lat="43.55188" lon="2.37504">
        <ele>416.52363515732</ele>
        <time>2022-02-22T15:12:58Z</time>
      </trkpt>
      <trkpt lat="43.55179" lon="2.37504">
        <ele>412.71363565314</ele>
        <time>2022-02-22T15:13:05Z</time>
      </trkpt>
      <trkpt lat="43.55172" lon="2.37499">
        <ele>407.75151893729</ele>
        <time>2022-02-22T15:13:16Z</time>
      </trkpt>
      <trkpt lat="43.55164" lon="2.37494">
        <ele>404.48257110113</ele>
        <time>2022-02-22T15:13:29Z</time>
      </trkpt>
      <trkpt lat="43.55157" lon="2.3749">
        <ele>403.03246102835</ele>
        <time>2022-02-22T15:13:36Z</time>
      </trkpt>
      <trkpt lat="43.55148" lon="2.37488">
        <ele>403.46108349856</ele>
        <time>2022-02-22T15:13:41Z</time>
      </trkpt>
      <trkpt lat="43.5514" lon="2.37491">
        <ele>401.84550706584</ele>
        <time>2022-02-22T15:13:50Z</time>
      </trkpt>
      <trkpt lat="43.55131" lon="2.37493">
        <ele>401.11862815502</ele>
        <time>2022-02-22T15:13:58Z</time>
      </trkpt>
      <trkpt lat="43.55124" lon="2.37487">
        <ele>404.94276917399</ele>
        <time>2022-02-22T15:14:57Z</time>
      </trkpt>
      <trkpt lat="43.55129" lon="2.37477">
        <ele>407.36914071701</ele>
        <time>2022-02-22T15:15:25Z</time>
      </trkpt>
      <trkpt lat="43.55131" lon="2.37466">
        <ele>405.92329867187</ele>
        <time>2022-02-22T15:15:33Z</time>
      </trkpt>
      <trkpt lat="43.55133" lon="2.37456">
        <ele>405.61384682546</ele>
        <time>2022-02-22T15:15:41Z</time>
      </trkpt>
      <trkpt lat="43.55137" lon="2.37446">
        <ele>405.50001857605</ele>
        <time>2022-02-22T15:15:48Z</time>
      </trkpt>
      <trkpt lat="43.55138" lon="2.37435">
        <ele>406.11646223455</ele>
        <time>2022-02-22T15:15:55Z</time>
      </trkpt>
      <trkpt lat="43.5514" lon="2.37423">
        <ele>405.94673579729</ele>
        <time>2022-02-22T15:16:03Z</time>
      </trkpt>
      <trkpt lat="43.55142" lon="2.37411">
        <ele>405.16990259987</ele>
        <time>2022-02-22T15:16:12Z</time>
      </trkpt>
      <trkpt lat="43.55143" lon="2.374">
        <ele>401.97551395929</ele>
        <time>2022-02-22T15:16:29Z</time>
      </trkpt>
      <trkpt lat="43.55147" lon="2.37391">
        <ele>400.09563703269</ele>
        <time>2022-02-22T15:16:35Z</time>
      </trkpt>
      <trkpt lat="43.55149" lon="2.3738">
        <ele>398.81716468859</ele>
        <time>2022-02-22T15:16:42Z</time>
      </trkpt>
      <trkpt lat="43.55151" lon="2.37368">
        <ele>398.17979006488</ele>
        <time>2022-02-22T15:16:49Z</time>
      </trkpt>
      <trkpt lat="43.55151" lon="2.37356">
        <ele>399.20568398013</ele>
        <time>2022-02-22T15:16:56Z</time>
      </trkpt>
      <trkpt lat="43.55152" lon="2.37345">
        <ele>399.26027736028</ele>
        <time>2022-02-22T15:17:04Z</time>
      </trkpt>
      <trkpt lat="43.55154" lon="2.37333">
        <ele>398.03962635423</ele>
        <time>2022-02-22T15:17:12Z</time>
      </trkpt>
      <trkpt lat="43.55154" lon="2.37321">
        <ele>394.8399984728</ele>
        <time>2022-02-22T15:17:19Z</time>
      </trkpt>
      <trkpt lat="43.55156" lon="2.3731">
        <ele>392.35119959104</ele>
        <time>2022-02-22T15:17:27Z</time>
      </trkpt>
      <trkpt lat="43.55156" lon="2.37298">
        <ele>389.96322415859</ele>
        <time>2022-02-22T15:17:36Z</time>
      </trkpt>
      <trkpt lat="43.55156" lon="2.37286">
        <ele>387.33200923174</ele>
        <time>2022-02-22T15:17:44Z</time>
      </trkpt>
      <trkpt lat="43.55154" lon="2.37274">
        <ele>385.4262338312</ele>
        <time>2022-02-22T15:17:52Z</time>
      </trkpt>
      <trkpt lat="43.55151" lon="2.37264">
        <ele>384.38695919215</ele>
        <time>2022-02-22T15:17:59Z</time>
      </trkpt>
      <trkpt lat="43.55149" lon="2.37254">
        <ele>382.37569164226</ele>
        <time>2022-02-22T15:18:06Z</time>
      </trkpt>
      <trkpt lat="43.55145" lon="2.37244">
        <ele>382.08660313346</ele>
        <time>2022-02-22T15:18:12Z</time>
      </trkpt>
      <trkpt lat="43.55143" lon="2.37232">
        <ele>381.31926557569</ele>
        <time>2022-02-22T15:18:21Z</time>
      </trkpt>
      <trkpt lat="43.5514" lon="2.37222">
        <ele>380.3701185424</ele>
        <time>2022-02-22T15:18:28Z</time>
      </trkpt>
      <trkpt lat="43.55137" lon="2.3721">
        <ele>379.70750586687</ele>
        <time>2022-02-22T15:18:36Z</time>
      </trkpt>
      <trkpt lat="43.55134" lon="2.37199">
        <ele>380.28011260293</ele>
        <time>2022-02-22T15:18:44Z</time>
      </trkpt>
      <trkpt lat="43.55131" lon="2.37189">
        <ele>380.17210647428</ele>
        <time>2022-02-22T15:18:52Z</time>
      </trkpt>
      <trkpt lat="43.55127" lon="2.37178">
        <ele>379.7722907935</ele>
        <time>2022-02-22T15:19:00Z</time>
      </trkpt>
      <trkpt lat="43.55123" lon="2.37168">
        <ele>379.22999787791</ele>
        <time>2022-02-22T15:19:07Z</time>
      </trkpt>
      <trkpt lat="43.5512" lon="2.37158">
        <ele>378.41285642056</ele>
        <time>2022-02-22T15:19:14Z</time>
      </trkpt>
      <trkpt lat="43.55116" lon="2.37148">
        <ele>377.86697640166</ele>
        <time>2022-02-22T15:19:22Z</time>
      </trkpt>
      <trkpt lat="43.55112" lon="2.37138">
        <ele>376.69582068995</ele>
        <time>2022-02-22T15:19:30Z</time>
      </trkpt>
      <trkpt lat="43.5511" lon="2.37126">
        <ele>375.83483948333</ele>
        <time>2022-02-22T15:19:36Z</time>
      </trkpt>
      <trkpt lat="43.55105" lon="2.37116">
        <ele>374.72733986491</ele>
        <time>2022-02-22T15:19:43Z</time>
      </trkpt>
      <trkpt lat="43.55098" lon="2.37107">
        <ele>375.1921776335</ele>
        <time>2022-02-22T15:19:51Z</time>
      </trkpt>
      <trkpt lat="43.55093" lon="2.371">
        <ele>375.16973265642</ele>
        <time>2022-02-22T15:19:57Z</time>
      </trkpt>
      <trkpt lat="43.55087" lon="2.37092">
        <ele>374.82548055312</ele>
        <time>2022-02-22T15:20:04Z</time>
      </trkpt>
      <trkpt lat="43.55082" lon="2.37082">
        <ele>374.69572280845</ele>
        <time>2022-02-22T15:20:11Z</time>
      </trkpt>
      <trkpt lat="43.55077" lon="2.37072">
        <ele>374.53472641769</ele>
        <time>2022-02-22T15:20:19Z</time>
      </trkpt>
      <trkpt lat="43.55072" lon="2.37062">
        <ele>372.98065849743</ele>
        <time>2022-02-22T15:20:29Z</time>
      </trkpt>
      <trkpt lat="43.55068" lon="2.37053">
        <ele>372.5191201096</ele>
        <time>2022-02-22T15:20:35Z</time>
      </trkpt>
      <trkpt lat="43.55063" lon="2.37044">
        <ele>372.65720324882</ele>
        <time>2022-02-22T15:20:41Z</time>
      </trkpt>
      <trkpt lat="43.55059" lon="2.37034">
        <ele>373.37060797705</ele>
        <time>2022-02-22T15:20:47Z</time>
      </trkpt>
      <trkpt lat="43.55056" lon="2.37023">
        <ele>372.77507946053</ele>
        <time>2022-02-22T15:20:54Z</time>
      </trkpt>
      <trkpt lat="43.55054" lon="2.37011">
        <ele>372.05717868552</ele>
        <time>2022-02-22T15:21:01Z</time>
      </trkpt>
      <trkpt lat="43.55052" lon="2.37">
        <ele>372.72671785627</ele>
        <time>2022-02-22T15:21:08Z</time>
      </trkpt>
      <trkpt lat="43.55051" lon="2.36988">
        <ele>372.68495248479</ele>
        <time>2022-02-22T15:21:15Z</time>
      </trkpt>
      <trkpt lat="43.55049" lon="2.36977">
        <ele>372.361561736</ele>
        <time>2022-02-22T15:21:23Z</time>
      </trkpt>
      <trkpt lat="43.55052" lon="2.36967">
        <ele>372.23589926889</ele>
        <time>2022-02-22T15:21:30Z</time>
      </trkpt>
      <trkpt lat="43.55054" lon="2.36955">
        <ele>372.59556785369</ele>
        <time>2022-02-22T15:21:38Z</time>
      </trkpt>
      <trkpt lat="43.55058" lon="2.36944">
        <ele>373.14690711505</ele>
        <time>2022-02-22T15:21:45Z</time>
      </trkpt>
      <trkpt lat="43.55063" lon="2.36935">
        <ele>374.0992392492</ele>
        <time>2022-02-22T15:21:51Z</time>
      </trkpt>
      <trkpt lat="43.55067" lon="2.36925">
        <ele>372.87853010865</ele>
        <time>2022-02-22T15:21:57Z</time>
      </trkpt>
      <trkpt lat="43.5507" lon="2.36913">
        <ele>370.639420826</ele>
        <time>2022-02-22T15:22:04Z</time>
      </trkpt>
      <trkpt lat="43.55075" lon="2.36903">
        <ele>370.37609665574</ele>
        <time>2022-02-22T15:22:10Z</time>
      </trkpt>
      <trkpt lat="43.55078" lon="2.36893">
        <ele>370.33039377257</ele>
        <time>2022-02-22T15:22:17Z</time>
      </trkpt>
      <trkpt lat="43.55082" lon="2.36883">
        <ele>370.48478678723</ele>
        <time>2022-02-22T15:22:24Z</time>
      </trkpt>
      <trkpt lat="43.55083" lon="2.36871">
        <ele>372.09490165648</ele>
        <time>2022-02-22T15:22:32Z</time>
      </trkpt>
      <trkpt lat="43.55086" lon="2.3686">
        <ele>373.80619454797</ele>
        <time>2022-02-22T15:22:39Z</time>
      </trkpt>
      <trkpt lat="43.55089" lon="2.36849">
        <ele>374.56155028899</ele>
        <time>2022-02-22T15:22:47Z</time>
      </trkpt>
      <trkpt lat="43.55094" lon="2.36839">
        <ele>372.08210002962</ele>
        <time>2022-02-22T15:23:00Z</time>
      </trkpt>
      <trkpt lat="43.55098" lon="2.36829">
        <ele>370.61377490837</ele>
        <time>2022-02-22T15:23:06Z</time>
      </trkpt>
      <trkpt lat="43.55101" lon="2.36818">
        <ele>369.63500422179</ele>
        <time>2022-02-22T15:23:12Z</time>
      </trkpt>
      <trkpt lat="43.55101" lon="2.36806">
        <ele>369.13325378145</ele>
        <time>2022-02-22T15:23:20Z</time>
      </trkpt>
      <trkpt lat="43.551" lon="2.36795">
        <ele>368.08028733915</ele>
        <time>2022-02-22T15:23:26Z</time>
      </trkpt>
      <trkpt lat="43.55098" lon="2.36784">
        <ele>366.43482250814</ele>
        <time>2022-02-22T15:23:32Z</time>
      </trkpt>
      <trkpt lat="43.55096" lon="2.36771">
        <ele>365.75925963226</ele>
        <time>2022-02-22T15:23:38Z</time>
      </trkpt>
      <trkpt lat="43.55095" lon="2.3676">
        <ele>364.77102522504</ele>
        <time>2022-02-22T15:23:47Z</time>
      </trkpt>
      <trkpt lat="43.55091" lon="2.3675">
        <ele>362.70422538587</ele>
        <time>2022-02-22T15:23:55Z</time>
      </trkpt>
      <trkpt lat="43.55088" lon="2.36739">
        <ele>360.77555989635</ele>
        <time>2022-02-22T15:24:01Z</time>
      </trkpt>
      <trkpt lat="43.55087" lon="2.36727">
        <ele>359.58330221637</ele>
        <time>2022-02-22T15:24:09Z</time>
      </trkpt>
      <trkpt lat="43.55085" lon="2.36716">
        <ele>359.24575863104</ele>
        <time>2022-02-22T15:24:16Z</time>
      </trkpt>
      <trkpt lat="43.55084" lon="2.36704">
        <ele>358.96878182592</ele>
        <time>2022-02-22T15:24:24Z</time>
      </trkpt>
      <trkpt lat="43.55083" lon="2.36692">
        <ele>359.23280812121</ele>
        <time>2022-02-22T15:24:32Z</time>
      </trkpt>
      <trkpt lat="43.55082" lon="2.3668">
        <ele>359.01341642158</ele>
        <time>2022-02-22T15:24:39Z</time>
      </trkpt>
      <trkpt lat="43.55081" lon="2.36668">
        <ele>358.94839085674</ele>
        <time>2022-02-22T15:24:45Z</time>
      </trkpt>
      <trkpt lat="43.5508" lon="2.36657">
        <ele>358.79719319124</ele>
        <time>2022-02-22T15:24:52Z</time>
      </trkpt>
      <trkpt lat="43.55077" lon="2.36645">
        <ele>357.47242147419</ele>
        <time>2022-02-22T15:24:59Z</time>
      </trkpt>
      <trkpt lat="43.55076" lon="2.36633">
        <ele>354.9755899968</ele>
        <time>2022-02-22T15:25:09Z</time>
      </trkpt>
      <trkpt lat="43.55073" lon="2.36622">
        <ele>354.17815584006</ele>
        <time>2022-02-22T15:25:17Z</time>
      </trkpt>
      <trkpt lat="43.55071" lon="2.36611">
        <ele>354.42304249086</ele>
        <time>2022-02-22T15:25:23Z</time>
      </trkpt>
      <trkpt lat="43.55067" lon="2.36601">
        <ele>354.19678015071</ele>
        <time>2022-02-22T15:25:29Z</time>
      </trkpt>
      <trkpt lat="43.55065" lon="2.3659">
        <ele>353.74958854273</ele>
        <time>2022-02-22T15:25:37Z</time>
      </trkpt>
      <trkpt lat="43.55062" lon="2.36579">
        <ele>353.52220829367</ele>
        <time>2022-02-22T15:25:43Z</time>
      </trkpt>
      <trkpt lat="43.55059" lon="2.36569">
        <ele>354.64491566248</ele>
        <time>2022-02-22T15:25:51Z</time>
      </trkpt>
      <trkpt lat="43.55055" lon="2.36558">
        <ele>356.13152032281</ele>
        <time>2022-02-22T15:26:00Z</time>
      </trkpt>
      <trkpt lat="43.55053" lon="2.36548">
        <ele>355.75223917708</ele>
        <time>2022-02-22T15:26:06Z</time>
      </trkpt>
      <trkpt lat="43.55051" lon="2.36537">
        <ele>355.53117695603</ele>
        <time>2022-02-22T15:26:12Z</time>
      </trkpt>
      <trkpt lat="43.55046" lon="2.36528">
        <ele>355.35229006819</ele>
        <time>2022-02-22T15:26:19Z</time>
      </trkpt>
      <trkpt lat="43.55041" lon="2.36518">
        <ele>355.45113572895</ele>
        <time>2022-02-22T15:26:27Z</time>
      </trkpt>
      <trkpt lat="43.55037" lon="2.36507">
        <ele>353.91822785308</ele>
        <time>2022-02-22T15:26:34Z</time>
      </trkpt>
      <trkpt lat="43.55032" lon="2.36498">
        <ele>352.94722251761</ele>
        <time>2022-02-22T15:26:40Z</time>
      </trkpt>
      <trkpt lat="43.55027" lon="2.36488">
        <ele>352.50021567482</ele>
        <time>2022-02-22T15:26:47Z</time>
      </trkpt>
      <trkpt lat="43.5502" lon="2.3648">
        <ele>351.79399087259</ele>
        <time>2022-02-22T15:26:55Z</time>
      </trkpt>
      <trkpt lat="43.55014" lon="2.36472">
        <ele>351.73789044408</ele>
        <time>2022-02-22T15:27:01Z</time>
      </trkpt>
      <trkpt lat="43.55008" lon="2.36464">
        <ele>351.47844279408</ele>
        <time>2022-02-22T15:27:08Z</time>
      </trkpt>
      <trkpt lat="43.55002" lon="2.36455">
        <ele>351.08802618763</ele>
        <time>2022-02-22T15:27:16Z</time>
      </trkpt>
      <trkpt lat="43.54999" lon="2.36446">
        <ele>351.22826181718</ele>
        <time>2022-02-22T15:27:23Z</time>
      </trkpt>
      <trkpt lat="43.54994" lon="2.36436">
        <ele>351.28621529455</ele>
        <time>2022-02-22T15:27:31Z</time>
      </trkpt>
      <trkpt lat="43.54989" lon="2.36427">
        <ele>351.73641181826</ele>
        <time>2022-02-22T15:27:38Z</time>
      </trkpt>
      <trkpt lat="43.54982" lon="2.3642">
        <ele>351.56770180082</ele>
        <time>2022-02-22T15:27:45Z</time>
      </trkpt>
      <trkpt lat="43.54977" lon="2.36412">
        <ele>352.41781622953</ele>
        <time>2022-02-22T15:27:52Z</time>
      </trkpt>
      <trkpt lat="43.54972" lon="2.36404">
        <ele>352.8737329065</ele>
        <time>2022-02-22T15:27:59Z</time>
      </trkpt>
      <trkpt lat="43.54967" lon="2.36394">
        <ele>354.11455817858</ele>
        <time>2022-02-22T15:28:05Z</time>
      </trkpt>
      <trkpt lat="43.54961" lon="2.36386">
        <ele>354.60472196583</ele>
        <time>2022-02-22T15:28:12Z</time>
      </trkpt>
      <trkpt lat="43.54954" lon="2.36379">
        <ele>354.66304361074</ele>
        <time>2022-02-22T15:28:22Z</time>
      </trkpt>
      <trkpt lat="43.54947" lon="2.36374">
        <ele>356.77090223538</ele>
        <time>2022-02-22T15:28:29Z</time>
      </trkpt>
      <trkpt lat="43.54941" lon="2.36366">
        <ele>358.38610378299</ele>
        <time>2022-02-22T15:28:37Z</time>
      </trkpt>
      <trkpt lat="43.54935" lon="2.36359">
        <ele>358.50101290394</ele>
        <time>2022-02-22T15:28:44Z</time>
      </trkpt>
      <trkpt lat="43.54928" lon="2.36353">
        <ele>358.79156018008</ele>
        <time>2022-02-22T15:28:51Z</time>
      </trkpt>
      <trkpt lat="43.5492" lon="2.36347">
        <ele>359.90576749164</ele>
        <time>2022-02-22T15:29:01Z</time>
      </trkpt>
      <trkpt lat="43.54913" lon="2.36341">
        <ele>360.85322476447</ele>
        <time>2022-02-22T15:29:09Z</time>
      </trkpt>
      <trkpt lat="43.54906" lon="2.36334">
        <ele>361.164812803</ele>
        <time>2022-02-22T15:29:15Z</time>
      </trkpt>
      <trkpt lat="43.54899" lon="2.36328">
        <ele>359.45856381177</ele>
        <time>2022-02-22T15:29:22Z</time>
      </trkpt>
      <trkpt lat="43.54892" lon="2.36322">
        <ele>356.56894287522</ele>
        <time>2022-02-22T15:29:31Z</time>
      </trkpt>
      <trkpt lat="43.54885" lon="2.36316">
        <ele>356.29593889277</ele>
        <time>2022-02-22T15:29:38Z</time>
      </trkpt>
      <trkpt lat="43.54878" lon="2.3631">
        <ele>356.94849927608</ele>
        <time>2022-02-22T15:29:44Z</time>
      </trkpt>
      <trkpt lat="43.5487" lon="2.36305">
        <ele>358.2333589726</ele>
        <time>2022-02-22T15:29:52Z</time>
      </trkpt>
      <trkpt lat="43.54863" lon="2.363">
        <ele>360.13217760203</ele>
        <time>2022-02-22T15:29:59Z</time>
      </trkpt>
      <trkpt lat="43.54857" lon="2.36294">
        <ele>360.99130729717</ele>
        <time>2022-02-22T15:30:06Z</time>
      </trkpt>
      <trkpt lat="43.54849" lon="2.36288">
        <ele>361.05065535643</ele>
        <time>2022-02-22T15:30:13Z</time>
      </trkpt>
      <trkpt lat="43.54842" lon="2.36282">
        <ele>362.47321667097</ele>
        <time>2022-02-22T15:30:21Z</time>
      </trkpt>
      <trkpt lat="43.54836" lon="2.36274">
        <ele>363.11323912722</ele>
        <time>2022-02-22T15:30:30Z</time>
      </trkpt>
      <trkpt lat="43.5483" lon="2.36266">
        <ele>361.44193367684</ele>
        <time>2022-02-22T15:30:38Z</time>
      </trkpt>
      <trkpt lat="43.54824" lon="2.36257">
        <ele>360.63270315812</ele>
        <time>2022-02-22T15:30:46Z</time>
      </trkpt>
      <trkpt lat="43.5482" lon="2.36247">
        <ele>361.44995626545</ele>
        <time>2022-02-22T15:30:53Z</time>
      </trkpt>
      <trkpt lat="43.54818" lon="2.36236">
        <ele>362.35768971723</ele>
        <time>2022-02-22T15:31:01Z</time>
      </trkpt>
      <trkpt lat="43.54816" lon="2.36224">
        <ele>362.33878294386</ele>
        <time>2022-02-22T15:31:10Z</time>
      </trkpt>
      <trkpt lat="43.54814" lon="2.36214">
        <ele>363.03172446146</ele>
        <time>2022-02-22T15:31:15Z</time>
      </trkpt>
      <trkpt lat="43.54811" lon="2.36202">
        <ele>362.89237191154</ele>
        <time>2022-02-22T15:31:22Z</time>
      </trkpt>
      <trkpt lat="43.54809" lon="2.36191">
        <ele>363.42167330422</ele>
        <time>2022-02-22T15:31:31Z</time>
      </trkpt>
      <trkpt lat="43.54812" lon="2.36179">
        <ele>363.04722231107</ele>
        <time>2022-02-22T15:31:39Z</time>
      </trkpt>
      <trkpt lat="43.54813" lon="2.36169">
        <ele>362.5626020115</ele>
        <time>2022-02-22T15:31:45Z</time>
      </trkpt>
      <trkpt lat="43.54814" lon="2.36157">
        <ele>362.40474761808</ele>
        <time>2022-02-22T15:31:51Z</time>
      </trkpt>
      <trkpt lat="43.54814" lon="2.36146">
        <ele>361.14883600328</ele>
        <time>2022-02-22T15:31:59Z</time>
      </trkpt>
      <trkpt lat="43.54811" lon="2.36136">
        <ele>360.43590344437</ele>
        <time>2022-02-22T15:32:05Z</time>
      </trkpt>
      <trkpt lat="43.5481" lon="2.36125">
        <ele>360.64234164845</ele>
        <time>2022-02-22T15:32:13Z</time>
      </trkpt>
      <trkpt lat="43.54808" lon="2.36114">
        <ele>359.02033580652</ele>
        <time>2022-02-22T15:32:19Z</time>
      </trkpt>
      <trkpt lat="43.54806" lon="2.36103">
        <ele>357.76807153471</ele>
        <time>2022-02-22T15:32:25Z</time>
      </trkpt>
      <trkpt lat="43.54807" lon="2.36091">
        <ele>357.22311996965</ele>
        <time>2022-02-22T15:32:33Z</time>
      </trkpt>
      <trkpt lat="43.54806" lon="2.36079">
        <ele>358.04401109998</ele>
        <time>2022-02-22T15:32:41Z</time>
      </trkpt>
      <trkpt lat="43.54802" lon="2.36068">
        <ele>360.26452151745</ele>
        <time>2022-02-22T15:32:51Z</time>
      </trkpt>
      <trkpt lat="43.54798" lon="2.36058">
        <ele>359.55621692437</ele>
        <time>2022-02-22T15:32:57Z</time>
      </trkpt>
      <trkpt lat="43.54793" lon="2.36051">
        <ele>358.67409182141</ele>
        <time>2022-02-22T15:33:05Z</time>
      </trkpt>
      <trkpt lat="43.54786" lon="2.36044">
        <ele>357.88956937251</ele>
        <time>2022-02-22T15:33:12Z</time>
      </trkpt>
      <trkpt lat="43.5478" lon="2.36036">
        <ele>356.92407908471</ele>
        <time>2022-02-22T15:33:18Z</time>
      </trkpt>
      <trkpt lat="43.54773" lon="2.36029">
        <ele>354.25842297048</ele>
        <time>2022-02-22T15:33:25Z</time>
      </trkpt>
      <trkpt lat="43.54766" lon="2.36023">
        <ele>352.78231677745</ele>
        <time>2022-02-22T15:33:31Z</time>
      </trkpt>
      <trkpt lat="43.54759" lon="2.36016">
        <ele>350.12751630947</ele>
        <time>2022-02-22T15:33:39Z</time>
      </trkpt>
      <trkpt lat="43.54753" lon="2.36007">
        <ele>348.1610911629</ele>
        <time>2022-02-22T15:33:47Z</time>
      </trkpt>
      <trkpt lat="43.54746" lon="2.36001">
        <ele>347.26135177691</ele>
        <time>2022-02-22T15:33:55Z</time>
      </trkpt>
      <trkpt lat="43.5474" lon="2.35992">
        <ele>346.02709428116</ele>
        <time>2022-02-22T15:34:03Z</time>
      </trkpt>
      <trkpt lat="43.54734" lon="2.35984">
        <ele>344.64298403279</ele>
        <time>2022-02-22T15:34:11Z</time>
      </trkpt>
      <trkpt lat="43.54727" lon="2.35978">
        <ele>344.52878001068</ele>
        <time>2022-02-22T15:34:19Z</time>
      </trkpt>
      <trkpt lat="43.5472" lon="2.35971">
        <ele>344.34109823481</ele>
        <time>2022-02-22T15:34:26Z</time>
      </trkpt>
      <trkpt lat="43.54712" lon="2.35964">
        <ele>344.67821284123</ele>
        <time>2022-02-22T15:34:33Z</time>
      </trkpt>
      <trkpt lat="43.54706" lon="2.35956">
        <ele>343.83555416161</ele>
        <time>2022-02-22T15:34:41Z</time>
      </trkpt>
      <trkpt lat="43.547" lon="2.3595">
        <ele>343.85132525947</ele>
        <time>2022-02-22T15:34:48Z</time>
      </trkpt>
      <trkpt lat="43.54693" lon="2.35942">
        <ele>344.65048292861</ele>
        <time>2022-02-22T15:34:56Z</time>
      </trkpt>
      <trkpt lat="43.54686" lon="2.35934">
        <ele>346.70252183985</ele>
        <time>2022-02-22T15:35:06Z</time>
      </trkpt>
      <trkpt lat="43.5468" lon="2.35927">
        <ele>347.06468338159</ele>
        <time>2022-02-22T15:35:14Z</time>
      </trkpt>
      <trkpt lat="43.54673" lon="2.3592">
        <ele>347.34527181155</ele>
        <time>2022-02-22T15:35:22Z</time>
      </trkpt>
      <trkpt lat="43.54666" lon="2.35913">
        <ele>347.72808375681</ele>
        <time>2022-02-22T15:35:29Z</time>
      </trkpt>
      <trkpt lat="43.5466" lon="2.35906">
        <ele>347.60396724912</ele>
        <time>2022-02-22T15:35:35Z</time>
      </trkpt>
      <trkpt lat="43.54653" lon="2.359">
        <ele>348.6129483841</ele>
        <time>2022-02-22T15:35:42Z</time>
      </trkpt>
      <trkpt lat="43.54646" lon="2.35892">
        <ele>347.48020510791</ele>
        <time>2022-02-22T15:35:49Z</time>
      </trkpt>
      <trkpt lat="43.5464" lon="2.35883">
        <ele>346.36896798466</ele>
        <time>2022-02-22T15:35:56Z</time>
      </trkpt>
      <trkpt lat="43.54634" lon="2.35876">
        <ele>347.68276208339</ele>
        <time>2022-02-22T15:36:04Z</time>
      </trkpt>
      <trkpt lat="43.54628" lon="2.35867">
        <ele>348.48402157713</ele>
        <time>2022-02-22T15:36:13Z</time>
      </trkpt>
      <trkpt lat="43.54624" lon="2.35858">
        <ele>345.78454231127</ele>
        <time>2022-02-22T15:36:19Z</time>
      </trkpt>
      <trkpt lat="43.54619" lon="2.35848">
        <ele>343.88530628795</ele>
        <time>2022-02-22T15:36:26Z</time>
      </trkpt>
      <trkpt lat="43.54612" lon="2.35842">
        <ele>343.18709932278</ele>
        <time>2022-02-22T15:36:33Z</time>
      </trkpt>
      <trkpt lat="43.54608" lon="2.35832">
        <ele>344.85218587926</ele>
        <time>2022-02-22T15:36:41Z</time>
      </trkpt>
      <trkpt lat="43.54602" lon="2.35824">
        <ele>345.15938080864</ele>
        <time>2022-02-22T15:36:49Z</time>
      </trkpt>
      <trkpt lat="43.54596" lon="2.35832">
        <ele>346.24132401365</ele>
        <time>2022-02-22T15:36:56Z</time>
      </trkpt>
      <trkpt lat="43.54592" lon="2.35842">
        <ele>346.44392607834</ele>
        <time>2022-02-22T15:37:03Z</time>
      </trkpt>
      <trkpt lat="43.54585" lon="2.3585">
        <ele>346.52119434898</ele>
        <time>2022-02-22T15:37:11Z</time>
      </trkpt>
      <trkpt lat="43.54579" lon="2.35858">
        <ele>346.34654169056</ele>
        <time>2022-02-22T15:39:06Z</time>
      </trkpt>
      <trkpt lat="43.54571" lon="2.35864">
        <ele>344.7907471841</ele>
        <time>2022-02-22T15:39:16Z</time>
      </trkpt>
      <trkpt lat="43.54564" lon="2.3587">
        <ele>344.32618295055</ele>
        <time>2022-02-22T15:39:23Z</time>
      </trkpt>
      <trkpt lat="43.54557" lon="2.35877">
        <ele>343.64283715338</ele>
        <time>2022-02-22T15:39:30Z</time>
      </trkpt>
      <trkpt lat="43.5455" lon="2.35882">
        <ele>344.96410643341</ele>
        <time>2022-02-22T15:39:38Z</time>
      </trkpt>
      <trkpt lat="43.54542" lon="2.35886">
        <ele>344.99729164061</ele>
        <time>2022-02-22T15:39:46Z</time>
      </trkpt>
      <trkpt lat="43.54534" lon="2.35892">
        <ele>344.56977609576</ele>
        <time>2022-02-22T15:39:54Z</time>
      </trkpt>
      <trkpt lat="43.54527" lon="2.35896">
        <ele>344.71692888911</ele>
        <time>2022-02-22T15:40:00Z</time>
      </trkpt>
      <trkpt lat="43.5452" lon="2.359">
        <ele>345.2150408609</ele>
        <time>2022-02-22T15:40:06Z</time>
      </trkpt>
      <trkpt lat="43.54512" lon="2.35903">
        <ele>344.77397723413</ele>
        <time>2022-02-22T15:40:14Z</time>
      </trkpt>
      <trkpt lat="43.54504" lon="2.35907">
        <ele>342.80494088971</ele>
        <time>2022-02-22T15:40:22Z</time>
      </trkpt>
      <trkpt lat="43.54495" lon="2.35911">
        <ele>343.03251987643</ele>
        <time>2022-02-22T15:40:32Z</time>
      </trkpt>
      <trkpt lat="43.54487" lon="2.35913">
        <ele>341.71533025011</ele>
        <time>2022-02-22T15:40:38Z</time>
      </trkpt>
      <trkpt lat="43.54478" lon="2.35914">
        <ele>340.12754735117</ele>
        <time>2022-02-22T15:40:47Z</time>
      </trkpt>
      <trkpt lat="43.5447" lon="2.35916">
        <ele>341.03747510184</ele>
        <time>2022-02-22T15:40:55Z</time>
      </trkpt>
      <trkpt lat="43.54461" lon="2.35915">
        <ele>343.02830815982</ele>
        <time>2022-02-22T15:41:03Z</time>
      </trkpt>
      <trkpt lat="43.54453" lon="2.35916">
        <ele>344.67004842226</ele>
        <time>2022-02-22T15:41:10Z</time>
      </trkpt>
      <trkpt lat="43.54445" lon="2.35919">
        <ele>346.28821058186</ele>
        <time>2022-02-22T15:41:16Z</time>
      </trkpt>
      <trkpt lat="43.54437" lon="2.35918">
        <ele>345.53699705129</ele>
        <time>2022-02-22T15:41:24Z</time>
      </trkpt>
      <trkpt lat="43.54429" lon="2.35917">
        <ele>345.53067930368</ele>
        <time>2022-02-22T15:41:31Z</time>
      </trkpt>
      <trkpt lat="43.54421" lon="2.35922">
        <ele>345.66454163833</ele>
        <time>2022-02-22T15:41:39Z</time>
      </trkpt>
      <trkpt lat="43.54413" lon="2.35927">
        <ele>346.80779049694</ele>
        <time>2022-02-22T15:41:46Z</time>
      </trkpt>
      <trkpt lat="43.54406" lon="2.35933">
        <ele>348.50875073734</ele>
        <time>2022-02-22T15:41:54Z</time>
      </trkpt>
      <trkpt lat="43.544" lon="2.3594">
        <ele>349.71490838972</ele>
        <time>2022-02-22T15:42:00Z</time>
      </trkpt>
      <trkpt lat="43.54395" lon="2.35949">
        <ele>350.23046635662</ele>
        <time>2022-02-22T15:42:05Z</time>
      </trkpt>
      <trkpt lat="43.54388" lon="2.35957">
        <ele>350.85655744597</ele>
        <time>2022-02-22T15:42:16Z</time>
      </trkpt>
      <trkpt lat="43.54381" lon="2.35964">
        <ele>352.01072942931</ele>
        <time>2022-02-22T15:42:24Z</time>
      </trkpt>
      <trkpt lat="43.54373" lon="2.3597">
        <ele>352.6381583901</ele>
        <time>2022-02-22T15:42:32Z</time>
      </trkpt>
      <trkpt lat="43.54366" lon="2.35972">
        <ele>354.54038071368</ele>
        <time>2022-02-22T15:42:43Z</time>
      </trkpt>
      <trkpt lat="43.54359" lon="2.35976">
        <ele>355.82179268058</ele>
        <time>2022-02-22T15:42:48Z</time>
      </trkpt>
      <trkpt lat="43.5435" lon="2.35982">
        <ele>356.79035254973</ele>
        <time>2022-02-22T15:42:54Z</time>
      </trkpt>
      <trkpt lat="43.54343" lon="2.35981">
        <ele>356.22756096604</ele>
        <time>2022-02-22T15:43:10Z</time>
      </trkpt>
      <trkpt lat="43.54332" lon="2.35979">
        <ele>353.98746327698</ele>
        <time>2022-02-22T15:43:15Z</time>
      </trkpt>
      <trkpt lat="43.54325" lon="2.35976">
        <ele>351.26571642461</ele>
        <time>2022-02-22T15:43:19Z</time>
      </trkpt>
      <trkpt lat="43.54317" lon="2.35971">
        <ele>349.08453506755</ele>
        <time>2022-02-22T15:43:31Z</time>
      </trkpt>
      <trkpt lat="43.54309" lon="2.3597">
        <ele>348.87792193836</ele>
        <time>2022-02-22T15:43:36Z</time>
      </trkpt>
      <trkpt lat="43.54302" lon="2.35968">
        <ele>348.50974815075</ele>
        <time>2022-02-22T15:43:48Z</time>
      </trkpt>
      <trkpt lat="43.54291" lon="2.35964">
        <ele>348.74338147689</ele>
        <time>2022-02-22T15:43:53Z</time>
      </trkpt>
      <trkpt lat="43.54283" lon="2.35964">
        <ele>348.97063886628</ele>
        <time>2022-02-22T15:43:57Z</time>
      </trkpt>
      <trkpt lat="43.54275" lon="2.3596">
        <ele>349.62611275229</ele>
        <time>2022-02-22T15:44:02Z</time>
      </trkpt>
      <trkpt lat="43.54267" lon="2.35955">
        <ele>349.03486593228</ele>
        <time>2022-02-22T15:44:14Z</time>
      </trkpt>
      <trkpt lat="43.54259" lon="2.35951">
        <ele>348.80799332615</ele>
        <time>2022-02-22T15:44:26Z</time>
      </trkpt>
      <trkpt lat="43.54251" lon="2.35951">
        <ele>348.27235645917</ele>
        <time>2022-02-22T15:44:32Z</time>
      </trkpt>
      <trkpt lat="43.54243" lon="2.35948">
        <ele>349.26719194146</ele>
        <time>2022-02-22T15:44:39Z</time>
      </trkpt>
      <trkpt lat="43.54235" lon="2.35946">
        <ele>351.72798593968</ele>
        <time>2022-02-22T15:44:47Z</time>
      </trkpt>
      <trkpt lat="43.54228" lon="2.35942">
        <ele>351.7285657621</ele>
        <time>2022-02-22T15:44:52Z</time>
      </trkpt>
      <trkpt lat="43.54221" lon="2.35938">
        <ele>351.9038491964</ele>
        <time>2022-02-22T15:44:57Z</time>
      </trkpt>
      <trkpt lat="43.54212" lon="2.35937">
        <ele>349.59210516318</ele>
        <time>2022-02-22T15:45:07Z</time>
      </trkpt>
      <trkpt lat="43.54203" lon="2.35935">
        <ele>347.61690300338</ele>
        <time>2022-02-22T15:45:15Z</time>
      </trkpt>
      <trkpt lat="43.54196" lon="2.35935">
        <ele>346.01868219279</ele>
        <time>2022-02-22T15:45:22Z</time>
      </trkpt>
      <trkpt lat="43.54188" lon="2.35933">
        <ele>344.61690194384</ele>
        <time>2022-02-22T15:45:30Z</time>
      </trkpt>
      <trkpt lat="43.54179" lon="2.35932">
        <ele>342.87394259877</ele>
        <time>2022-02-22T15:45:41Z</time>
      </trkpt>
      <trkpt lat="43.54171" lon="2.35929">
        <ele>342.35488656993</ele>
        <time>2022-02-22T15:45:50Z</time>
      </trkpt>
      <trkpt lat="43.54163" lon="2.3593">
        <ele>342.78297432064</ele>
        <time>2022-02-22T15:45:57Z</time>
      </trkpt>
      <trkpt lat="43.54154" lon="2.3593">
        <ele>344.28185852549</ele>
        <time>2022-02-22T15:46:04Z</time>
      </trkpt>
      <trkpt lat="43.54146" lon="2.35935">
        <ele>343.86558791123</ele>
        <time>2022-02-22T15:46:11Z</time>
      </trkpt>
      <trkpt lat="43.54138" lon="2.35934">
        <ele>341.23393262978</ele>
        <time>2022-02-22T15:46:18Z</time>
      </trkpt>
      <trkpt lat="43.5413" lon="2.35937">
        <ele>337.475252732</ele>
        <time>2022-02-22T15:46:26Z</time>
      </trkpt>
      <trkpt lat="43.54122" lon="2.35937">
        <ele>336.05171046057</ele>
        <time>2022-02-22T15:46:34Z</time>
      </trkpt>
      <trkpt lat="43.54113" lon="2.35936">
        <ele>333.76787854708</ele>
        <time>2022-02-22T15:46:44Z</time>
      </trkpt>
      <trkpt lat="43.54105" lon="2.35936">
        <ele>331.54351678406</ele>
        <time>2022-02-22T15:46:52Z</time>
      </trkpt>
      <trkpt lat="43.54096" lon="2.35937">
        <ele>331.21027042978</ele>
        <time>2022-02-22T15:46:59Z</time>
      </trkpt>
      <trkpt lat="43.54088" lon="2.35936">
        <ele>331.68717135627</ele>
        <time>2022-02-22T15:47:06Z</time>
      </trkpt>
      <trkpt lat="43.54079" lon="2.35934">
        <ele>331.79906612136</ele>
        <time>2022-02-22T15:47:17Z</time>
      </trkpt>
      <trkpt lat="43.54071" lon="2.35934">
        <ele>332.19189137486</ele>
        <time>2022-02-22T15:47:25Z</time>
      </trkpt>
      <trkpt lat="43.54062" lon="2.35933">
        <ele>332.91243068021</ele>
        <time>2022-02-22T15:47:35Z</time>
      </trkpt>
      <trkpt lat="43.54055" lon="2.35928">
        <ele>332.9722392303</ele>
        <time>2022-02-22T15:47:43Z</time>
      </trkpt>
      <trkpt lat="43.54047" lon="2.35926">
        <ele>333.82479385359</ele>
        <time>2022-02-22T15:47:53Z</time>
      </trkpt>
      <trkpt lat="43.54038" lon="2.35924">
        <ele>335.30497344671</ele>
        <time>2022-02-22T15:48:01Z</time>
      </trkpt>
      <trkpt lat="43.5403" lon="2.35922">
        <ele>336.39488952123</ele>
        <time>2022-02-22T15:48:09Z</time>
      </trkpt>
      <trkpt lat="43.54022" lon="2.35919">
        <ele>337.3416196208</ele>
        <time>2022-02-22T15:48:17Z</time>
      </trkpt>
      <trkpt lat="43.54014" lon="2.35917">
        <ele>336.32533214665</ele>
        <time>2022-02-22T15:48:23Z</time>
      </trkpt>
      <trkpt lat="43.54006" lon="2.35917">
        <ele>334.81965237134</ele>
        <time>2022-02-22T15:48:31Z</time>
      </trkpt>
      <trkpt lat="43.53997" lon="2.35917">
        <ele>335.43508609426</ele>
        <time>2022-02-22T15:48:39Z</time>
      </trkpt>
      <trkpt lat="43.53989" lon="2.35911">
        <ele>333.07094854443</ele>
        <time>2022-02-22T15:49:20Z</time>
      </trkpt>
      <trkpt lat="43.53992" lon="2.359">
        <ele>330.76701170291</ele>
        <time>2022-02-22T15:53:28Z</time>
      </trkpt>
      <trkpt lat="43.53998" lon="2.35892">
        <ele>328.24870619197</ele>
        <time>2022-02-22T15:53:36Z</time>
      </trkpt>
      <trkpt lat="43.54005" lon="2.35886">
        <ele>327.10171668651</ele>
        <time>2022-02-22T15:53:43Z</time>
      </trkpt>
      <trkpt lat="43.54012" lon="2.35879">
        <ele>327.79548685055</ele>
        <time>2022-02-22T15:53:51Z</time>
      </trkpt>
      <trkpt lat="43.54016" lon="2.35869">
        <ele>329.39590882403</ele>
        <time>2022-02-22T15:53:57Z</time>
      </trkpt>
      <trkpt lat="43.54022" lon="2.35862">
        <ele>330.12628786272</ele>
        <time>2022-02-22T15:54:03Z</time>
      </trkpt>
      <trkpt lat="43.54028" lon="2.35854">
        <ele>329.36226679404</ele>
        <time>2022-02-22T15:54:09Z</time>
      </trkpt>
      <trkpt lat="43.54035" lon="2.35848">
        <ele>328.08060963103</ele>
        <time>2022-02-22T15:54:17Z</time>
      </trkpt>
      <trkpt lat="43.54043" lon="2.35842">
        <ele>328.18751147395</ele>
        <time>2022-02-22T15:54:24Z</time>
      </trkpt>
      <trkpt lat="43.54049" lon="2.35833">
        <ele>328.56036384045</ele>
        <time>2022-02-22T15:54:33Z</time>
      </trkpt>
      <trkpt lat="43.54056" lon="2.35827">
        <ele>328.02651458508</ele>
        <time>2022-02-22T15:54:40Z</time>
      </trkpt>
      <trkpt lat="43.54063" lon="2.3582">
        <ele>327.51989604422</ele>
        <time>2022-02-22T15:54:47Z</time>
      </trkpt>
      <trkpt lat="43.54068" lon="2.35812">
        <ele>327.9928088538</ele>
        <time>2022-02-22T15:54:54Z</time>
      </trkpt>
      <trkpt lat="43.54076" lon="2.35806">
        <ele>328.67719584915</ele>
        <time>2022-02-22T15:55:02Z</time>
      </trkpt>
      <trkpt lat="43.54082" lon="2.35797">
        <ele>329.09032523958</ele>
        <time>2022-02-22T15:55:12Z</time>
      </trkpt>
      <trkpt lat="43.54088" lon="2.35788">
        <ele>325.82536063813</ele>
        <time>2022-02-22T15:55:19Z</time>
      </trkpt>
      <trkpt lat="43.54093" lon="2.35782">
        <ele>324.98342131349</ele>
        <time>2022-02-22T15:55:24Z</time>
      </trkpt>
      <trkpt lat="43.54099" lon="2.35773">
        <ele>323.93740658806</ele>
        <time>2022-02-22T15:55:30Z</time>
      </trkpt>
      <trkpt lat="43.54106" lon="2.35765">
        <ele>320.48604730554</ele>
        <time>2022-02-22T15:55:41Z</time>
      </trkpt>
      <trkpt lat="43.54114" lon="2.3576">
        <ele>321.47921835393</ele>
        <time>2022-02-22T15:55:52Z</time>
      </trkpt>
      <trkpt lat="43.54121" lon="2.35753">
        <ele>322.6228984705</ele>
        <time>2022-02-22T15:55:59Z</time>
      </trkpt>
      <trkpt lat="43.54127" lon="2.35747">
        <ele>321.92335563858</ele>
        <time>2022-02-22T15:56:06Z</time>
      </trkpt>
      <trkpt lat="43.54134" lon="2.3574">
        <ele>322.08412365683</ele>
        <time>2022-02-22T15:56:14Z</time>
      </trkpt>
      <trkpt lat="43.54141" lon="2.35735">
        <ele>322.68094573883</ele>
        <time>2022-02-22T15:56:28Z</time>
      </trkpt>
      <trkpt lat="43.54148" lon="2.35731">
        <ele>323.76032627511</ele>
        <time>2022-02-22T15:56:37Z</time>
      </trkpt>
      <trkpt lat="43.54156" lon="2.35724">
        <ele>322.86721522997</ele>
        <time>2022-02-22T15:56:42Z</time>
      </trkpt>
      <trkpt lat="43.5416" lon="2.35715">
        <ele>321.94011114313</ele>
        <time>2022-02-22T15:56:52Z</time>
      </trkpt>
      <trkpt lat="43.54163" lon="2.35704">
        <ele>323.60623093068</ele>
        <time>2022-02-22T15:56:58Z</time>
      </trkpt>
      <trkpt lat="43.54163" lon="2.35693">
        <ele>325.1405791341</ele>
        <time>2022-02-22T15:57:09Z</time>
      </trkpt>
      <trkpt lat="43.54163" lon="2.35681">
        <ele>324.40303802123</ele>
        <time>2022-02-22T15:57:14Z</time>
      </trkpt>
      <trkpt lat="43.54167" lon="2.3567">
        <ele>323.05319021446</ele>
        <time>2022-02-22T15:57:20Z</time>
      </trkpt>
      <trkpt lat="43.5417" lon="2.3566">
        <ele>320.03457584354</ele>
        <time>2022-02-22T15:57:27Z</time>
      </trkpt>
      <trkpt lat="43.54174" lon="2.3565">
        <ele>319.63226921229</ele>
        <time>2022-02-22T15:57:34Z</time>
      </trkpt>
      <trkpt lat="43.5418" lon="2.35641">
        <ele>320.96451429489</ele>
        <time>2022-02-22T15:57:42Z</time>
      </trkpt>
      <trkpt lat="43.54184" lon="2.35631">
        <ele>321.89951557525</ele>
        <time>2022-02-22T15:57:56Z</time>
      </trkpt>
      <trkpt lat="43.54189" lon="2.35621">
        <ele>320.76848132978</ele>
        <time>2022-02-22T15:58:07Z</time>
      </trkpt>
      <trkpt lat="43.54196" lon="2.35614">
        <ele>321.69320966749</ele>
        <time>2022-02-22T15:58:17Z</time>
      </trkpt>
      <trkpt lat="43.54203" lon="2.35607">
        <ele>323.55803384972</ele>
        <time>2022-02-22T15:58:26Z</time>
      </trkpt>
      <trkpt lat="43.54208" lon="2.35597">
        <ele>321.64428466515</ele>
        <time>2022-02-22T15:58:35Z</time>
      </trkpt>
      <trkpt lat="43.54214" lon="2.3559">
        <ele>321.33321740065</ele>
        <time>2022-02-22T15:58:43Z</time>
      </trkpt>
      <trkpt lat="43.5422" lon="2.3558">
        <ele>320.60793472251</ele>
        <time>2022-02-22T15:58:52Z</time>
      </trkpt>
      <trkpt lat="43.54224" lon="2.3557">
        <ele>320.25139627147</ele>
        <time>2022-02-22T15:58:59Z</time>
      </trkpt>
      <trkpt lat="43.54229" lon="2.35561">
        <ele>320.69439031572</ele>
        <time>2022-02-22T15:59:10Z</time>
      </trkpt>
      <trkpt lat="43.54237" lon="2.35554">
        <ele>322.67357912376</ele>
        <time>2022-02-22T15:59:20Z</time>
      </trkpt>
      <trkpt lat="43.54245" lon="2.35549">
        <ele>322.71233587115</ele>
        <time>2022-02-22T16:00:04Z</time>
      </trkpt>
      <trkpt lat="43.54253" lon="2.35546">
        <ele>320.97843423913</ele>
        <time>2022-02-22T16:00:12Z</time>
      </trkpt>
      <trkpt lat="43.54258" lon="2.35536">
        <ele>322.87911582511</ele>
        <time>2022-02-22T16:00:20Z</time>
      </trkpt>
      <trkpt lat="43.54265" lon="2.35529">
        <ele>321.68292990295</ele>
        <time>2022-02-22T16:00:30Z</time>
      </trkpt>
      <trkpt lat="43.54272" lon="2.35524">
        <ele>321.55381274617</ele>
        <time>2022-02-22T16:00:40Z</time>
      </trkpt>
      <trkpt lat="43.5428" lon="2.3552">
        <ele>323.45104062307</ele>
        <time>2022-02-22T16:00:51Z</time>
      </trkpt>
      <trkpt lat="43.54287" lon="2.35512">
        <ele>326.18855236616</ele>
        <time>2022-02-22T16:00:58Z</time>
      </trkpt>
      <trkpt lat="43.54295" lon="2.35507">
        <ele>325.88320796048</ele>
        <time>2022-02-22T16:01:09Z</time>
      </trkpt>
      <trkpt lat="43.54303" lon="2.35508">
        <ele>325.3276644242</ele>
        <time>2022-02-22T16:01:18Z</time>
      </trkpt>
      <trkpt lat="43.54312" lon="2.35506">
        <ele>324.87260056543</ele>
        <time>2022-02-22T16:01:32Z</time>
      </trkpt>
      <trkpt lat="43.54319" lon="2.355">
        <ele>325.72162485323</ele>
        <time>2022-02-22T16:01:39Z</time>
      </trkpt>
      <trkpt lat="43.54326" lon="2.35494">
        <ele>326.97204090099</ele>
        <time>2022-02-22T16:01:50Z</time>
      </trkpt>
      <trkpt lat="43.54333" lon="2.35489">
        <ele>329.36815211224</ele>
        <time>2022-02-22T16:02:02Z</time>
      </trkpt>
      <trkpt lat="43.54343" lon="2.35483">
        <ele>330.98593224419</ele>
        <time>2022-02-22T16:02:07Z</time>
      </trkpt>
      <trkpt lat="43.54351" lon="2.35476">
        <ele>332.33332484855</ele>
        <time>2022-02-22T16:02:38Z</time>
      </trkpt>
      <trkpt lat="43.54354" lon="2.35461">
        <ele>333.22273781038</ele>
        <time>2022-02-22T16:02:42Z</time>
      </trkpt>
      <trkpt lat="43.54357" lon="2.35451">
        <ele>332.98458334894</ele>
        <time>2022-02-22T16:02:49Z</time>
      </trkpt>
      <trkpt lat="43.54364" lon="2.35442">
        <ele>330.40076149753</ele>
        <time>2022-02-22T16:03:12Z</time>
      </trkpt>
      <trkpt lat="43.54368" lon="2.35433">
        <ele>330.1678276115</ele>
        <time>2022-02-22T16:03:29Z</time>
      </trkpt>
      <trkpt lat="43.5437" lon="2.35421">
        <ele>329.87429502673</ele>
        <time>2022-02-22T16:03:34Z</time>
      </trkpt>
      <trkpt lat="43.5437" lon="2.35409">
        <ele>328.67703924411</ele>
        <time>2022-02-22T16:03:45Z</time>
      </trkpt>
      <trkpt lat="43.5437" lon="2.35397">
        <ele>326.59260152287</ele>
        <time>2022-02-22T16:03:53Z</time>
      </trkpt>
      <trkpt lat="43.54374" lon="2.35387">
        <ele>324.96059824585</ele>
        <time>2022-02-22T16:04:00Z</time>
      </trkpt>
      <trkpt lat="43.54375" lon="2.35376">
        <ele>325.10261230684</ele>
        <time>2022-02-22T16:04:14Z</time>
      </trkpt>
      <trkpt lat="43.54378" lon="2.35365">
        <ele>324.50395069316</ele>
        <time>2022-02-22T16:04:22Z</time>
      </trkpt>
      <trkpt lat="43.54379" lon="2.35353">
        <ele>324.00243117192</ele>
        <time>2022-02-22T16:04:31Z</time>
      </trkpt>
      <trkpt lat="43.54382" lon="2.35343">
        <ele>323.45003984139</ele>
        <time>2022-02-22T16:04:40Z</time>
      </trkpt>
      <trkpt lat="43.54387" lon="2.35333">
        <ele>323.31482918834</ele>
        <time>2022-02-22T16:04:51Z</time>
      </trkpt>
      <trkpt lat="43.54391" lon="2.35324">
        <ele>324.96111069922</ele>
        <time>2022-02-22T16:04:55Z</time>
      </trkpt>
      <trkpt lat="43.54395" lon="2.35313">
        <ele>328.20261469972</ele>
        <time>2022-02-22T16:05:07Z</time>
      </trkpt>
      <trkpt lat="43.54401" lon="2.35305">
        <ele>330.40174191864</ele>
        <time>2022-02-22T16:05:14Z</time>
      </trkpt>
      <trkpt lat="43.54407" lon="2.35297">
        <ele>330.45154306271</ele>
        <time>2022-02-22T16:05:54Z</time>
      </trkpt>
      <trkpt lat="43.54411" lon="2.35287">
        <ele>334.41126710593</ele>
        <time>2022-02-22T16:06:06Z</time>
      </trkpt>
      <trkpt lat="43.54417" lon="2.3528">
        <ele>335.9813173363</ele>
        <time>2022-02-22T16:06:13Z</time>
      </trkpt>
      <trkpt lat="43.54421" lon="2.35271">
        <ele>335.06198817423</ele>
        <time>2022-02-22T16:06:18Z</time>
      </trkpt>
      <trkpt lat="43.54426" lon="2.35261">
        <ele>334.6667362115</ele>
        <time>2022-02-22T16:06:24Z</time>
      </trkpt>
      <trkpt lat="43.54431" lon="2.35252">
        <ele>333.06324285836</ele>
        <time>2022-02-22T16:06:33Z</time>
      </trkpt>
      <trkpt lat="43.54436" lon="2.35242">
        <ele>333.60363659221</ele>
        <time>2022-02-22T16:06:42Z</time>
      </trkpt>
      <trkpt lat="43.54442" lon="2.35233">
        <ele>334.72423429632</ele>
        <time>2022-02-22T16:06:50Z</time>
      </trkpt>
      <trkpt lat="43.54447" lon="2.35223">
        <ele>334.98457586783</ele>
        <time>2022-02-22T16:07:02Z</time>
      </trkpt>
      <trkpt lat="43.54453" lon="2.35214">
        <ele>335.72452277247</ele>
        <time>2022-02-22T16:07:11Z</time>
      </trkpt>
      <trkpt lat="43.54456" lon="2.35204">
        <ele>336.82392676509</ele>
        <time>2022-02-22T16:07:19Z</time>
      </trkpt>
      <trkpt lat="43.54461" lon="2.35194">
        <ele>341.10548448473</ele>
        <time>2022-02-22T16:07:28Z</time>
      </trkpt>
      <trkpt lat="43.54466" lon="2.35185">
        <ele>341.5983841862</ele>
        <time>2022-02-22T16:07:39Z</time>
      </trkpt>
      <trkpt lat="43.54471" lon="2.35175">
        <ele>338.59807984872</ele>
        <time>2022-02-22T16:07:46Z</time>
      </trkpt>
      <trkpt lat="43.54477" lon="2.35166">
        <ele>335.80475067899</ele>
        <time>2022-02-22T16:07:53Z</time>
      </trkpt>
      <trkpt lat="43.54483" lon="2.35158">
        <ele>335.20777613988</ele>
        <time>2022-02-22T16:08:00Z</time>
      </trkpt>
      <trkpt lat="43.54487" lon="2.35147">
        <ele>335.75469131073</ele>
        <time>2022-02-22T16:08:07Z</time>
      </trkpt>
      <trkpt lat="43.54492" lon="2.35139">
        <ele>335.73273721516</ele>
        <time>2022-02-22T16:08:15Z</time>
      </trkpt>
      <trkpt lat="43.54498" lon="2.3513">
        <ele>335.07625664291</ele>
        <time>2022-02-22T16:08:24Z</time>
      </trkpt>
      <trkpt lat="43.54504" lon="2.35122">
        <ele>332.21109177279</ele>
        <time>2022-02-22T16:08:33Z</time>
      </trkpt>
      <trkpt lat="43.54509" lon="2.35112">
        <ele>329.49913658843</ele>
        <time>2022-02-22T16:08:44Z</time>
      </trkpt>
      <trkpt lat="43.54515" lon="2.35104">
        <ele>328.65574590039</ele>
        <time>2022-02-22T16:08:53Z</time>
      </trkpt>
      <trkpt lat="43.54521" lon="2.35096">
        <ele>327.36960497731</ele>
        <time>2022-02-22T16:08:59Z</time>
      </trkpt>
      <trkpt lat="43.54527" lon="2.35087">
        <ele>326.61210574012</ele>
        <time>2022-02-22T16:09:06Z</time>
      </trkpt>
      <trkpt lat="43.54532" lon="2.35079">
        <ele>325.2542593861</ele>
        <time>2022-02-22T16:09:12Z</time>
      </trkpt>
      <trkpt lat="43.54538" lon="2.35072">
        <ele>324.12533265438</ele>
        <time>2022-02-22T16:09:19Z</time>
      </trkpt>
      <trkpt lat="43.54546" lon="2.35068">
        <ele>323.40363951845</ele>
        <time>2022-02-22T16:09:29Z</time>
      </trkpt>
      <trkpt lat="43.54555" lon="2.35071">
        <ele>327.30688950605</ele>
        <time>2022-02-22T16:09:36Z</time>
      </trkpt>
      <trkpt lat="43.54563" lon="2.35071">
        <ele>328.66270537093</ele>
        <time>2022-02-22T16:09:43Z</time>
      </trkpt>
      <trkpt lat="43.54565" lon="2.35059">
        <ele>327.00779548932</ele>
        <time>2022-02-22T16:09:52Z</time>
      </trkpt>
      <trkpt lat="43.54568" lon="2.35048">
        <ele>324.53800604231</ele>
        <time>2022-02-22T16:10:00Z</time>
      </trkpt>
      <trkpt lat="43.54572" lon="2.35038">
        <ele>323.59775392268</ele>
        <time>2022-02-22T16:10:06Z</time>
      </trkpt>
      <trkpt lat="43.54574" lon="2.35026">
        <ele>325.34689558409</ele>
        <time>2022-02-22T16:10:12Z</time>
      </trkpt>
      <trkpt lat="43.54574" lon="2.35014">
        <ele>324.20227426046</ele>
        <time>2022-02-22T16:10:18Z</time>
      </trkpt>
      <trkpt lat="43.54575" lon="2.35003">
        <ele>323.63980974503</ele>
        <time>2022-02-22T16:10:27Z</time>
      </trkpt>
      <trkpt lat="43.54578" lon="2.34994">
        <ele>323.08472944111</ele>
        <time>2022-02-22T16:10:41Z</time>
      </trkpt>
      <trkpt lat="43.54578" lon="2.34994">
        <ele>323.08472944111</ele>
        <time>2022-02-22T16:10:42Z</time>
      </trkpt>
    </trkseg>
  </trk>
</gpx>